<?xml version="1.0" encoding="UTF-8" standalone="no" ?>
<gpx xmlns="http://www.topografix.com/GPX/1/1" xmlns:xsi="http://www.w3.org/2001/XMLSchema-instance" xsi:schemaLocation="http://www.topografix.com/GPX/1/1 http://www.topografix.com/GPX/1/1/gpx.xsd" version="1.1" creator="VisuGPX - https://www.visugpx.com">
  <metadata>
    <name>TRACES &amp;amp; GITES 5m/7pts</name>
  </metadata>
  <wpt lat="44.11547" lon="3.41205">
    <ele>723.6796875</ele>
    <name><![CDATA[AIGUEBONNE Chez Denis]]></name>
    <type><![CDATA[user]]></type>
  </wpt>
  <wpt lat="44.40878" lon="3.41314">
    <ele>934.109375</ele>
    <name><![CDATA[CHAMPERBOUX Les Dolmens]]></name>
    <type><![CDATA[user]]></type>
  </wpt>
  <wpt lat="44.18932" lon="3.20806">
    <ele>426.30078125</ele>
    <name><![CDATA[Forêt]]></name>
    <type><![CDATA[user]]></type>
  </wpt>
  <wpt lat="44.37201" lon="3.5332">
    <ele>520.00390625</ele>
    <name><![CDATA[ISPAGNAC Le Vallon]]></name>
    <desc><![CDATA[Vallon
D907 Bis
Ispagnac, Languedoc-Roussilion, 48320, France
0033-4-66442124]]></desc>
    <cmt><![CDATA[Vallon
D907 Bis
Ispagnac, Languedoc-Roussilion, 48320, France
0033-4-66442124]]></cmt>
    <type><![CDATA[user]]></type>
  </wpt>
  <wpt lat="44.22528" lon="3.51366">
    <ele>1079.17578125</ele>
    <name><![CDATA[L'HOM La ferme]]></name>
    <desc><![CDATA[Chambre D'Hôtes L'Hom
Lieu-Dit L'Hom
Fraissinet-de-Fourques, Languedoc-Roussilion, 48400, France]]></desc>
    <cmt><![CDATA[Chambre D'Hôtes L'Hom
Lieu-Dit L'Hom
Fraissinet-de-Fourques, Languedoc-Roussilion, 48400, France]]></cmt>
    <type><![CDATA[user]]></type>
  </wpt>
  <wpt lat="44.3401" lon="3.47271">
    <ele>525.08984375</ele>
    <name><![CDATA[LE CERET Gite des gorges du Tarn/Les copains d'abord]]></name>
    <type><![CDATA[user]]></type>
  </wpt>
  <wpt lat="44.18913" lon="3.20754">
    <ele>435.7421875</ele>
    <name><![CDATA[LE ROZIER Le gevaudan ou PEYRELEAU Evolution]]></name>
    <type><![CDATA[user]]></type>
  </wpt>
  <wpt lat="44.27777" lon="3.22748">
    <ele>424.09375</ele>
    <name><![CDATA[LES VIGNES Chez Alex]]></name>
    <type><![CDATA[user]]></type>
  </wpt>
  <wpt lat="44.37425" lon="3.77646">
    <ele>1243.0078125</ele>
    <name><![CDATA[VILLENEUVE Ferme de séjour chez Molines J.C.]]></name>
    <type><![CDATA[user]]></type>
  </wpt>
  <trk>
    <name><![CDATA[6 Villeneuve à Ispagnac par Finiel-Lonjagnes et St(!!) Andre]]></name>
    <trkseg>
      <trkpt lat="44.37402" lon="3.77685">
        <ele>1246</ele>
        <time>2019-11-15T16:31:45Z</time>
      </trkpt>
      <trkpt lat="44.37434" lon="3.77769">
        <ele>1252</ele>
        <time>2019-11-15T16:32:01Z</time>
      </trkpt>
      <trkpt lat="44.3744" lon="3.7779">
        <ele>1254</ele>
        <time>2019-11-15T16:32:05Z</time>
      </trkpt>
      <trkpt lat="44.37438" lon="3.77812">
        <ele>1254</ele>
        <time>2019-11-15T16:32:08Z</time>
      </trkpt>
      <trkpt lat="44.37427" lon="3.77833">
        <ele>1252</ele>
        <time>2019-11-15T16:32:13Z</time>
      </trkpt>
      <trkpt lat="44.37389" lon="3.77887">
        <ele>1250</ele>
        <time>2019-11-15T16:32:25Z</time>
      </trkpt>
      <trkpt lat="44.37331" lon="3.78">
        <ele>1247</ele>
        <time>2019-11-15T16:32:48Z</time>
      </trkpt>
      <trkpt lat="44.37314" lon="3.78129">
        <ele>1253</ele>
        <time>2019-11-15T16:33:10Z</time>
      </trkpt>
      <trkpt lat="44.37309" lon="3.78211">
        <ele>1261</ele>
        <time>2019-11-15T16:33:24Z</time>
      </trkpt>
      <trkpt lat="44.37266" lon="3.78288">
        <ele>1252</ele>
        <time>2019-11-15T16:33:40Z</time>
      </trkpt>
      <trkpt lat="44.37241" lon="3.78361">
        <ele>1254</ele>
        <time>2019-11-15T16:33:54Z</time>
      </trkpt>
      <trkpt lat="44.37226" lon="3.78434">
        <ele>1258</ele>
        <time>2019-11-15T16:34:07Z</time>
      </trkpt>
      <trkpt lat="44.37204" lon="3.78636">
        <ele>1267</ele>
        <time>2019-11-15T16:34:41Z</time>
      </trkpt>
      <trkpt lat="44.37189" lon="3.78717">
        <ele>1261</ele>
        <time>2019-11-15T16:34:55Z</time>
      </trkpt>
      <trkpt lat="44.37206" lon="3.78837">
        <ele>1265</ele>
        <time>2019-11-15T16:35:15Z</time>
      </trkpt>
      <trkpt lat="44.37253" lon="3.78915">
        <ele>1271</ele>
        <time>2019-11-15T16:35:32Z</time>
      </trkpt>
      <trkpt lat="44.37246" lon="3.78902">
        <ele>1271</ele>
        <time>2019-11-15T16:35:35Z</time>
      </trkpt>
      <trkpt lat="44.37253" lon="3.78915">
        <ele>1271</ele>
        <time>2019-11-15T16:35:38Z</time>
      </trkpt>
      <trkpt lat="44.3732" lon="3.78996">
        <ele>1269</ele>
        <time>2019-11-15T16:35:58Z</time>
      </trkpt>
      <trkpt lat="44.37321" lon="3.79058">
        <ele>1269</ele>
        <time>2019-11-15T16:36:09Z</time>
      </trkpt>
      <trkpt lat="44.37399" lon="3.79116">
        <ele>1278</ele>
        <time>2019-11-15T16:36:29Z</time>
      </trkpt>
      <trkpt lat="44.37461" lon="3.79108">
        <ele>1280</ele>
        <time>2019-11-15T16:36:44Z</time>
      </trkpt>
      <trkpt lat="44.37647" lon="3.79136">
        <ele>1290</ele>
        <time>2019-11-15T16:37:27Z</time>
      </trkpt>
      <trkpt lat="44.37758" lon="3.79159">
        <ele>1296</ele>
        <time>2019-11-15T16:37:54Z</time>
      </trkpt>
      <trkpt lat="44.37848" lon="3.79242">
        <ele>1303</ele>
        <time>2019-11-15T16:38:19Z</time>
      </trkpt>
      <trkpt lat="44.37905" lon="3.79203">
        <ele>1302</ele>
        <time>2019-11-15T16:38:34Z</time>
      </trkpt>
      <trkpt lat="44.37929" lon="3.7918">
        <ele>1302</ele>
        <time>2019-11-15T16:38:40Z</time>
      </trkpt>
      <trkpt lat="44.3808" lon="3.79098">
        <ele>1312</ele>
        <time>2019-11-15T16:39:18Z</time>
      </trkpt>
      <trkpt lat="44.38185" lon="3.79149">
        <ele>1318</ele>
        <time>2019-11-15T16:39:44Z</time>
      </trkpt>
      <trkpt lat="44.38249" lon="3.79125">
        <ele>1318</ele>
        <time>2019-11-15T16:40:00Z</time>
      </trkpt>
      <trkpt lat="44.3832" lon="3.79156">
        <ele>1319</ele>
        <time>2019-11-15T16:40:17Z</time>
      </trkpt>
      <trkpt lat="44.38535" lon="3.79195">
        <ele>1326</ele>
        <time>2019-11-15T16:41:08Z</time>
      </trkpt>
      <trkpt lat="44.38675" lon="3.79184">
        <ele>1338</ele>
        <time>2019-11-15T16:41:40Z</time>
      </trkpt>
      <trkpt lat="44.38802" lon="3.79195">
        <ele>1343</ele>
        <time>2019-11-15T16:42:10Z</time>
      </trkpt>
      <trkpt lat="44.3888" lon="3.79215">
        <ele>1347</ele>
        <time>2019-11-15T16:42:29Z</time>
      </trkpt>
      <trkpt lat="44.38907" lon="3.79219">
        <ele>1347</ele>
        <time>2019-11-15T16:42:35Z</time>
      </trkpt>
      <trkpt lat="44.38969" lon="3.79191">
        <ele>1344</ele>
        <time>2019-11-15T16:42:50Z</time>
      </trkpt>
      <trkpt lat="44.39077" lon="3.79215">
        <ele>1350</ele>
        <time>2019-11-15T16:43:16Z</time>
      </trkpt>
      <trkpt lat="44.39155" lon="3.7925">
        <ele>1357</ele>
        <time>2019-11-15T16:43:35Z</time>
      </trkpt>
      <trkpt lat="44.39205" lon="3.79262">
        <ele>1360</ele>
        <time>2019-11-15T16:43:47Z</time>
      </trkpt>
      <trkpt lat="44.3921" lon="3.79252">
        <ele>1360</ele>
        <time>2019-11-15T16:43:49Z</time>
      </trkpt>
      <trkpt lat="44.39224" lon="3.79237">
        <ele>1359</ele>
        <time>2019-11-15T16:43:53Z</time>
      </trkpt>
      <trkpt lat="44.39254" lon="3.79222">
        <ele>1358</ele>
        <time>2019-11-15T16:44:00Z</time>
      </trkpt>
      <trkpt lat="44.39279" lon="3.79203">
        <ele>1358</ele>
        <time>2019-11-15T16:44:07Z</time>
      </trkpt>
      <trkpt lat="44.39296" lon="3.79176">
        <ele>1355</ele>
        <time>2019-11-15T16:44:13Z</time>
      </trkpt>
      <trkpt lat="44.39363" lon="3.79122">
        <ele>1352</ele>
        <time>2019-11-15T16:44:31Z</time>
      </trkpt>
      <trkpt lat="44.394" lon="3.79081">
        <ele>1350</ele>
        <time>2019-11-15T16:44:42Z</time>
      </trkpt>
      <trkpt lat="44.3941" lon="3.79067">
        <ele>1352</ele>
        <time>2019-11-15T16:44:45Z</time>
      </trkpt>
      <trkpt lat="44.3942" lon="3.79045">
        <ele>1353</ele>
        <time>2019-11-15T16:44:50Z</time>
      </trkpt>
      <trkpt lat="44.39424" lon="3.79018">
        <ele>1353</ele>
        <time>2019-11-15T16:44:54Z</time>
      </trkpt>
      <trkpt lat="44.39421" lon="3.78992">
        <ele>1355</ele>
        <time>2019-11-15T16:44:59Z</time>
      </trkpt>
      <trkpt lat="44.39406" lon="3.7898">
        <ele>1356</ele>
        <time>2019-11-15T16:45:03Z</time>
      </trkpt>
      <trkpt lat="44.39358" lon="3.78957">
        <ele>1356</ele>
        <time>2019-11-15T16:45:15Z</time>
      </trkpt>
      <trkpt lat="44.39314" lon="3.78941">
        <ele>1355</ele>
        <time>2019-11-15T16:45:25Z</time>
      </trkpt>
      <trkpt lat="44.39231" lon="3.78927">
        <ele>1350</ele>
        <time>2019-11-15T16:45:45Z</time>
      </trkpt>
      <trkpt lat="44.39222" lon="3.78924">
        <ele>1349</ele>
        <time>2019-11-15T16:45:47Z</time>
      </trkpt>
      <trkpt lat="44.39201" lon="3.78909">
        <ele>1350</ele>
        <time>2019-11-15T16:45:52Z</time>
      </trkpt>
      <trkpt lat="44.39174" lon="3.78896">
        <ele>1349</ele>
        <time>2019-11-15T16:45:59Z</time>
      </trkpt>
      <trkpt lat="44.39158" lon="3.78893">
        <ele>1348</ele>
        <time>2019-11-15T16:46:03Z</time>
      </trkpt>
      <trkpt lat="44.39133" lon="3.78896">
        <ele>1347</ele>
        <time>2019-11-15T16:46:09Z</time>
      </trkpt>
      <trkpt lat="44.39076" lon="3.78894">
        <ele>1345</ele>
        <time>2019-11-15T16:46:22Z</time>
      </trkpt>
      <trkpt lat="44.39005" lon="3.78872">
        <ele>1344</ele>
        <time>2019-11-15T16:46:39Z</time>
      </trkpt>
      <trkpt lat="44.38991" lon="3.78856">
        <ele>1344</ele>
        <time>2019-11-15T16:46:43Z</time>
      </trkpt>
      <trkpt lat="44.38982" lon="3.78837">
        <ele>1345</ele>
        <time>2019-11-15T16:46:47Z</time>
      </trkpt>
      <trkpt lat="44.3898" lon="3.78807">
        <ele>1344</ele>
        <time>2019-11-15T16:46:52Z</time>
      </trkpt>
      <trkpt lat="44.38989" lon="3.78762">
        <ele>1345</ele>
        <time>2019-11-15T16:47:00Z</time>
      </trkpt>
      <trkpt lat="44.38995" lon="3.78745">
        <ele>1345</ele>
        <time>2019-11-15T16:47:03Z</time>
      </trkpt>
      <trkpt lat="44.39012" lon="3.78715">
        <ele>1344</ele>
        <time>2019-11-15T16:47:09Z</time>
      </trkpt>
      <trkpt lat="44.39056" lon="3.78684">
        <ele>1346</ele>
        <time>2019-11-15T16:47:21Z</time>
      </trkpt>
      <trkpt lat="44.39089" lon="3.78642">
        <ele>1346</ele>
        <time>2019-11-15T16:47:31Z</time>
      </trkpt>
      <trkpt lat="44.39103" lon="3.7863">
        <ele>1347</ele>
        <time>2019-11-15T16:47:35Z</time>
      </trkpt>
      <trkpt lat="44.39123" lon="3.78591">
        <ele>1346</ele>
        <time>2019-11-15T16:47:43Z</time>
      </trkpt>
      <trkpt lat="44.39134" lon="3.78555">
        <ele>1348</ele>
        <time>2019-11-15T16:47:50Z</time>
      </trkpt>
      <trkpt lat="44.39105" lon="3.78497">
        <ele>1343</ele>
        <time>2019-11-15T16:48:02Z</time>
      </trkpt>
      <trkpt lat="44.39104" lon="3.78491">
        <ele>1342</ele>
        <time>2019-11-15T16:48:03Z</time>
      </trkpt>
      <trkpt lat="44.39103" lon="3.78454">
        <ele>1342</ele>
        <time>2019-11-15T16:48:09Z</time>
      </trkpt>
      <trkpt lat="44.39112" lon="3.78397">
        <ele>1342</ele>
        <time>2019-11-15T16:48:18Z</time>
      </trkpt>
      <trkpt lat="44.39119" lon="3.78381">
        <ele>1343</ele>
        <time>2019-11-15T16:48:22Z</time>
      </trkpt>
      <trkpt lat="44.39133" lon="3.78329">
        <ele>1341</ele>
        <time>2019-11-15T16:48:31Z</time>
      </trkpt>
      <trkpt lat="44.3914" lon="3.78322">
        <ele>1342</ele>
        <time>2019-11-15T16:48:33Z</time>
      </trkpt>
      <trkpt lat="44.39147" lon="3.7832">
        <ele>1344</ele>
        <time>2019-11-15T16:48:35Z</time>
      </trkpt>
      <trkpt lat="44.39161" lon="3.78309">
        <ele>1346</ele>
        <time>2019-11-15T16:48:38Z</time>
      </trkpt>
      <trkpt lat="44.3917" lon="3.78293">
        <ele>1346</ele>
        <time>2019-11-15T16:48:42Z</time>
      </trkpt>
      <trkpt lat="44.39192" lon="3.78265">
        <ele>1350</ele>
        <time>2019-11-15T16:48:49Z</time>
      </trkpt>
      <trkpt lat="44.39214" lon="3.78224">
        <ele>1354</ele>
        <time>2019-11-15T16:48:57Z</time>
      </trkpt>
      <trkpt lat="44.39224" lon="3.78159">
        <ele>1354</ele>
        <time>2019-11-15T16:49:08Z</time>
      </trkpt>
      <trkpt lat="44.39222" lon="3.78138">
        <ele>1354</ele>
        <time>2019-11-15T16:49:12Z</time>
      </trkpt>
      <trkpt lat="44.39215" lon="3.78124">
        <ele>1354</ele>
        <time>2019-11-15T16:49:15Z</time>
      </trkpt>
      <trkpt lat="44.39186" lon="3.78112">
        <ele>1351</ele>
        <time>2019-11-15T16:49:22Z</time>
      </trkpt>
      <trkpt lat="44.3918" lon="3.78107">
        <ele>1351</ele>
        <time>2019-11-15T16:49:23Z</time>
      </trkpt>
      <trkpt lat="44.39172" lon="3.78087">
        <ele>1352</ele>
        <time>2019-11-15T16:49:27Z</time>
      </trkpt>
      <trkpt lat="44.39164" lon="3.78055">
        <ele>1354</ele>
        <time>2019-11-15T16:49:33Z</time>
      </trkpt>
      <trkpt lat="44.39154" lon="3.7793">
        <ele>1365</ele>
        <time>2019-11-15T16:49:54Z</time>
      </trkpt>
      <trkpt lat="44.3915" lon="3.77914">
        <ele>1366</ele>
        <time>2019-11-15T16:49:57Z</time>
      </trkpt>
      <trkpt lat="44.39133" lon="3.77897">
        <ele>1366</ele>
        <time>2019-11-15T16:50:02Z</time>
      </trkpt>
      <trkpt lat="44.39111" lon="3.77892">
        <ele>1364</ele>
        <time>2019-11-15T16:50:07Z</time>
      </trkpt>
      <trkpt lat="44.39091" lon="3.77884">
        <ele>1362</ele>
        <time>2019-11-15T16:50:12Z</time>
      </trkpt>
      <trkpt lat="44.39047" lon="3.77851">
        <ele>1364</ele>
        <time>2019-11-15T16:50:23Z</time>
      </trkpt>
      <trkpt lat="44.39028" lon="3.77833">
        <ele>1365</ele>
        <time>2019-11-15T16:50:29Z</time>
      </trkpt>
      <trkpt lat="44.39009" lon="3.77807">
        <ele>1365</ele>
        <time>2019-11-15T16:50:35Z</time>
      </trkpt>
      <trkpt lat="44.38994" lon="3.77775">
        <ele>1367</ele>
        <time>2019-11-15T16:50:41Z</time>
      </trkpt>
      <trkpt lat="44.3899" lon="3.77747">
        <ele>1369</ele>
        <time>2019-11-15T16:50:46Z</time>
      </trkpt>
      <trkpt lat="44.38993" lon="3.77721">
        <ele>1368</ele>
        <time>2019-11-15T16:50:50Z</time>
      </trkpt>
      <trkpt lat="44.39006" lon="3.77683">
        <ele>1367</ele>
        <time>2019-11-15T16:50:57Z</time>
      </trkpt>
      <trkpt lat="44.39028" lon="3.77637">
        <ele>1365</ele>
        <time>2019-11-15T16:51:07Z</time>
      </trkpt>
      <trkpt lat="44.39042" lon="3.77617">
        <ele>1363</ele>
        <time>2019-11-15T16:51:11Z</time>
      </trkpt>
      <trkpt lat="44.39062" lon="3.77593">
        <ele>1361</ele>
        <time>2019-11-15T16:51:17Z</time>
      </trkpt>
      <trkpt lat="44.39082" lon="3.77575">
        <ele>1360</ele>
        <time>2019-11-15T16:51:23Z</time>
      </trkpt>
      <trkpt lat="44.39096" lon="3.77564">
        <ele>1360</ele>
        <time>2019-11-15T16:51:27Z</time>
      </trkpt>
      <trkpt lat="44.39122" lon="3.7755">
        <ele>1363</ele>
        <time>2019-11-15T16:51:33Z</time>
      </trkpt>
      <trkpt lat="44.39131" lon="3.77541">
        <ele>1363</ele>
        <time>2019-11-15T16:51:36Z</time>
      </trkpt>
      <trkpt lat="44.3916" lon="3.77454">
        <ele>1354</ele>
        <time>2019-11-15T16:51:52Z</time>
      </trkpt>
      <trkpt lat="44.39177" lon="3.77432">
        <ele>1352</ele>
        <time>2019-11-15T16:51:57Z</time>
      </trkpt>
      <trkpt lat="44.39207" lon="3.77376">
        <ele>1348</ele>
        <time>2019-11-15T16:52:09Z</time>
      </trkpt>
      <trkpt lat="44.39274" lon="3.77394">
        <ele>1354</ele>
        <time>2019-11-15T16:52:25Z</time>
      </trkpt>
      <trkpt lat="44.39313" lon="3.77409">
        <ele>1358</ele>
        <time>2019-11-15T16:52:34Z</time>
      </trkpt>
      <trkpt lat="44.3938" lon="3.77415">
        <ele>1360</ele>
        <time>2019-11-15T16:52:50Z</time>
      </trkpt>
      <trkpt lat="44.39438" lon="3.77424">
        <ele>1364</ele>
        <time>2019-11-15T16:53:04Z</time>
      </trkpt>
      <trkpt lat="44.39453" lon="3.77424">
        <ele>1364</ele>
        <time>2019-11-15T16:53:07Z</time>
      </trkpt>
      <trkpt lat="44.39481" lon="3.77433">
        <ele>1367</ele>
        <time>2019-11-15T16:53:14Z</time>
      </trkpt>
      <trkpt lat="44.39514" lon="3.77436">
        <ele>1368</ele>
        <time>2019-11-15T16:53:22Z</time>
      </trkpt>
      <trkpt lat="44.39536" lon="3.77447">
        <ele>1372</ele>
        <time>2019-11-15T16:53:27Z</time>
      </trkpt>
      <trkpt lat="44.39565" lon="3.77467">
        <ele>1378</ele>
        <time>2019-11-15T16:53:35Z</time>
      </trkpt>
      <trkpt lat="44.39615" lon="3.77473">
        <ele>1377</ele>
        <time>2019-11-15T16:53:46Z</time>
      </trkpt>
      <trkpt lat="44.39622" lon="3.77477">
        <ele>1377</ele>
        <time>2019-11-15T16:53:48Z</time>
      </trkpt>
      <trkpt lat="44.39652" lon="3.77506">
        <ele>1381</ele>
        <time>2019-11-15T16:53:57Z</time>
      </trkpt>
      <trkpt lat="44.39666" lon="3.77528">
        <ele>1384</ele>
        <time>2019-11-15T16:54:02Z</time>
      </trkpt>
      <trkpt lat="44.39688" lon="3.77586">
        <ele>1392</ele>
        <time>2019-11-15T16:54:12Z</time>
      </trkpt>
      <trkpt lat="44.39711" lon="3.77613">
        <ele>1392</ele>
        <time>2019-11-15T16:54:20Z</time>
      </trkpt>
      <trkpt lat="44.39732" lon="3.77654">
        <ele>1395</ele>
        <time>2019-11-15T16:54:28Z</time>
      </trkpt>
      <trkpt lat="44.39776" lon="3.77717">
        <ele>1402</ele>
        <time>2019-11-15T16:54:43Z</time>
      </trkpt>
      <trkpt lat="44.39792" lon="3.77734">
        <ele>1405</ele>
        <time>2019-11-15T16:54:47Z</time>
      </trkpt>
      <trkpt lat="44.39805" lon="3.77743">
        <ele>1407</ele>
        <time>2019-11-15T16:54:51Z</time>
      </trkpt>
      <trkpt lat="44.3985" lon="3.77767">
        <ele>1413</ele>
        <time>2019-11-15T16:55:02Z</time>
      </trkpt>
      <trkpt lat="44.39907" lon="3.77778">
        <ele>1416</ele>
        <time>2019-11-15T16:55:15Z</time>
      </trkpt>
      <trkpt lat="44.39976" lon="3.77784">
        <ele>1421</ele>
        <time>2019-11-15T16:55:32Z</time>
      </trkpt>
      <trkpt lat="44.40046" lon="3.7778">
        <ele>1425</ele>
        <time>2019-11-15T16:55:48Z</time>
      </trkpt>
      <trkpt lat="44.40072" lon="3.77776">
        <ele>1427</ele>
        <time>2019-11-15T16:55:54Z</time>
      </trkpt>
      <trkpt lat="44.40096" lon="3.77768">
        <ele>1427</ele>
        <time>2019-11-15T16:56:00Z</time>
      </trkpt>
      <trkpt lat="44.40164" lon="3.77756">
        <ele>1429</ele>
        <time>2019-11-15T16:56:16Z</time>
      </trkpt>
      <trkpt lat="44.4019" lon="3.77757">
        <ele>1430</ele>
        <time>2019-11-15T16:56:22Z</time>
      </trkpt>
      <trkpt lat="44.40203" lon="3.7776">
        <ele>1430</ele>
        <time>2019-11-15T16:56:25Z</time>
      </trkpt>
      <trkpt lat="44.40216" lon="3.77764">
        <ele>1431</ele>
        <time>2019-11-15T16:56:28Z</time>
      </trkpt>
      <trkpt lat="44.40251" lon="3.77789">
        <ele>1434</ele>
        <time>2019-11-15T16:56:37Z</time>
      </trkpt>
      <trkpt lat="44.40259" lon="3.778">
        <ele>1435</ele>
        <time>2019-11-15T16:56:40Z</time>
      </trkpt>
      <trkpt lat="44.40272" lon="3.77835">
        <ele>1439</ele>
        <time>2019-11-15T16:56:46Z</time>
      </trkpt>
      <trkpt lat="44.40299" lon="3.77867">
        <ele>1443</ele>
        <time>2019-11-15T16:56:55Z</time>
      </trkpt>
      <trkpt lat="44.4031" lon="3.77876">
        <ele>1444</ele>
        <time>2019-11-15T16:56:58Z</time>
      </trkpt>
      <trkpt lat="44.40325" lon="3.77882">
        <ele>1445</ele>
        <time>2019-11-15T16:57:01Z</time>
      </trkpt>
      <trkpt lat="44.40333" lon="3.77888">
        <ele>1446</ele>
        <time>2019-11-15T16:57:03Z</time>
      </trkpt>
      <trkpt lat="44.40342" lon="3.7789">
        <ele>1446</ele>
        <time>2019-11-15T16:57:06Z</time>
      </trkpt>
      <trkpt lat="44.40378" lon="3.77886">
        <ele>1444</ele>
        <time>2019-11-15T16:57:14Z</time>
      </trkpt>
      <trkpt lat="44.40396" lon="3.77889">
        <ele>1444</ele>
        <time>2019-11-15T16:57:18Z</time>
      </trkpt>
      <trkpt lat="44.40422" lon="3.77902">
        <ele>1445</ele>
        <time>2019-11-15T16:57:25Z</time>
      </trkpt>
      <trkpt lat="44.40443" lon="3.77903">
        <ele>1445</ele>
        <time>2019-11-15T16:57:30Z</time>
      </trkpt>
      <trkpt lat="44.40466" lon="3.77916">
        <ele>1446</ele>
        <time>2019-11-15T16:57:35Z</time>
      </trkpt>
      <trkpt lat="44.40496" lon="3.77944">
        <ele>1450</ele>
        <time>2019-11-15T16:57:44Z</time>
      </trkpt>
      <trkpt lat="44.40508" lon="3.7795">
        <ele>1451</ele>
        <time>2019-11-15T16:57:47Z</time>
      </trkpt>
      <trkpt lat="44.40514" lon="3.7795">
        <ele>1452</ele>
        <time>2019-11-15T16:57:48Z</time>
      </trkpt>
      <trkpt lat="44.40532" lon="3.77943">
        <ele>1453</ele>
        <time>2019-11-15T16:57:53Z</time>
      </trkpt>
      <trkpt lat="44.40549" lon="3.77928">
        <ele>1453</ele>
        <time>2019-11-15T16:57:57Z</time>
      </trkpt>
      <trkpt lat="44.40569" lon="3.77885">
        <ele>1449</ele>
        <time>2019-11-15T16:58:06Z</time>
      </trkpt>
      <trkpt lat="44.40582" lon="3.77864">
        <ele>1448</ele>
        <time>2019-11-15T16:58:10Z</time>
      </trkpt>
      <trkpt lat="44.40643" lon="3.77779">
        <ele>1447</ele>
        <time>2019-11-15T16:58:30Z</time>
      </trkpt>
      <trkpt lat="44.40665" lon="3.77757">
        <ele>1448</ele>
        <time>2019-11-15T16:58:37Z</time>
      </trkpt>
      <trkpt lat="44.40682" lon="3.77756">
        <ele>1449</ele>
        <time>2019-11-15T16:58:41Z</time>
      </trkpt>
      <trkpt lat="44.40715" lon="3.77767">
        <ele>1454</ele>
        <time>2019-11-15T16:58:49Z</time>
      </trkpt>
      <trkpt lat="44.40731" lon="3.77769">
        <ele>1455</ele>
        <time>2019-11-15T16:58:52Z</time>
      </trkpt>
      <trkpt lat="44.40789" lon="3.77769">
        <ele>1461</ele>
        <time>2019-11-15T16:59:06Z</time>
      </trkpt>
      <trkpt lat="44.40821" lon="3.77763">
        <ele>1464</ele>
        <time>2019-11-15T16:59:14Z</time>
      </trkpt>
      <trkpt lat="44.40852" lon="3.77754">
        <ele>1465</ele>
        <time>2019-11-15T16:59:21Z</time>
      </trkpt>
      <trkpt lat="44.40917" lon="3.77727">
        <ele>1465</ele>
        <time>2019-11-15T16:59:37Z</time>
      </trkpt>
      <trkpt lat="44.40969" lon="3.7772">
        <ele>1464</ele>
        <time>2019-11-15T16:59:49Z</time>
      </trkpt>
      <trkpt lat="44.40997" lon="3.77724">
        <ele>1464</ele>
        <time>2019-11-15T16:59:56Z</time>
      </trkpt>
      <trkpt lat="44.41014" lon="3.77729">
        <ele>1465</ele>
        <time>2019-11-15T17:00:00Z</time>
      </trkpt>
      <trkpt lat="44.41075" lon="3.77722">
        <ele>1464</ele>
        <time>2019-11-15T17:00:14Z</time>
      </trkpt>
      <trkpt lat="44.411" lon="3.77723">
        <ele>1465</ele>
        <time>2019-11-15T17:00:20Z</time>
      </trkpt>
      <trkpt lat="44.41141" lon="3.77718">
        <ele>1466</ele>
        <time>2019-11-15T17:00:29Z</time>
      </trkpt>
      <trkpt lat="44.41255" lon="3.7773">
        <ele>1472</ele>
        <time>2019-11-15T17:00:56Z</time>
      </trkpt>
      <trkpt lat="44.41264" lon="3.77729">
        <ele>1472</ele>
        <time>2019-11-15T17:00:58Z</time>
      </trkpt>
      <trkpt lat="44.41292" lon="3.77716">
        <ele>1472</ele>
        <time>2019-11-15T17:01:05Z</time>
      </trkpt>
      <trkpt lat="44.41316" lon="3.77709">
        <ele>1473</ele>
        <time>2019-11-15T17:01:11Z</time>
      </trkpt>
      <trkpt lat="44.41336" lon="3.77708">
        <ele>1474</ele>
        <time>2019-11-15T17:01:15Z</time>
      </trkpt>
      <trkpt lat="44.41379" lon="3.77711">
        <ele>1475</ele>
        <time>2019-11-15T17:01:25Z</time>
      </trkpt>
      <trkpt lat="44.4141" lon="3.77724">
        <ele>1477</ele>
        <time>2019-11-15T17:01:33Z</time>
      </trkpt>
      <trkpt lat="44.4143" lon="3.77737">
        <ele>1478</ele>
        <time>2019-11-15T17:01:38Z</time>
      </trkpt>
      <trkpt lat="44.41439" lon="3.77738">
        <ele>1478</ele>
        <time>2019-11-15T17:01:40Z</time>
      </trkpt>
      <trkpt lat="44.41448" lon="3.77731">
        <ele>1479</ele>
        <time>2019-11-15T17:01:43Z</time>
      </trkpt>
      <trkpt lat="44.41452" lon="3.77721">
        <ele>1479</ele>
        <time>2019-11-15T17:01:45Z</time>
      </trkpt>
      <trkpt lat="44.41443" lon="3.77697">
        <ele>1479</ele>
        <time>2019-11-15T17:01:49Z</time>
      </trkpt>
      <trkpt lat="44.41422" lon="3.77666">
        <ele>1478</ele>
        <time>2019-11-15T17:01:56Z</time>
      </trkpt>
      <trkpt lat="44.41384" lon="3.77619">
        <ele>1479</ele>
        <time>2019-11-15T17:02:08Z</time>
      </trkpt>
      <trkpt lat="44.41372" lon="3.77606">
        <ele>1480</ele>
        <time>2019-11-15T17:02:12Z</time>
      </trkpt>
      <trkpt lat="44.41336" lon="3.77576">
        <ele>1478</ele>
        <time>2019-11-15T17:02:21Z</time>
      </trkpt>
      <trkpt lat="44.4131" lon="3.77533">
        <ele>1478</ele>
        <time>2019-11-15T17:02:31Z</time>
      </trkpt>
      <trkpt lat="44.41302" lon="3.77512">
        <ele>1479</ele>
        <time>2019-11-15T17:02:35Z</time>
      </trkpt>
      <trkpt lat="44.4128" lon="3.77445">
        <ele>1481</ele>
        <time>2019-11-15T17:02:47Z</time>
      </trkpt>
      <trkpt lat="44.41276" lon="3.77424">
        <ele>1482</ele>
        <time>2019-11-15T17:02:51Z</time>
      </trkpt>
      <trkpt lat="44.41274" lon="3.77391">
        <ele>1482</ele>
        <time>2019-11-15T17:02:56Z</time>
      </trkpt>
      <trkpt lat="44.41283" lon="3.77344">
        <ele>1484</ele>
        <time>2019-11-15T17:03:04Z</time>
      </trkpt>
      <trkpt lat="44.41316" lon="3.7727">
        <ele>1490</ele>
        <time>2019-11-15T17:03:19Z</time>
      </trkpt>
      <trkpt lat="44.41319" lon="3.77255">
        <ele>1491</ele>
        <time>2019-11-15T17:03:22Z</time>
      </trkpt>
      <trkpt lat="44.41314" lon="3.7724">
        <ele>1491</ele>
        <time>2019-11-15T17:03:24Z</time>
      </trkpt>
      <trkpt lat="44.41301" lon="3.77224">
        <ele>1490</ele>
        <time>2019-11-15T17:03:28Z</time>
      </trkpt>
      <trkpt lat="44.41289" lon="3.77188">
        <ele>1491</ele>
        <time>2019-11-15T17:03:35Z</time>
      </trkpt>
      <trkpt lat="44.41267" lon="3.77156">
        <ele>1492</ele>
        <time>2019-11-15T17:03:42Z</time>
      </trkpt>
      <trkpt lat="44.41218" lon="3.77122">
        <ele>1492</ele>
        <time>2019-11-15T17:03:55Z</time>
      </trkpt>
      <trkpt lat="44.41261" lon="3.77118">
        <ele>1496</ele>
        <time>2019-11-15T17:04:05Z</time>
      </trkpt>
      <trkpt lat="44.41288" lon="3.77125">
        <ele>1497</ele>
        <time>2019-11-15T17:04:12Z</time>
      </trkpt>
      <trkpt lat="44.41407" lon="3.77216">
        <ele>1505</ele>
        <time>2019-11-15T17:04:43Z</time>
      </trkpt>
      <trkpt lat="44.41422" lon="3.77244">
        <ele>1506</ele>
        <time>2019-11-15T17:04:49Z</time>
      </trkpt>
      <trkpt lat="44.41441" lon="3.77322">
        <ele>1505</ele>
        <time>2019-11-15T17:05:03Z</time>
      </trkpt>
      <trkpt lat="44.41445" lon="3.77331">
        <ele>1505</ele>
        <time>2019-11-15T17:05:05Z</time>
      </trkpt>
      <trkpt lat="44.41453" lon="3.77343">
        <ele>1506</ele>
        <time>2019-11-15T17:05:07Z</time>
      </trkpt>
      <trkpt lat="44.41467" lon="3.7735">
        <ele>1507</ele>
        <time>2019-11-15T17:05:11Z</time>
      </trkpt>
      <trkpt lat="44.41473" lon="3.7735">
        <ele>1507</ele>
        <time>2019-11-15T17:05:12Z</time>
      </trkpt>
      <trkpt lat="44.41485" lon="3.77335">
        <ele>1505.97265625</ele>
      </trkpt>
      <trkpt lat="44.41497" lon="3.77306">
        <ele>1507.61328125</ele>
      </trkpt>
      <trkpt lat="44.41515" lon="3.77275">
        <ele>1509.4140625</ele>
      </trkpt>
      <trkpt lat="44.41533" lon="3.77244">
        <ele>1511.86328125</ele>
      </trkpt>
      <trkpt lat="44.4155" lon="3.77214">
        <ele>1514.44921875</ele>
      </trkpt>
      <trkpt lat="44.41579" lon="3.77172">
        <ele>1519.05078125</ele>
      </trkpt>
      <trkpt lat="44.41599" lon="3.77146">
        <ele>1522.671875</ele>
      </trkpt>
      <trkpt lat="44.41616" lon="3.77118">
        <ele>1525.60546875</ele>
      </trkpt>
      <trkpt lat="44.41629" lon="3.771">
        <ele>1527.328125</ele>
      </trkpt>
      <trkpt lat="44.41637" lon="3.77079">
        <ele>1529.109375</ele>
      </trkpt>
      <trkpt lat="44.41645" lon="3.77054">
        <ele>1531.625</ele>
      </trkpt>
      <trkpt lat="44.41671" lon="3.77097">
        <ele>1529.5859375</ele>
      </trkpt>
      <trkpt lat="44.41677" lon="3.77128">
        <ele>1526.98046875</ele>
      </trkpt>
      <trkpt lat="44.4169" lon="3.77149">
        <ele>1524.6875</ele>
      </trkpt>
      <trkpt lat="44.41712" lon="3.77166">
        <ele>1522.1953125</ele>
      </trkpt>
      <trkpt lat="44.41768" lon="3.77116">
        <ele>1526.53125</ele>
      </trkpt>
      <trkpt lat="44.41792" lon="3.77105">
        <ele>1526.70703125</ele>
      </trkpt>
      <trkpt lat="44.41811" lon="3.77088">
        <ele>1528.44921875</ele>
      </trkpt>
      <trkpt lat="44.41819" lon="3.77088">
        <ele>1528.1015625</ele>
      </trkpt>
      <trkpt lat="44.41847" lon="3.77075">
        <ele>1528.82421875</ele>
      </trkpt>
      <trkpt lat="44.4187" lon="3.77054">
        <ele>1531</ele>
      </trkpt>
      <trkpt lat="44.41897" lon="3.77042">
        <ele>1532.0703125</ele>
      </trkpt>
      <trkpt lat="44.41911" lon="3.77025">
        <ele>1534.5703125</ele>
      </trkpt>
      <trkpt lat="44.41926" lon="3.77012">
        <ele>1536.44921875</ele>
      </trkpt>
      <trkpt lat="44.41931" lon="3.76999">
        <ele>1538.5</ele>
      </trkpt>
      <trkpt lat="44.41921" lon="3.76973">
        <ele>1543.37109375</ele>
      </trkpt>
      <trkpt lat="44.41891" lon="3.76966">
        <ele>1545.73828125</ele>
      </trkpt>
      <trkpt lat="44.41863" lon="3.76954">
        <ele>1549.12890625</ele>
      </trkpt>
      <trkpt lat="44.41837" lon="3.76962">
        <ele>1548.734375</ele>
      </trkpt>
      <trkpt lat="44.41811" lon="3.76971">
        <ele>1547.68359375</ele>
      </trkpt>
      <trkpt lat="44.41788" lon="3.76967">
        <ele>1548.8046875</ele>
      </trkpt>
      <trkpt lat="44.41768" lon="3.76964">
        <ele>1548.49609375</ele>
      </trkpt>
      <trkpt lat="44.41736" lon="3.76931">
        <ele>1550.171875</ele>
      </trkpt>
      <trkpt lat="44.41736" lon="3.7692">
        <ele>1551.0625</ele>
      </trkpt>
      <trkpt lat="44.41726" lon="3.76918">
        <ele>1550.2109375</ele>
      </trkpt>
      <trkpt lat="44.41704" lon="3.76891">
        <ele>1549.98828125</ele>
      </trkpt>
      <trkpt lat="44.41681" lon="3.76852">
        <ele>1549.9765625</ele>
      </trkpt>
      <trkpt lat="44.4167" lon="3.76784">
        <ele>1553.41796875</ele>
      </trkpt>
      <trkpt lat="44.41657" lon="3.76753">
        <ele>1553.8203125</ele>
      </trkpt>
      <trkpt lat="44.41653" lon="3.76715">
        <ele>1555.78125</ele>
      </trkpt>
      <trkpt lat="44.41663" lon="3.76672">
        <ele>1560.2109375</ele>
      </trkpt>
      <trkpt lat="44.417" lon="3.76666">
        <ele>1564.3046875</ele>
      </trkpt>
      <trkpt lat="44.41743" lon="3.76709">
        <ele>1567.09375</ele>
      </trkpt>
      <trkpt lat="44.41753" lon="3.76742">
        <ele>1566.74609375</ele>
      </trkpt>
      <trkpt lat="44.41762" lon="3.76788">
        <ele>1564.6328125</ele>
      </trkpt>
      <trkpt lat="44.41773" lon="3.76815">
        <ele>1563.93359375</ele>
      </trkpt>
      <trkpt lat="44.41798" lon="3.76863">
        <ele>1561.48046875</ele>
      </trkpt>
      <trkpt lat="44.41837" lon="3.76894">
        <ele>1558.61328125</ele>
      </trkpt>
      <trkpt lat="44.41858" lon="3.76907">
        <ele>1556.35546875</ele>
      </trkpt>
      <trkpt lat="44.41888" lon="3.76902">
        <ele>1556.40234375</ele>
      </trkpt>
      <trkpt lat="44.4193" lon="3.76897">
        <ele>1556.36328125</ele>
      </trkpt>
      <trkpt lat="44.4198" lon="3.76905">
        <ele>1553.9375</ele>
      </trkpt>
      <trkpt lat="44.42019" lon="3.76894">
        <ele>1554.79296875</ele>
      </trkpt>
      <trkpt lat="44.42047" lon="3.76913">
        <ele>1550.82421875</ele>
      </trkpt>
      <trkpt lat="44.42093" lon="3.76909">
        <ele>1550.203125</ele>
      </trkpt>
      <trkpt lat="44.42128" lon="3.76922">
        <ele>1548.1796875</ele>
      </trkpt>
      <trkpt lat="44.42178" lon="3.7692">
        <ele>1548.5703125</ele>
      </trkpt>
      <trkpt lat="44.42208" lon="3.76936">
        <ele>1547.06640625</ele>
      </trkpt>
      <trkpt lat="44.42233" lon="3.76945">
        <ele>1546.10546875</ele>
      </trkpt>
      <trkpt lat="44.42266" lon="3.7695">
        <ele>1545.328125</ele>
      </trkpt>
      <trkpt lat="44.42298" lon="3.76936">
        <ele>1545.7265625</ele>
      </trkpt>
      <trkpt lat="44.42327" lon="3.76917">
        <ele>1545.90234375</ele>
      </trkpt>
      <trkpt lat="44.4235" lon="3.769">
        <ele>1545.3125</ele>
      </trkpt>
      <trkpt lat="44.42339" lon="3.76852">
        <ele>1548.234375</ele>
      </trkpt>
      <trkpt lat="44.42375" lon="3.76839">
        <ele>1545.953125</ele>
      </trkpt>
      <trkpt lat="44.42426" lon="3.76797">
        <ele>1542</ele>
        <time>2019-11-15T17:09:20Z</time>
      </trkpt>
      <trkpt lat="44.42435" lon="3.76809">
        <ele>1542</ele>
        <time>2019-11-15T17:09:27Z</time>
      </trkpt>
      <trkpt lat="44.42464" lon="3.76723">
        <ele>1542</ele>
        <time>2019-11-15T17:09:40Z</time>
      </trkpt>
      <trkpt lat="44.42473" lon="3.76678">
        <ele>1541</ele>
        <time>2019-11-15T17:09:47Z</time>
      </trkpt>
      <trkpt lat="44.42478" lon="3.76582">
        <ele>1542</ele>
        <time>2019-11-15T17:10:04Z</time>
      </trkpt>
      <trkpt lat="44.42483" lon="3.76564">
        <ele>1543</ele>
        <time>2019-11-15T17:10:07Z</time>
      </trkpt>
      <trkpt lat="44.42489" lon="3.76555">
        <ele>1543</ele>
        <time>2019-11-15T17:10:09Z</time>
      </trkpt>
      <trkpt lat="44.425" lon="3.76547">
        <ele>1542</ele>
        <time>2019-11-15T17:10:12Z</time>
      </trkpt>
      <trkpt lat="44.42511" lon="3.76522">
        <ele>1544</ele>
        <time>2019-11-15T17:10:17Z</time>
      </trkpt>
      <trkpt lat="44.42529" lon="3.76445">
        <ele>1548</ele>
        <time>2019-11-15T17:10:30Z</time>
      </trkpt>
      <trkpt lat="44.42543" lon="3.76409">
        <ele>1550</ele>
        <time>2019-11-15T17:10:37Z</time>
      </trkpt>
      <trkpt lat="44.42556" lon="3.76385">
        <ele>1551</ele>
        <time>2019-11-15T17:10:42Z</time>
      </trkpt>
      <trkpt lat="44.42564" lon="3.76354">
        <ele>1554</ele>
        <time>2019-11-15T17:10:47Z</time>
      </trkpt>
      <trkpt lat="44.42564" lon="3.76336">
        <ele>1557</ele>
        <time>2019-11-15T17:10:50Z</time>
      </trkpt>
      <trkpt lat="44.42557" lon="3.76312">
        <ele>1560</ele>
        <time>2019-11-15T17:10:55Z</time>
      </trkpt>
      <trkpt lat="44.42552" lon="3.7628">
        <ele>1564</ele>
        <time>2019-11-15T17:11:00Z</time>
      </trkpt>
      <trkpt lat="44.42538" lon="3.76242">
        <ele>1569</ele>
        <time>2019-11-15T17:11:07Z</time>
      </trkpt>
      <trkpt lat="44.42521" lon="3.76169">
        <ele>1578</ele>
        <time>2019-11-15T17:11:20Z</time>
      </trkpt>
      <trkpt lat="44.42516" lon="3.7613">
        <ele>1583</ele>
        <time>2019-11-15T17:11:27Z</time>
      </trkpt>
      <trkpt lat="44.42509" lon="3.76111">
        <ele>1586</ele>
        <time>2019-11-15T17:11:30Z</time>
      </trkpt>
      <trkpt lat="44.42508" lon="3.76104">
        <ele>1587</ele>
        <time>2019-11-15T17:11:32Z</time>
      </trkpt>
      <trkpt lat="44.42514" lon="3.76082">
        <ele>1589</ele>
        <time>2019-11-15T17:11:35Z</time>
      </trkpt>
      <trkpt lat="44.42524" lon="3.76061">
        <ele>1591</ele>
        <time>2019-11-15T17:11:40Z</time>
      </trkpt>
      <trkpt lat="44.42541" lon="3.76048">
        <ele>1592</ele>
        <time>2019-11-15T17:11:44Z</time>
      </trkpt>
      <trkpt lat="44.42558" lon="3.76029">
        <ele>1593</ele>
        <time>2019-11-15T17:11:49Z</time>
      </trkpt>
      <trkpt lat="44.42588" lon="3.76006">
        <ele>1595</ele>
        <time>2019-11-15T17:11:57Z</time>
      </trkpt>
      <trkpt lat="44.42613" lon="3.75981">
        <ele>1597</ele>
        <time>2019-11-15T17:12:04Z</time>
      </trkpt>
      <trkpt lat="44.42634" lon="3.75973">
        <ele>1598</ele>
        <time>2019-11-15T17:12:10Z</time>
      </trkpt>
      <trkpt lat="44.42656" lon="3.75971">
        <ele>1597</ele>
        <time>2019-11-15T17:12:15Z</time>
      </trkpt>
      <trkpt lat="44.42694" lon="3.75956">
        <ele>1598</ele>
        <time>2019-11-15T17:12:24Z</time>
      </trkpt>
      <trkpt lat="44.4272" lon="3.7595">
        <ele>1598</ele>
        <time>2019-11-15T17:12:30Z</time>
      </trkpt>
      <trkpt lat="44.42741" lon="3.75933">
        <ele>1600</ele>
        <time>2019-11-15T17:12:36Z</time>
      </trkpt>
      <trkpt lat="44.42761" lon="3.75903">
        <ele>1603</ele>
        <time>2019-11-15T17:12:43Z</time>
      </trkpt>
      <trkpt lat="44.42768" lon="3.7588">
        <ele>1605</ele>
        <time>2019-11-15T17:12:47Z</time>
      </trkpt>
      <trkpt lat="44.42785" lon="3.75841">
        <ele>1607</ele>
        <time>2019-11-15T17:12:54Z</time>
      </trkpt>
      <trkpt lat="44.42801" lon="3.75784">
        <ele>1609</ele>
        <time>2019-11-15T17:13:05Z</time>
      </trkpt>
      <trkpt lat="44.42806" lon="3.75743">
        <ele>1610</ele>
        <time>2019-11-15T17:13:11Z</time>
      </trkpt>
      <trkpt lat="44.42804" lon="3.75678">
        <ele>1614</ele>
        <time>2019-11-15T17:13:22Z</time>
      </trkpt>
      <trkpt lat="44.42773" lon="3.75578">
        <ele>1617</ele>
        <time>2019-11-15T17:13:41Z</time>
      </trkpt>
      <trkpt lat="44.42738" lon="3.75485">
        <ele>1621</ele>
        <time>2019-11-15T17:13:58Z</time>
      </trkpt>
      <trkpt lat="44.42726" lon="3.75439">
        <ele>1624</ele>
        <time>2019-11-15T17:14:06Z</time>
      </trkpt>
      <trkpt lat="44.42716" lon="3.75416">
        <ele>1625</ele>
        <time>2019-11-15T17:14:11Z</time>
      </trkpt>
      <trkpt lat="44.42695" lon="3.75347">
        <ele>1628</ele>
        <time>2019-11-15T17:14:23Z</time>
      </trkpt>
      <trkpt lat="44.42677" lon="3.75312">
        <ele>1630</ele>
        <time>2019-11-15T17:14:30Z</time>
      </trkpt>
      <trkpt lat="44.42652" lon="3.75284">
        <ele>1631</ele>
        <time>2019-11-15T17:14:38Z</time>
      </trkpt>
      <trkpt lat="44.42639" lon="3.75253">
        <ele>1631</ele>
        <time>2019-11-15T17:14:44Z</time>
      </trkpt>
      <trkpt lat="44.42631" lon="3.7524">
        <ele>1632</ele>
        <time>2019-11-15T17:14:47Z</time>
      </trkpt>
      <trkpt lat="44.42605" lon="3.75216">
        <ele>1634</ele>
        <time>2019-11-15T17:14:54Z</time>
      </trkpt>
      <trkpt lat="44.42616" lon="3.75211">
        <ele>1633</ele>
        <time>2019-11-15T17:14:57Z</time>
      </trkpt>
      <trkpt lat="44.42609" lon="3.75185">
        <ele>1634</ele>
        <time>2019-11-15T17:15:01Z</time>
      </trkpt>
      <trkpt lat="44.42578" lon="3.75176">
        <ele>1635</ele>
        <time>2019-11-15T17:15:09Z</time>
      </trkpt>
      <trkpt lat="44.42642" lon="3.75134">
        <ele>1634</ele>
        <time>2019-11-15T17:15:25Z</time>
      </trkpt>
      <trkpt lat="44.42642" lon="3.74966">
        <ele>1652</ele>
        <time>2019-11-15T17:15:53Z</time>
      </trkpt>
      <trkpt lat="44.42659" lon="3.74728">
        <ele>1672</ele>
        <time>2019-11-15T17:16:33Z</time>
      </trkpt>
      <trkpt lat="44.42669" lon="3.74642">
        <ele>1676</ele>
        <time>2019-11-15T17:16:48Z</time>
      </trkpt>
      <trkpt lat="44.4268" lon="3.74603">
        <ele>1679</ele>
        <time>2019-11-15T17:16:55Z</time>
      </trkpt>
      <trkpt lat="44.42694" lon="3.74565">
        <ele>1680</ele>
        <time>2019-11-15T17:17:02Z</time>
      </trkpt>
      <trkpt lat="44.42742" lon="3.74522">
        <ele>1681</ele>
        <time>2019-11-15T17:17:15Z</time>
      </trkpt>
      <trkpt lat="44.4272" lon="3.74474">
        <ele>1681</ele>
        <time>2019-11-15T17:17:25Z</time>
      </trkpt>
      <trkpt lat="44.42664" lon="3.74272">
        <ele>1677</ele>
        <time>2019-11-15T17:18:01Z</time>
      </trkpt>
      <trkpt lat="44.4261" lon="3.73917">
        <ele>1697</ele>
        <time>2019-11-15T17:19:01Z</time>
      </trkpt>
      <trkpt lat="44.42459" lon="3.73874">
        <ele>1690</ele>
        <time>2019-11-15T17:19:37Z</time>
      </trkpt>
      <trkpt lat="44.4227" lon="3.73889">
        <ele>1664</ele>
        <time>2019-11-15T17:20:22Z</time>
      </trkpt>
      <trkpt lat="44.42257" lon="3.74018">
        <ele>1662</ele>
        <time>2019-11-15T17:20:43Z</time>
      </trkpt>
      <trkpt lat="44.42225" lon="3.74084">
        <ele>1659</ele>
        <time>2019-11-15T17:20:57Z</time>
      </trkpt>
      <trkpt lat="44.42171" lon="3.74088">
        <ele>1652</ele>
        <time>2019-11-15T17:21:09Z</time>
      </trkpt>
      <trkpt lat="44.42033" lon="3.74131">
        <ele>1639</ele>
        <time>2019-11-15T17:21:42Z</time>
      </trkpt>
      <trkpt lat="44.41993" lon="3.74123">
        <ele>1631</ele>
        <time>2019-11-15T17:21:52Z</time>
      </trkpt>
      <trkpt lat="44.41925" lon="3.74147">
        <ele>1620</ele>
        <time>2019-11-15T17:22:08Z</time>
      </trkpt>
      <trkpt lat="44.41907" lon="3.74135">
        <ele>1615</ele>
        <time>2019-11-15T17:22:13Z</time>
      </trkpt>
      <trkpt lat="44.41802" lon="3.74182">
        <ele>1596</ele>
        <time>2019-11-15T17:22:38Z</time>
      </trkpt>
      <trkpt lat="44.41764" lon="3.74299">
        <ele>1590</ele>
        <time>2019-11-15T17:23:00Z</time>
      </trkpt>
      <trkpt lat="44.41723" lon="3.74346">
        <ele>1580</ele>
        <time>2019-11-15T17:23:12Z</time>
      </trkpt>
      <trkpt lat="44.41648" lon="3.74307">
        <ele>1565</ele>
        <time>2019-11-15T17:23:31Z</time>
      </trkpt>
      <trkpt lat="44.41616" lon="3.74248">
        <ele>1557</ele>
        <time>2019-11-15T17:23:43Z</time>
      </trkpt>
      <trkpt lat="44.41602" lon="3.74178">
        <ele>1548</ele>
        <time>2019-11-15T17:23:55Z</time>
      </trkpt>
      <trkpt lat="44.41564" lon="3.741">
        <ele>1532</ele>
        <time>2019-11-15T17:24:11Z</time>
      </trkpt>
      <trkpt lat="44.41543" lon="3.74049">
        <ele>1523</ele>
        <time>2019-11-15T17:24:21Z</time>
      </trkpt>
      <trkpt lat="44.4154" lon="3.73952">
        <ele>1512</ele>
        <time>2019-11-15T17:24:37Z</time>
      </trkpt>
      <trkpt lat="44.41524" lon="3.73846">
        <ele>1497</ele>
        <time>2019-11-15T17:24:55Z</time>
      </trkpt>
      <trkpt lat="44.41492" lon="3.73776">
        <ele>1484</ele>
        <time>2019-11-15T17:25:09Z</time>
      </trkpt>
      <trkpt lat="44.41515" lon="3.73693">
        <ele>1479</ele>
        <time>2019-11-15T17:25:24Z</time>
      </trkpt>
      <trkpt lat="44.41526" lon="3.73686">
        <ele>1481</ele>
        <time>2019-11-15T17:25:27Z</time>
      </trkpt>
      <trkpt lat="44.41533" lon="3.73675">
        <ele>1481</ele>
        <time>2019-11-15T17:25:29Z</time>
      </trkpt>
      <trkpt lat="44.41542" lon="3.73657">
        <ele>1482</ele>
        <time>2019-11-15T17:25:33Z</time>
      </trkpt>
      <trkpt lat="44.4155" lon="3.73628">
        <ele>1483</ele>
        <time>2019-11-15T17:25:38Z</time>
      </trkpt>
      <trkpt lat="44.41552" lon="3.73614">
        <ele>1483</ele>
        <time>2019-11-15T17:25:40Z</time>
      </trkpt>
      <trkpt lat="44.41551" lon="3.73569">
        <ele>1483</ele>
        <time>2019-11-15T17:25:48Z</time>
      </trkpt>
      <trkpt lat="44.41557" lon="3.73517">
        <ele>1485</ele>
        <time>2019-11-15T17:25:57Z</time>
      </trkpt>
      <trkpt lat="44.41566" lon="3.73454">
        <ele>1487</ele>
        <time>2019-11-15T17:26:07Z</time>
      </trkpt>
      <trkpt lat="44.41583" lon="3.73389">
        <ele>1490</ele>
        <time>2019-11-15T17:26:19Z</time>
      </trkpt>
      <trkpt lat="44.41595" lon="3.73359">
        <ele>1492</ele>
        <time>2019-11-15T17:26:25Z</time>
      </trkpt>
      <trkpt lat="44.4163" lon="3.7329">
        <ele>1496</ele>
        <time>2019-11-15T17:26:39Z</time>
      </trkpt>
      <trkpt lat="44.41652" lon="3.73255">
        <ele>1498</ele>
        <time>2019-11-15T17:26:47Z</time>
      </trkpt>
      <trkpt lat="44.41747" lon="3.73127">
        <ele>1508</ele>
        <time>2019-11-15T17:27:17Z</time>
      </trkpt>
      <trkpt lat="44.41821" lon="3.73043">
        <ele>1514</ele>
        <time>2019-11-15T17:27:40Z</time>
      </trkpt>
      <trkpt lat="44.41896" lon="3.72965">
        <ele>1522</ele>
        <time>2019-11-15T17:28:01Z</time>
      </trkpt>
      <trkpt lat="44.41929" lon="3.72939">
        <ele>1526</ele>
        <time>2019-11-15T17:28:10Z</time>
      </trkpt>
      <trkpt lat="44.41968" lon="3.72918">
        <ele>1531</ele>
        <time>2019-11-15T17:28:20Z</time>
      </trkpt>
      <trkpt lat="44.42133" lon="3.72815">
        <ele>1542</ele>
        <time>2019-11-15T17:29:02Z</time>
      </trkpt>
      <trkpt lat="44.42218" lon="3.72774">
        <ele>1551</ele>
        <time>2019-11-15T17:29:23Z</time>
      </trkpt>
      <trkpt lat="44.42253" lon="3.7276">
        <ele>1556</ele>
        <time>2019-11-15T17:29:32Z</time>
      </trkpt>
      <trkpt lat="44.42286" lon="3.72755">
        <ele>1561</ele>
        <time>2019-11-15T17:29:40Z</time>
      </trkpt>
      <trkpt lat="44.42313" lon="3.72744">
        <ele>1566</ele>
        <time>2019-11-15T17:29:46Z</time>
      </trkpt>
      <trkpt lat="44.42323" lon="3.72737">
        <ele>1568</ele>
        <time>2019-11-15T17:29:49Z</time>
      </trkpt>
      <trkpt lat="44.42324" lon="3.72728">
        <ele>1568</ele>
        <time>2019-11-15T17:29:50Z</time>
      </trkpt>
      <trkpt lat="44.42321" lon="3.7272">
        <ele>1568</ele>
        <time>2019-11-15T17:29:52Z</time>
      </trkpt>
      <trkpt lat="44.42308" lon="3.7271">
        <ele>1566</ele>
        <time>2019-11-15T17:29:55Z</time>
      </trkpt>
      <trkpt lat="44.42233" lon="3.72619">
        <ele>1562</ele>
        <time>2019-11-15T17:30:18Z</time>
      </trkpt>
      <trkpt lat="44.42172" lon="3.7256">
        <ele>1560</ele>
        <time>2019-11-15T17:30:36Z</time>
      </trkpt>
      <trkpt lat="44.42157" lon="3.72538">
        <ele>1559</ele>
        <time>2019-11-15T17:30:41Z</time>
      </trkpt>
      <trkpt lat="44.42147" lon="3.72508">
        <ele>1561</ele>
        <time>2019-11-15T17:30:46Z</time>
      </trkpt>
      <trkpt lat="44.42137" lon="3.7246">
        <ele>1562</ele>
        <time>2019-11-15T17:30:55Z</time>
      </trkpt>
      <trkpt lat="44.42089" lon="3.72173">
        <ele>1562</ele>
        <time>2019-11-15T17:31:44Z</time>
      </trkpt>
      <trkpt lat="44.42086" lon="3.72122">
        <ele>1560</ele>
        <time>2019-11-15T17:31:52Z</time>
      </trkpt>
      <trkpt lat="44.42088" lon="3.72086">
        <ele>1560</ele>
        <time>2019-11-15T17:31:58Z</time>
      </trkpt>
      <trkpt lat="44.42093" lon="3.72064">
        <ele>1559</ele>
        <time>2019-11-15T17:32:02Z</time>
      </trkpt>
      <trkpt lat="44.42099" lon="3.7205">
        <ele>1559</ele>
        <time>2019-11-15T17:32:05Z</time>
      </trkpt>
      <trkpt lat="44.42121" lon="3.7202">
        <ele>1558</ele>
        <time>2019-11-15T17:32:12Z</time>
      </trkpt>
      <trkpt lat="44.4214" lon="3.72">
        <ele>1558</ele>
        <time>2019-11-15T17:32:18Z</time>
      </trkpt>
      <trkpt lat="44.42197" lon="3.71957">
        <ele>1556</ele>
        <time>2019-11-15T17:32:33Z</time>
      </trkpt>
      <trkpt lat="44.42272" lon="3.71887">
        <ele>1552</ele>
        <time>2019-11-15T17:32:54Z</time>
      </trkpt>
      <trkpt lat="44.42357" lon="3.71777">
        <ele>1548</ele>
        <time>2019-11-15T17:33:21Z</time>
      </trkpt>
      <trkpt lat="44.42388" lon="3.71731">
        <ele>1547</ele>
        <time>2019-11-15T17:33:31Z</time>
      </trkpt>
      <trkpt lat="44.42444" lon="3.71642">
        <ele>1546</ele>
        <time>2019-11-15T17:33:51Z</time>
      </trkpt>
      <trkpt lat="44.42519" lon="3.71462">
        <ele>1546</ele>
        <time>2019-11-15T17:34:26Z</time>
      </trkpt>
      <trkpt lat="44.42545" lon="3.71384">
        <ele>1544</ele>
        <time>2019-11-15T17:34:40Z</time>
      </trkpt>
      <trkpt lat="44.42555" lon="3.71351">
        <ele>1543</ele>
        <time>2019-11-15T17:34:46Z</time>
      </trkpt>
      <trkpt lat="44.42576" lon="3.71248">
        <ele>1538</ele>
        <time>2019-11-15T17:35:04Z</time>
      </trkpt>
      <trkpt lat="44.42587" lon="3.71215">
        <ele>1540</ele>
        <time>2019-11-15T17:35:10Z</time>
      </trkpt>
      <trkpt lat="44.42589" lon="3.7119">
        <ele>1541</ele>
        <time>2019-11-15T17:35:14Z</time>
      </trkpt>
      <trkpt lat="44.42584" lon="3.71177">
        <ele>1540</ele>
        <time>2019-11-15T17:35:17Z</time>
      </trkpt>
      <trkpt lat="44.42546" lon="3.71135">
        <ele>1538</ele>
        <time>2019-11-15T17:35:28Z</time>
      </trkpt>
      <trkpt lat="44.42529" lon="3.7111">
        <ele>1537</ele>
        <time>2019-11-15T17:35:34Z</time>
      </trkpt>
      <trkpt lat="44.42503" lon="3.71031">
        <ele>1540</ele>
        <time>2019-11-15T17:35:48Z</time>
      </trkpt>
      <trkpt lat="44.42485" lon="3.70993">
        <ele>1540</ele>
        <time>2019-11-15T17:35:56Z</time>
      </trkpt>
      <trkpt lat="44.42468" lon="3.70967">
        <ele>1540</ele>
        <time>2019-11-15T17:36:02Z</time>
      </trkpt>
      <trkpt lat="44.42459" lon="3.70943">
        <ele>1540</ele>
        <time>2019-11-15T17:36:06Z</time>
      </trkpt>
      <trkpt lat="44.42456" lon="3.70928">
        <ele>1541</ele>
        <time>2019-11-15T17:36:09Z</time>
      </trkpt>
      <trkpt lat="44.4245" lon="3.70839">
        <ele>1545</ele>
        <time>2019-11-15T17:36:24Z</time>
      </trkpt>
      <trkpt lat="44.42453" lon="3.70775">
        <ele>1546</ele>
        <time>2019-11-15T17:36:35Z</time>
      </trkpt>
      <trkpt lat="44.42457" lon="3.70741">
        <ele>1548</ele>
        <time>2019-11-15T17:36:40Z</time>
      </trkpt>
      <trkpt lat="44.42464" lon="3.70696">
        <ele>1549</ele>
        <time>2019-11-15T17:36:48Z</time>
      </trkpt>
      <trkpt lat="44.42484" lon="3.706">
        <ele>1552</ele>
        <time>2019-11-15T17:37:05Z</time>
      </trkpt>
      <trkpt lat="44.42502" lon="3.70533">
        <ele>1554</ele>
        <time>2019-11-15T17:37:17Z</time>
      </trkpt>
      <trkpt lat="44.42515" lon="3.70501">
        <ele>1555</ele>
        <time>2019-11-15T17:37:23Z</time>
      </trkpt>
      <trkpt lat="44.42537" lon="3.70467">
        <ele>1558</ele>
        <time>2019-11-15T17:37:30Z</time>
      </trkpt>
      <trkpt lat="44.42588" lon="3.70416">
        <ele>1563</ele>
        <time>2019-11-15T17:37:45Z</time>
      </trkpt>
      <trkpt lat="44.42608" lon="3.70393">
        <ele>1565</ele>
        <time>2019-11-15T17:37:51Z</time>
      </trkpt>
      <trkpt lat="44.42643" lon="3.70345">
        <ele>1566</ele>
        <time>2019-11-15T17:38:03Z</time>
      </trkpt>
      <trkpt lat="44.42673" lon="3.70312">
        <ele>1569</ele>
        <time>2019-11-15T17:38:11Z</time>
      </trkpt>
      <trkpt lat="44.42683" lon="3.70295">
        <ele>1571</ele>
        <time>2019-11-15T17:38:15Z</time>
      </trkpt>
      <trkpt lat="44.42687" lon="3.70278">
        <ele>1571</ele>
        <time>2019-11-15T17:38:18Z</time>
      </trkpt>
      <trkpt lat="44.42679" lon="3.70217">
        <ele>1571</ele>
        <time>2019-11-15T17:38:28Z</time>
      </trkpt>
      <trkpt lat="44.42672" lon="3.70196">
        <ele>1571</ele>
        <time>2019-11-15T17:38:32Z</time>
      </trkpt>
      <trkpt lat="44.42667" lon="3.70189">
        <ele>1570</ele>
        <time>2019-11-15T17:38:34Z</time>
      </trkpt>
      <trkpt lat="44.42616" lon="3.70156">
        <ele>1567</ele>
        <time>2019-11-15T17:38:47Z</time>
      </trkpt>
      <trkpt lat="44.42565" lon="3.70119">
        <ele>1566</ele>
        <time>2019-11-15T17:39:01Z</time>
      </trkpt>
      <trkpt lat="44.42532" lon="3.70091">
        <ele>1567</ele>
        <time>2019-11-15T17:39:10Z</time>
      </trkpt>
      <trkpt lat="44.42486" lon="3.7003">
        <ele>1570</ele>
        <time>2019-11-15T17:39:24Z</time>
      </trkpt>
      <trkpt lat="44.42462" lon="3.70009">
        <ele>1571</ele>
        <time>2019-11-15T17:39:31Z</time>
      </trkpt>
      <trkpt lat="44.42378" lon="3.69951">
        <ele>1572</ele>
        <time>2019-11-15T17:39:53Z</time>
      </trkpt>
      <trkpt lat="44.42372" lon="3.69943">
        <ele>1572</ele>
        <time>2019-11-15T17:39:55Z</time>
      </trkpt>
      <trkpt lat="44.42372" lon="3.69939">
        <ele>1573</ele>
        <time>2019-11-15T17:39:55Z</time>
      </trkpt>
      <trkpt lat="44.42378" lon="3.69934">
        <ele>1573</ele>
        <time>2019-11-15T17:39:57Z</time>
      </trkpt>
      <trkpt lat="44.42402" lon="3.69934">
        <ele>1574</ele>
        <time>2019-11-15T17:40:03Z</time>
      </trkpt>
      <trkpt lat="44.4245" lon="3.69921">
        <ele>1577</ele>
        <time>2019-11-15T17:40:14Z</time>
      </trkpt>
      <trkpt lat="44.42484" lon="3.69906">
        <ele>1578</ele>
        <time>2019-11-15T17:40:22Z</time>
      </trkpt>
      <trkpt lat="44.42561" lon="3.69865">
        <ele>1579</ele>
        <time>2019-11-15T17:40:42Z</time>
      </trkpt>
      <trkpt lat="44.4269" lon="3.69839">
        <ele>1583</ele>
        <time>2019-11-15T17:41:12Z</time>
      </trkpt>
      <trkpt lat="44.42834" lon="3.69712">
        <ele>1586</ele>
        <time>2019-11-15T17:41:52Z</time>
      </trkpt>
      <trkpt lat="44.42985" lon="3.69421">
        <ele>1570</ele>
        <time>2019-11-15T17:42:52Z</time>
      </trkpt>
      <trkpt lat="44.43224" lon="3.69366">
        <ele>1568</ele>
        <time>2019-11-15T17:43:48Z</time>
      </trkpt>
      <trkpt lat="44.43426" lon="3.69226">
        <ele>1561</ele>
        <time>2019-11-15T17:44:41Z</time>
      </trkpt>
      <trkpt lat="44.4352" lon="3.69047">
        <ele>1551</ele>
        <time>2019-11-15T17:45:18Z</time>
      </trkpt>
      <trkpt lat="44.43633" lon="3.68802">
        <ele>1539</ele>
        <time>2019-11-15T17:46:07Z</time>
      </trkpt>
      <trkpt lat="44.43639" lon="3.68611">
        <ele>1541</ele>
        <time>2019-11-15T17:46:39Z</time>
      </trkpt>
      <trkpt lat="44.4367" lon="3.68438">
        <ele>1542</ele>
        <time>2019-11-15T17:47:08Z</time>
      </trkpt>
      <trkpt lat="44.43633" lon="3.68274">
        <ele>1547</ele>
        <time>2019-11-15T17:47:37Z</time>
      </trkpt>
      <trkpt lat="44.4352" lon="3.68101">
        <ele>1552</ele>
        <time>2019-11-15T17:48:16Z</time>
      </trkpt>
      <trkpt lat="44.43645" lon="3.67882">
        <ele>1553</ele>
        <time>2019-11-15T17:49:03Z</time>
      </trkpt>
      <trkpt lat="44.43639" lon="3.67355">
        <ele>1566</ele>
        <time>2019-11-15T17:50:31Z</time>
      </trkpt>
      <trkpt lat="44.43488" lon="3.67209">
        <ele>1560</ele>
        <time>2019-11-15T17:51:14Z</time>
      </trkpt>
      <trkpt lat="44.43432" lon="3.66863">
        <ele>1552</ele>
        <time>2019-11-15T17:52:13Z</time>
      </trkpt>
      <trkpt lat="44.43708" lon="3.66654">
        <ele>1544</ele>
        <time>2019-11-15T17:53:26Z</time>
      </trkpt>
      <trkpt lat="44.43765" lon="3.66481">
        <ele>1539</ele>
        <time>2019-11-15T17:53:58Z</time>
      </trkpt>
      <trkpt lat="44.43771" lon="3.66299">
        <ele>1533</ele>
        <time>2019-11-15T17:54:28Z</time>
      </trkpt>
      <trkpt lat="44.43759" lon="3.66099">
        <ele>1533</ele>
        <time>2019-11-15T17:55:02Z</time>
      </trkpt>
      <trkpt lat="44.43595" lon="3.6598">
        <ele>1530</ele>
        <time>2019-11-15T17:55:45Z</time>
      </trkpt>
      <trkpt lat="44.43513" lon="3.65807">
        <ele>1516</ele>
        <time>2019-11-15T17:56:19Z</time>
      </trkpt>
      <trkpt lat="44.43463" lon="3.65516">
        <ele>1505</ele>
        <time>2019-11-15T17:57:09Z</time>
      </trkpt>
      <trkpt lat="44.43438" lon="3.65234">
        <ele>1482</ele>
        <time>2019-11-15T17:57:57Z</time>
      </trkpt>
      <trkpt lat="44.43463" lon="3.64861">
        <ele>1454</ele>
        <time>2019-11-15T17:58:59Z</time>
      </trkpt>
      <trkpt lat="44.43582" lon="3.64388">
        <ele>1432</ele>
        <time>2019-11-15T18:00:23Z</time>
      </trkpt>
      <trkpt lat="44.43362" lon="3.63947">
        <ele>1367</ele>
        <time>2019-11-15T18:01:53Z</time>
      </trkpt>
      <trkpt lat="44.43476" lon="3.63723">
        <ele>1352</ele>
        <time>2019-11-15T18:02:38Z</time>
      </trkpt>
      <trkpt lat="44.43499" lon="3.63612">
        <ele>1338</ele>
        <time>2019-11-15T18:02:58Z</time>
      </trkpt>
      <trkpt lat="44.43425" lon="3.6342">
        <ele>1320</ele>
        <time>2019-11-15T18:03:34Z</time>
      </trkpt>
      <trkpt lat="44.43332" lon="3.63263">
        <ele>1306</ele>
        <time>2019-11-15T18:04:08Z</time>
      </trkpt>
      <trkpt lat="44.43309" lon="3.63156">
        <ele>1297</ele>
        <time>2019-11-15T18:04:27Z</time>
      </trkpt>
      <trkpt lat="44.43216" lon="3.63006">
        <ele>1286</ele>
        <time>2019-11-15T18:05:00Z</time>
      </trkpt>
      <trkpt lat="44.43187" lon="3.62964">
        <ele>1283</ele>
        <time>2019-11-15T18:05:10Z</time>
      </trkpt>
      <trkpt lat="44.43125" lon="3.62916">
        <ele>1278</ele>
        <time>2019-11-15T18:05:26Z</time>
      </trkpt>
      <trkpt lat="44.43068" lon="3.62889">
        <ele>1273</ele>
        <time>2019-11-15T18:05:40Z</time>
      </trkpt>
      <trkpt lat="44.43022" lon="3.6289">
        <ele>1270</ele>
        <time>2019-11-15T18:05:51Z</time>
      </trkpt>
      <trkpt lat="44.42985" lon="3.629">
        <ele>1269</ele>
        <time>2019-11-15T18:06:00Z</time>
      </trkpt>
      <trkpt lat="44.42931" lon="3.62899">
        <ele>1265</ele>
        <time>2019-11-15T18:06:12Z</time>
      </trkpt>
      <trkpt lat="44.43013" lon="3.62834">
        <ele>1262</ele>
        <time>2019-11-15T18:06:34Z</time>
      </trkpt>
      <trkpt lat="44.43033" lon="3.62787">
        <ele>1259</ele>
        <time>2019-11-15T18:06:43Z</time>
      </trkpt>
      <trkpt lat="44.4304" lon="3.62778">
        <ele>1258</ele>
        <time>2019-11-15T18:06:46Z</time>
      </trkpt>
      <trkpt lat="44.43081" lon="3.62744">
        <ele>1258</ele>
        <time>2019-11-15T18:06:57Z</time>
      </trkpt>
      <trkpt lat="44.43146" lon="3.62736">
        <ele>1261</ele>
        <time>2019-11-15T18:07:12Z</time>
      </trkpt>
      <trkpt lat="44.4311" lon="3.62632">
        <ele>1266</ele>
        <time>2019-11-15T18:07:31Z</time>
      </trkpt>
      <trkpt lat="44.43002" lon="3.62652">
        <ele>1258</ele>
        <time>2019-11-15T18:07:57Z</time>
      </trkpt>
      <trkpt lat="44.42818" lon="3.62645">
        <ele>1249</ele>
        <time>2019-11-15T18:08:40Z</time>
      </trkpt>
      <trkpt lat="44.4276" lon="3.62554">
        <ele>1245</ele>
        <time>2019-11-15T18:09:00Z</time>
      </trkpt>
      <trkpt lat="44.42751" lon="3.62327">
        <ele>1245</ele>
        <time>2019-11-15T18:09:38Z</time>
      </trkpt>
      <trkpt lat="44.42697" lon="3.62301">
        <ele>1240</ele>
        <time>2019-11-15T18:09:51Z</time>
      </trkpt>
      <trkpt lat="44.42692" lon="3.62249">
        <ele>1239</ele>
        <time>2019-11-15T18:10:00Z</time>
      </trkpt>
      <trkpt lat="44.42593" lon="3.62294">
        <ele>1230</ele>
        <time>2019-11-15T18:10:24Z</time>
      </trkpt>
      <trkpt lat="44.42571" lon="3.6219">
        <ele>1226</ele>
        <time>2019-11-15T18:10:42Z</time>
      </trkpt>
      <trkpt lat="44.42598" lon="3.62021">
        <ele>1228</ele>
        <time>2019-11-15T18:11:11Z</time>
      </trkpt>
      <trkpt lat="44.42513" lon="3.61859">
        <ele>1237</ele>
        <time>2019-11-15T18:11:45Z</time>
      </trkpt>
      <trkpt lat="44.42481" lon="3.61781">
        <ele>1233</ele>
        <time>2019-11-15T18:12:00Z</time>
      </trkpt>
      <trkpt lat="44.4254" lon="3.61612">
        <ele>1236</ele>
        <time>2019-11-15T18:12:31Z</time>
      </trkpt>
      <trkpt lat="44.42665" lon="3.61384">
        <ele>1252</ele>
        <time>2019-11-15T18:13:19Z</time>
      </trkpt>
      <trkpt lat="44.42903" lon="3.60884">
        <ele>1258</ele>
        <time>2019-11-15T18:14:59Z</time>
      </trkpt>
      <trkpt lat="44.43009" lon="3.60656">
        <ele>1257</ele>
        <time>2019-11-15T18:15:45Z</time>
      </trkpt>
      <trkpt lat="44.43033" lon="3.60566">
        <ele>1256</ele>
        <time>2019-11-15T18:16:01Z</time>
      </trkpt>
      <trkpt lat="44.43047" lon="3.605">
        <ele>1254</ele>
        <time>2019-11-15T18:16:12Z</time>
      </trkpt>
      <trkpt lat="44.43098" lon="3.6032">
        <ele>1247</ele>
        <time>2019-11-15T18:16:45Z</time>
      </trkpt>
      <trkpt lat="44.43099" lon="3.60282">
        <ele>1244</ele>
        <time>2019-11-15T18:16:51Z</time>
      </trkpt>
      <trkpt lat="44.43102" lon="3.60264">
        <ele>1243</ele>
        <time>2019-11-15T18:16:54Z</time>
      </trkpt>
      <trkpt lat="44.43141" lon="3.60138">
        <ele>1239</ele>
        <time>2019-11-15T18:17:17Z</time>
      </trkpt>
      <trkpt lat="44.43166" lon="3.60096">
        <ele>1239</ele>
        <time>2019-11-15T18:17:26Z</time>
      </trkpt>
      <trkpt lat="44.43176" lon="3.60087">
        <ele>1239</ele>
        <time>2019-11-15T18:17:29Z</time>
      </trkpt>
      <trkpt lat="44.43215" lon="3.60018">
        <ele>1234</ele>
        <time>2019-11-15T18:17:43Z</time>
      </trkpt>
      <trkpt lat="44.43231" lon="3.59994">
        <ele>1233</ele>
        <time>2019-11-15T18:17:49Z</time>
      </trkpt>
      <trkpt lat="44.43248" lon="3.59974">
        <ele>1231</ele>
        <time>2019-11-15T18:17:54Z</time>
      </trkpt>
      <trkpt lat="44.43263" lon="3.5995">
        <ele>1228</ele>
        <time>2019-11-15T18:17:59Z</time>
      </trkpt>
      <trkpt lat="44.43271" lon="3.59942">
        <ele>1227</ele>
        <time>2019-11-15T18:18:02Z</time>
      </trkpt>
      <trkpt lat="44.43301" lon="3.5992">
        <ele>1224</ele>
        <time>2019-11-15T18:18:10Z</time>
      </trkpt>
      <trkpt lat="44.43338" lon="3.59916">
        <ele>1223</ele>
        <time>2019-11-15T18:18:18Z</time>
      </trkpt>
      <trkpt lat="44.43359" lon="3.59917">
        <ele>1221</ele>
        <time>2019-11-15T18:18:23Z</time>
      </trkpt>
      <trkpt lat="44.43394" lon="3.59927">
        <ele>1221</ele>
        <time>2019-11-15T18:18:32Z</time>
      </trkpt>
      <trkpt lat="44.43394" lon="3.59919">
        <ele>1219</ele>
        <time>2019-11-15T18:18:33Z</time>
      </trkpt>
      <trkpt lat="44.43379" lon="3.599">
        <ele>1217</ele>
        <time>2019-11-15T18:18:38Z</time>
      </trkpt>
      <trkpt lat="44.43349" lon="3.59837">
        <ele>1209</ele>
        <time>2019-11-15T18:18:50Z</time>
      </trkpt>
      <trkpt lat="44.43331" lon="3.59811">
        <ele>1206</ele>
        <time>2019-11-15T18:18:56Z</time>
      </trkpt>
      <trkpt lat="44.43333" lon="3.59802">
        <ele>1205</ele>
        <time>2019-11-15T18:18:58Z</time>
      </trkpt>
      <trkpt lat="44.43349" lon="3.59796">
        <ele>1204</ele>
        <time>2019-11-15T18:19:02Z</time>
      </trkpt>
      <trkpt lat="44.43356" lon="3.59784">
        <ele>1203</ele>
        <time>2019-11-15T18:19:04Z</time>
      </trkpt>
      <trkpt lat="44.43377" lon="3.59792">
        <ele>1205</ele>
        <time>2019-11-15T18:19:09Z</time>
      </trkpt>
      <trkpt lat="44.434" lon="3.59793">
        <ele>1205</ele>
        <time>2019-11-15T18:19:15Z</time>
      </trkpt>
      <trkpt lat="44.43416" lon="3.59763">
        <ele>1205</ele>
        <time>2019-11-15T18:19:21Z</time>
      </trkpt>
      <trkpt lat="44.4341" lon="3.59741">
        <ele>1205</ele>
        <time>2019-11-15T18:19:25Z</time>
      </trkpt>
      <trkpt lat="44.43381" lon="3.59704">
        <ele>1206</ele>
        <time>2019-11-15T18:19:34Z</time>
      </trkpt>
      <trkpt lat="44.43372" lon="3.59684">
        <ele>1206</ele>
        <time>2019-11-15T18:19:38Z</time>
      </trkpt>
      <trkpt lat="44.43357" lon="3.5963">
        <ele>1208</ele>
        <time>2019-11-15T18:19:48Z</time>
      </trkpt>
      <trkpt lat="44.43338" lon="3.59575">
        <ele>1209</ele>
        <time>2019-11-15T18:19:58Z</time>
      </trkpt>
      <trkpt lat="44.43334" lon="3.59552">
        <ele>1210</ele>
        <time>2019-11-15T18:20:02Z</time>
      </trkpt>
      <trkpt lat="44.43334" lon="3.59533">
        <ele>1211</ele>
        <time>2019-11-15T18:20:05Z</time>
      </trkpt>
      <trkpt lat="44.43323" lon="3.59534">
        <ele>1210</ele>
        <time>2019-11-15T18:20:08Z</time>
      </trkpt>
      <trkpt lat="44.43314" lon="3.59532">
        <ele>1208</ele>
        <time>2019-11-15T18:20:10Z</time>
      </trkpt>
      <trkpt lat="44.43293" lon="3.59538">
        <ele>1205</ele>
        <time>2019-11-15T18:20:15Z</time>
      </trkpt>
      <trkpt lat="44.43284" lon="3.59537">
        <ele>1204</ele>
        <time>2019-11-15T18:20:17Z</time>
      </trkpt>
      <trkpt lat="44.43261" lon="3.59527">
        <ele>1202</ele>
        <time>2019-11-15T18:20:22Z</time>
      </trkpt>
      <trkpt lat="44.43252" lon="3.59519">
        <ele>1201</ele>
        <time>2019-11-15T18:20:25Z</time>
      </trkpt>
      <trkpt lat="44.43247" lon="3.59508">
        <ele>1202</ele>
        <time>2019-11-15T18:20:27Z</time>
      </trkpt>
      <trkpt lat="44.43235" lon="3.59502">
        <ele>1200</ele>
        <time>2019-11-15T18:20:30Z</time>
      </trkpt>
      <trkpt lat="44.43219" lon="3.59481">
        <ele>1199</ele>
        <time>2019-11-15T18:20:35Z</time>
      </trkpt>
      <trkpt lat="44.43206" lon="3.59443">
        <ele>1198</ele>
        <time>2019-11-15T18:20:42Z</time>
      </trkpt>
      <trkpt lat="44.43189" lon="3.5943">
        <ele>1197</ele>
        <time>2019-11-15T18:20:47Z</time>
      </trkpt>
      <trkpt lat="44.43187" lon="3.59425">
        <ele>1197</ele>
        <time>2019-11-15T18:20:48Z</time>
      </trkpt>
      <trkpt lat="44.43175" lon="3.59341">
        <ele>1191</ele>
        <time>2019-11-15T18:21:02Z</time>
      </trkpt>
      <trkpt lat="44.43148" lon="3.59319">
        <ele>1184</ele>
        <time>2019-11-15T18:21:09Z</time>
      </trkpt>
      <trkpt lat="44.43134" lon="3.59295">
        <ele>1177</ele>
        <time>2019-11-15T18:21:14Z</time>
      </trkpt>
      <trkpt lat="44.43134" lon="3.59268">
        <ele>1174</ele>
        <time>2019-11-15T18:21:19Z</time>
      </trkpt>
      <trkpt lat="44.43151" lon="3.59221">
        <ele>1172</ele>
        <time>2019-11-15T18:21:28Z</time>
      </trkpt>
      <trkpt lat="44.4316" lon="3.59171">
        <ele>1168</ele>
        <time>2019-11-15T18:21:36Z</time>
      </trkpt>
      <trkpt lat="44.43133" lon="3.59105">
        <ele>1153</ele>
        <time>2019-11-15T18:21:49Z</time>
      </trkpt>
      <trkpt lat="44.43125" lon="3.59022">
        <ele>1148</ele>
        <time>2019-11-15T18:22:03Z</time>
      </trkpt>
      <trkpt lat="44.43111" lon="3.58958">
        <ele>1142</ele>
        <time>2019-11-15T18:22:14Z</time>
      </trkpt>
      <trkpt lat="44.43116" lon="3.58902">
        <ele>1141</ele>
        <time>2019-11-15T18:22:24Z</time>
      </trkpt>
      <trkpt lat="44.43114" lon="3.58889">
        <ele>1139</ele>
        <time>2019-11-15T18:22:26Z</time>
      </trkpt>
      <trkpt lat="44.43091" lon="3.58845">
        <ele>1129</ele>
        <time>2019-11-15T18:22:35Z</time>
      </trkpt>
      <trkpt lat="44.43088" lon="3.58821">
        <ele>1126</ele>
        <time>2019-11-15T18:22:39Z</time>
      </trkpt>
      <trkpt lat="44.43068" lon="3.58792">
        <ele>1119</ele>
        <time>2019-11-15T18:22:46Z</time>
      </trkpt>
      <trkpt lat="44.4306" lon="3.58775">
        <ele>1117</ele>
        <time>2019-11-15T18:22:49Z</time>
      </trkpt>
      <trkpt lat="44.43041" lon="3.58708">
        <ele>1112</ele>
        <time>2019-11-15T18:23:01Z</time>
      </trkpt>
      <trkpt lat="44.43022" lon="3.58703">
        <ele>1113</ele>
        <time>2019-11-15T18:23:06Z</time>
      </trkpt>
      <trkpt lat="44.42998" lon="3.58692">
        <ele>1116</ele>
        <time>2019-11-15T18:23:11Z</time>
      </trkpt>
      <trkpt lat="44.42991" lon="3.58729">
        <ele>1117</ele>
        <time>2019-11-15T18:23:18Z</time>
      </trkpt>
      <trkpt lat="44.42988" lon="3.58771">
        <ele>1119</ele>
        <time>2019-11-15T18:23:25Z</time>
      </trkpt>
      <trkpt lat="44.42985" lon="3.58774">
        <ele>1120</ele>
        <time>2019-11-15T18:23:26Z</time>
      </trkpt>
      <trkpt lat="44.42982" lon="3.58764">
        <ele>1121</ele>
        <time>2019-11-15T18:23:28Z</time>
      </trkpt>
      <trkpt lat="44.42983" lon="3.58718">
        <ele>1120</ele>
        <time>2019-11-15T18:23:35Z</time>
      </trkpt>
      <trkpt lat="44.42979" lon="3.58691">
        <ele>1120</ele>
        <time>2019-11-15T18:23:40Z</time>
      </trkpt>
      <trkpt lat="44.42972" lon="3.58676">
        <ele>1122</ele>
        <time>2019-11-15T18:23:43Z</time>
      </trkpt>
      <trkpt lat="44.42964" lon="3.58666">
        <ele>1124</ele>
        <time>2019-11-15T18:23:45Z</time>
      </trkpt>
      <trkpt lat="44.42936" lon="3.58642">
        <ele>1130</ele>
        <time>2019-11-15T18:23:53Z</time>
      </trkpt>
      <trkpt lat="44.4292" lon="3.58634">
        <ele>1132</ele>
        <time>2019-11-15T18:23:57Z</time>
      </trkpt>
      <trkpt lat="44.42886" lon="3.58628">
        <ele>1135</ele>
        <time>2019-11-15T18:24:05Z</time>
      </trkpt>
      <trkpt lat="44.4287" lon="3.58622">
        <ele>1135</ele>
        <time>2019-11-15T18:24:09Z</time>
      </trkpt>
      <trkpt lat="44.42808" lon="3.58591">
        <ele>1136</ele>
        <time>2019-11-15T18:24:24Z</time>
      </trkpt>
      <trkpt lat="44.42792" lon="3.5858">
        <ele>1137</ele>
        <time>2019-11-15T18:24:28Z</time>
      </trkpt>
      <trkpt lat="44.4279" lon="3.58576">
        <ele>1137</ele>
        <time>2019-11-15T18:24:29Z</time>
      </trkpt>
      <trkpt lat="44.42777" lon="3.58587">
        <ele>1138</ele>
        <time>2019-11-15T18:24:33Z</time>
      </trkpt>
      <trkpt lat="44.42767" lon="3.58592">
        <ele>1139</ele>
        <time>2019-11-15T18:24:35Z</time>
      </trkpt>
      <trkpt lat="44.42727" lon="3.58631">
        <ele>1142</ele>
        <time>2019-11-15T18:24:47Z</time>
      </trkpt>
      <trkpt lat="44.4269" lon="3.58663">
        <ele>1144</ele>
        <time>2019-11-15T18:24:57Z</time>
      </trkpt>
      <trkpt lat="44.4267" lon="3.58672">
        <ele>1145</ele>
        <time>2019-11-15T18:25:02Z</time>
      </trkpt>
      <trkpt lat="44.42664" lon="3.58681">
        <ele>1146</ele>
        <time>2019-11-15T18:25:04Z</time>
      </trkpt>
      <trkpt lat="44.42566" lon="3.5872">
        <ele>1149</ele>
        <time>2019-11-15T18:25:28Z</time>
      </trkpt>
      <trkpt lat="44.42528" lon="3.5874">
        <ele>1151</ele>
        <time>2019-11-15T18:25:37Z</time>
      </trkpt>
      <trkpt lat="44.42501" lon="3.58757">
        <ele>1154</ele>
        <time>2019-11-15T18:25:44Z</time>
      </trkpt>
      <trkpt lat="44.42437" lon="3.58814">
        <ele>1157</ele>
        <time>2019-11-15T18:26:02Z</time>
      </trkpt>
      <trkpt lat="44.42419" lon="3.58824">
        <ele>1158</ele>
        <time>2019-11-15T18:26:06Z</time>
      </trkpt>
      <trkpt lat="44.42395" lon="3.58844">
        <ele>1157</ele>
        <time>2019-11-15T18:26:13Z</time>
      </trkpt>
      <trkpt lat="44.42368" lon="3.58862">
        <ele>1155</ele>
        <time>2019-11-15T18:26:20Z</time>
      </trkpt>
      <trkpt lat="44.42335" lon="3.58914">
        <ele>1154</ele>
        <time>2019-11-15T18:26:31Z</time>
      </trkpt>
      <trkpt lat="44.42286" lon="3.59003">
        <ele>1156</ele>
        <time>2019-11-15T18:26:50Z</time>
      </trkpt>
      <trkpt lat="44.42276" lon="3.59023">
        <ele>1157</ele>
        <time>2019-11-15T18:26:54Z</time>
      </trkpt>
      <trkpt lat="44.42261" lon="3.59073">
        <ele>1160</ele>
        <time>2019-11-15T18:27:03Z</time>
      </trkpt>
      <trkpt lat="44.42248" lon="3.59094">
        <ele>1160</ele>
        <time>2019-11-15T18:27:08Z</time>
      </trkpt>
      <trkpt lat="44.42242" lon="3.59098">
        <ele>1161</ele>
        <time>2019-11-15T18:27:09Z</time>
      </trkpt>
      <trkpt lat="44.42211" lon="3.59111">
        <ele>1161</ele>
        <time>2019-11-15T18:27:17Z</time>
      </trkpt>
      <trkpt lat="44.42184" lon="3.59118">
        <ele>1162</ele>
        <time>2019-11-15T18:27:23Z</time>
      </trkpt>
      <trkpt lat="44.42141" lon="3.59122">
        <ele>1162</ele>
        <time>2019-11-15T18:27:33Z</time>
      </trkpt>
      <trkpt lat="44.42101" lon="3.59133">
        <ele>1163</ele>
        <time>2019-11-15T18:27:43Z</time>
      </trkpt>
      <trkpt lat="44.42091" lon="3.59138">
        <ele>1163</ele>
        <time>2019-11-15T18:27:45Z</time>
      </trkpt>
      <trkpt lat="44.42066" lon="3.59167">
        <ele>1164</ele>
        <time>2019-11-15T18:27:53Z</time>
      </trkpt>
      <trkpt lat="44.42057" lon="3.59172">
        <ele>1165</ele>
        <time>2019-11-15T18:27:55Z</time>
      </trkpt>
      <trkpt lat="44.42046" lon="3.59173">
        <ele>1165</ele>
        <time>2019-11-15T18:27:58Z</time>
      </trkpt>
      <trkpt lat="44.42019" lon="3.5917">
        <ele>1166</ele>
        <time>2019-11-15T18:28:04Z</time>
      </trkpt>
      <trkpt lat="44.41963" lon="3.59161">
        <ele>1166</ele>
        <time>2019-11-15T18:28:17Z</time>
      </trkpt>
      <trkpt lat="44.41937" lon="3.59152">
        <ele>1166</ele>
        <time>2019-11-15T18:28:23Z</time>
      </trkpt>
      <trkpt lat="44.41927" lon="3.59151">
        <ele>1166</ele>
        <time>2019-11-15T18:28:26Z</time>
      </trkpt>
      <trkpt lat="44.41973" lon="3.58629">
        <ele>1138</ele>
        <time>2019-11-15T18:29:54Z</time>
      </trkpt>
      <trkpt lat="44.41921" lon="3.5861">
        <ele>1138</ele>
        <time>2019-11-15T18:30:06Z</time>
      </trkpt>
      <trkpt lat="44.41845" lon="3.58566">
        <ele>1134</ele>
        <time>2019-11-15T18:30:25Z</time>
      </trkpt>
      <trkpt lat="44.41814" lon="3.58556">
        <ele>1133</ele>
        <time>2019-11-15T18:30:33Z</time>
      </trkpt>
      <trkpt lat="44.4179" lon="3.5853">
        <ele>1131</ele>
        <time>2019-11-15T18:30:40Z</time>
      </trkpt>
      <trkpt lat="44.41761" lon="3.58515">
        <ele>1131</ele>
        <time>2019-11-15T18:30:47Z</time>
      </trkpt>
      <trkpt lat="44.41704" lon="3.58469">
        <ele>1127</ele>
        <time>2019-11-15T18:31:02Z</time>
      </trkpt>
      <trkpt lat="44.41691" lon="3.58463">
        <ele>1127</ele>
        <time>2019-11-15T18:31:06Z</time>
      </trkpt>
      <trkpt lat="44.41679" lon="3.58441">
        <ele>1126</ele>
        <time>2019-11-15T18:31:10Z</time>
      </trkpt>
      <trkpt lat="44.41672" lon="3.58407">
        <ele>1125</ele>
        <time>2019-11-15T18:31:16Z</time>
      </trkpt>
      <trkpt lat="44.41638" lon="3.58339">
        <ele>1123</ele>
        <time>2019-11-15T18:31:30Z</time>
      </trkpt>
      <trkpt lat="44.41622" lon="3.58325">
        <ele>1124</ele>
        <time>2019-11-15T18:31:34Z</time>
      </trkpt>
      <trkpt lat="44.41597" lon="3.58309">
        <ele>1124</ele>
        <time>2019-11-15T18:31:41Z</time>
      </trkpt>
      <trkpt lat="44.4157" lon="3.58285">
        <ele>1122</ele>
        <time>2019-11-15T18:31:48Z</time>
      </trkpt>
      <trkpt lat="44.41498" lon="3.58238">
        <ele>1120</ele>
        <time>2019-11-15T18:32:07Z</time>
      </trkpt>
      <trkpt lat="44.41472" lon="3.58211">
        <ele>1115</ele>
        <time>2019-11-15T18:32:14Z</time>
      </trkpt>
      <trkpt lat="44.41422" lon="3.5818">
        <ele>1110</ele>
        <time>2019-11-15T18:32:27Z</time>
      </trkpt>
      <trkpt lat="44.41399" lon="3.58163">
        <ele>1108</ele>
        <time>2019-11-15T18:32:33Z</time>
      </trkpt>
      <trkpt lat="44.41374" lon="3.5814">
        <ele>1105</ele>
        <time>2019-11-15T18:32:40Z</time>
      </trkpt>
      <trkpt lat="44.41327" lon="3.58088">
        <ele>1100</ele>
        <time>2019-11-15T18:32:54Z</time>
      </trkpt>
      <trkpt lat="44.41315" lon="3.58074">
        <ele>1098</ele>
        <time>2019-11-15T18:32:58Z</time>
      </trkpt>
      <trkpt lat="44.41297" lon="3.58046">
        <ele>1094</ele>
        <time>2019-11-15T18:33:04Z</time>
      </trkpt>
      <trkpt lat="44.41239" lon="3.57986">
        <ele>1088</ele>
        <time>2019-11-15T18:33:21Z</time>
      </trkpt>
      <trkpt lat="44.41218" lon="3.57968">
        <ele>1085</ele>
        <time>2019-11-15T18:33:27Z</time>
      </trkpt>
      <trkpt lat="44.41178" lon="3.57942">
        <ele>1081</ele>
        <time>2019-11-15T18:33:37Z</time>
      </trkpt>
      <trkpt lat="44.41165" lon="3.57939">
        <ele>1080</ele>
        <time>2019-11-15T18:33:40Z</time>
      </trkpt>
      <trkpt lat="44.4115" lon="3.57941">
        <ele>1079</ele>
        <time>2019-11-15T18:33:44Z</time>
      </trkpt>
      <trkpt lat="44.41134" lon="3.57947">
        <ele>1077</ele>
        <time>2019-11-15T18:33:47Z</time>
      </trkpt>
      <trkpt lat="44.41121" lon="3.57955">
        <ele>1076</ele>
        <time>2019-11-15T18:33:51Z</time>
      </trkpt>
      <trkpt lat="44.41108" lon="3.57969">
        <ele>1076</ele>
        <time>2019-11-15T18:33:55Z</time>
      </trkpt>
      <trkpt lat="44.41096" lon="3.57996">
        <ele>1076</ele>
        <time>2019-11-15T18:34:00Z</time>
      </trkpt>
      <trkpt lat="44.41093" lon="3.57999">
        <ele>1075</ele>
        <time>2019-11-15T18:34:01Z</time>
      </trkpt>
      <trkpt lat="44.41088" lon="3.57993">
        <ele>1074</ele>
        <time>2019-11-15T18:34:02Z</time>
      </trkpt>
      <trkpt lat="44.41073" lon="3.57879">
        <ele>1066</ele>
        <time>2019-11-15T18:34:22Z</time>
      </trkpt>
      <trkpt lat="44.41063" lon="3.57771">
        <ele>1055</ele>
        <time>2019-11-15T18:34:40Z</time>
      </trkpt>
      <trkpt lat="44.41037" lon="3.57707">
        <ele>1049</ele>
        <time>2019-11-15T18:34:52Z</time>
      </trkpt>
      <trkpt lat="44.41001" lon="3.57648">
        <ele>1050</ele>
        <time>2019-11-15T18:35:05Z</time>
      </trkpt>
      <trkpt lat="44.40987" lon="3.57622">
        <ele>1051</ele>
        <time>2019-11-15T18:35:11Z</time>
      </trkpt>
      <trkpt lat="44.40983" lon="3.57607">
        <ele>1052</ele>
        <time>2019-11-15T18:35:13Z</time>
      </trkpt>
      <trkpt lat="44.40988" lon="3.57576">
        <ele>1053</ele>
        <time>2019-11-15T18:35:18Z</time>
      </trkpt>
      <trkpt lat="44.40982" lon="3.57548">
        <ele>1054</ele>
        <time>2019-11-15T18:35:23Z</time>
      </trkpt>
      <trkpt lat="44.40986" lon="3.57529">
        <ele>1054</ele>
        <time>2019-11-15T18:35:27Z</time>
      </trkpt>
      <trkpt lat="44.40979" lon="3.57464">
        <ele>1055</ele>
        <time>2019-11-15T18:35:38Z</time>
      </trkpt>
      <trkpt lat="44.40971" lon="3.57428">
        <ele>1054</ele>
        <time>2019-11-15T18:35:44Z</time>
      </trkpt>
      <trkpt lat="44.40982" lon="3.57406">
        <ele>1052</ele>
        <time>2019-11-15T18:35:48Z</time>
      </trkpt>
      <trkpt lat="44.41026" lon="3.57382">
        <ele>1044</ele>
        <time>2019-11-15T18:35:59Z</time>
      </trkpt>
      <trkpt lat="44.41033" lon="3.57292">
        <ele>1034</ele>
        <time>2019-11-15T18:36:15Z</time>
      </trkpt>
      <trkpt lat="44.41011" lon="3.57216">
        <ele>1026</ele>
        <time>2019-11-15T18:36:28Z</time>
      </trkpt>
      <trkpt lat="44.40991" lon="3.57192">
        <ele>1023</ele>
        <time>2019-11-15T18:36:34Z</time>
      </trkpt>
      <trkpt lat="44.4098" lon="3.57172">
        <ele>1020</ele>
        <time>2019-11-15T18:36:39Z</time>
      </trkpt>
      <trkpt lat="44.40965" lon="3.57153">
        <ele>1017</ele>
        <time>2019-11-15T18:36:43Z</time>
      </trkpt>
      <trkpt lat="44.4095" lon="3.57146">
        <ele>1016</ele>
        <time>2019-11-15T18:36:47Z</time>
      </trkpt>
      <trkpt lat="44.40935" lon="3.57133">
        <ele>1015</ele>
        <time>2019-11-15T18:36:51Z</time>
      </trkpt>
      <trkpt lat="44.40921" lon="3.57114">
        <ele>1012</ele>
        <time>2019-11-15T18:36:56Z</time>
      </trkpt>
      <trkpt lat="44.40909" lon="3.57089">
        <ele>1008</ele>
        <time>2019-11-15T18:37:01Z</time>
      </trkpt>
      <trkpt lat="44.40897" lon="3.5704">
        <ele>1000</ele>
        <time>2019-11-15T18:37:09Z</time>
      </trkpt>
      <trkpt lat="44.40899" lon="3.56967">
        <ele>993</ele>
        <time>2019-11-15T18:37:22Z</time>
      </trkpt>
      <trkpt lat="44.40908" lon="3.56942">
        <ele>992</ele>
        <time>2019-11-15T18:37:26Z</time>
      </trkpt>
      <trkpt lat="44.40921" lon="3.56929">
        <ele>992</ele>
        <time>2019-11-15T18:37:30Z</time>
      </trkpt>
      <trkpt lat="44.40939" lon="3.56933">
        <ele>994</ele>
        <time>2019-11-15T18:37:34Z</time>
      </trkpt>
      <trkpt lat="44.40948" lon="3.56949">
        <ele>995</ele>
        <time>2019-11-15T18:37:38Z</time>
      </trkpt>
      <trkpt lat="44.40978" lon="3.5697">
        <ele>997</ele>
        <time>2019-11-15T18:37:45Z</time>
      </trkpt>
      <trkpt lat="44.41001" lon="3.56994">
        <ele>999</ele>
        <time>2019-11-15T18:37:52Z</time>
      </trkpt>
      <trkpt lat="44.41024" lon="3.56994">
        <ele>998</ele>
        <time>2019-11-15T18:37:57Z</time>
      </trkpt>
      <trkpt lat="44.41023" lon="3.56971">
        <ele>997</ele>
        <time>2019-11-15T18:38:01Z</time>
      </trkpt>
      <trkpt lat="44.41033" lon="3.5693">
        <ele>995</ele>
        <time>2019-11-15T18:38:09Z</time>
      </trkpt>
      <trkpt lat="44.41033" lon="3.5692">
        <ele>995</ele>
        <time>2019-11-15T18:38:10Z</time>
      </trkpt>
      <trkpt lat="44.41017" lon="3.56877">
        <ele>991</ele>
        <time>2019-11-15T18:38:18Z</time>
      </trkpt>
      <trkpt lat="44.41005" lon="3.5686">
        <ele>988</ele>
        <time>2019-11-15T18:38:22Z</time>
      </trkpt>
      <trkpt lat="44.40997" lon="3.5685">
        <ele>986</ele>
        <time>2019-11-15T18:38:25Z</time>
      </trkpt>
      <trkpt lat="44.40969" lon="3.56837">
        <ele>984</ele>
        <time>2019-11-15T18:38:32Z</time>
      </trkpt>
      <trkpt lat="44.4095" lon="3.56835">
        <ele>983</ele>
        <time>2019-11-15T18:38:36Z</time>
      </trkpt>
      <trkpt lat="44.40922" lon="3.56819">
        <ele>979</ele>
        <time>2019-11-15T18:38:43Z</time>
      </trkpt>
      <trkpt lat="44.40881" lon="3.56823">
        <ele>977</ele>
        <time>2019-11-15T18:38:53Z</time>
      </trkpt>
      <trkpt lat="44.40846" lon="3.56811">
        <ele>970</ele>
        <time>2019-11-15T18:39:01Z</time>
      </trkpt>
      <trkpt lat="44.40832" lon="3.56811">
        <ele>969</ele>
        <time>2019-11-15T18:39:04Z</time>
      </trkpt>
      <trkpt lat="44.40827" lon="3.56813">
        <ele>969</ele>
        <time>2019-11-15T18:39:06Z</time>
      </trkpt>
      <trkpt lat="44.40816" lon="3.56826">
        <ele>970</ele>
        <time>2019-11-15T18:39:09Z</time>
      </trkpt>
      <trkpt lat="44.40799" lon="3.5684">
        <ele>968</ele>
        <time>2019-11-15T18:39:14Z</time>
      </trkpt>
      <trkpt lat="44.40787" lon="3.5692">
        <ele>968</ele>
        <time>2019-11-15T18:39:27Z</time>
      </trkpt>
      <trkpt lat="44.40777" lon="3.56946">
        <ele>968</ele>
        <time>2019-11-15T18:39:32Z</time>
      </trkpt>
      <trkpt lat="44.4077" lon="3.56955">
        <ele>967</ele>
        <time>2019-11-15T18:39:34Z</time>
      </trkpt>
      <trkpt lat="44.40766" lon="3.56953">
        <ele>966</ele>
        <time>2019-11-15T18:39:35Z</time>
      </trkpt>
      <trkpt lat="44.4076" lon="3.56908">
        <ele>960</ele>
        <time>2019-11-15T18:39:43Z</time>
      </trkpt>
      <trkpt lat="44.40748" lon="3.56882">
        <ele>957</ele>
        <time>2019-11-15T18:39:48Z</time>
      </trkpt>
      <trkpt lat="44.40738" lon="3.56872">
        <ele>954</ele>
        <time>2019-11-15T18:39:51Z</time>
      </trkpt>
      <trkpt lat="44.40736" lon="3.56874">
        <ele>953</ele>
        <time>2019-11-15T18:39:52Z</time>
      </trkpt>
      <trkpt lat="44.40736" lon="3.56896">
        <ele>954</ele>
        <time>2019-11-15T18:39:55Z</time>
      </trkpt>
      <trkpt lat="44.40732" lon="3.56903">
        <ele>953</ele>
        <time>2019-11-15T18:39:57Z</time>
      </trkpt>
      <trkpt lat="44.40712" lon="3.56925">
        <ele>950</ele>
        <time>2019-11-15T18:40:03Z</time>
      </trkpt>
      <trkpt lat="44.40701" lon="3.56931">
        <ele>949</ele>
        <time>2019-11-15T18:40:06Z</time>
      </trkpt>
      <trkpt lat="44.40693" lon="3.5693">
        <ele>947</ele>
        <time>2019-11-15T18:40:07Z</time>
      </trkpt>
      <trkpt lat="44.40686" lon="3.56922">
        <ele>944</ele>
        <time>2019-11-15T18:40:10Z</time>
      </trkpt>
      <trkpt lat="44.40672" lon="3.56915">
        <ele>939</ele>
        <time>2019-11-15T18:40:13Z</time>
      </trkpt>
      <trkpt lat="44.4063" lon="3.56908">
        <ele>935</ele>
        <time>2019-11-15T18:40:23Z</time>
      </trkpt>
      <trkpt lat="44.40628" lon="3.56903">
        <ele>934</ele>
        <time>2019-11-15T18:40:24Z</time>
      </trkpt>
      <trkpt lat="44.40631" lon="3.56899">
        <ele>933</ele>
        <time>2019-11-15T18:40:25Z</time>
      </trkpt>
      <trkpt lat="44.40637" lon="3.56895">
        <ele>933</ele>
        <time>2019-11-15T18:40:26Z</time>
      </trkpt>
      <trkpt lat="44.40647" lon="3.56881">
        <ele>931</ele>
        <time>2019-11-15T18:40:30Z</time>
      </trkpt>
      <trkpt lat="44.40664" lon="3.56869">
        <ele>932</ele>
        <time>2019-11-15T18:40:34Z</time>
      </trkpt>
      <trkpt lat="44.40668" lon="3.56859">
        <ele>932</ele>
        <time>2019-11-15T18:40:36Z</time>
      </trkpt>
      <trkpt lat="44.40666" lon="3.56844">
        <ele>929</ele>
        <time>2019-11-15T18:40:39Z</time>
      </trkpt>
      <trkpt lat="44.40662" lon="3.56836">
        <ele>927</ele>
        <time>2019-11-15T18:40:40Z</time>
      </trkpt>
      <trkpt lat="44.40661" lon="3.56819">
        <ele>926</ele>
        <time>2019-11-15T18:40:43Z</time>
      </trkpt>
      <trkpt lat="44.40634" lon="3.56758">
        <ele>912</ele>
        <time>2019-11-15T18:40:55Z</time>
      </trkpt>
      <trkpt lat="44.4063" lon="3.56763">
        <ele>910</ele>
        <time>2019-11-15T18:40:56Z</time>
      </trkpt>
      <trkpt lat="44.40623" lon="3.56787">
        <ele>910</ele>
        <time>2019-11-15T18:41:01Z</time>
      </trkpt>
      <trkpt lat="44.4062" lon="3.56813">
        <ele>913</ele>
        <time>2019-11-15T18:41:05Z</time>
      </trkpt>
      <trkpt lat="44.40611" lon="3.56819">
        <ele>911</ele>
        <time>2019-11-15T18:41:07Z</time>
      </trkpt>
      <trkpt lat="44.4059" lon="3.56811">
        <ele>903</ele>
        <time>2019-11-15T18:41:12Z</time>
      </trkpt>
      <trkpt lat="44.4058" lon="3.56812">
        <ele>901</ele>
        <time>2019-11-15T18:41:15Z</time>
      </trkpt>
      <trkpt lat="44.40559" lon="3.56805">
        <ele>899</ele>
        <time>2019-11-15T18:41:20Z</time>
      </trkpt>
      <trkpt lat="44.405" lon="3.56766">
        <ele>881</ele>
        <time>2019-11-15T18:41:35Z</time>
      </trkpt>
      <trkpt lat="44.40497" lon="3.56762">
        <ele>879</ele>
        <time>2019-11-15T18:41:36Z</time>
      </trkpt>
      <trkpt lat="44.405" lon="3.56758">
        <ele>877</ele>
        <time>2019-11-15T18:41:37Z</time>
      </trkpt>
      <trkpt lat="44.40544" lon="3.56755">
        <ele>882</ele>
        <time>2019-11-15T18:41:47Z</time>
      </trkpt>
      <trkpt lat="44.40553" lon="3.56752">
        <ele>883</ele>
        <time>2019-11-15T18:41:49Z</time>
      </trkpt>
      <trkpt lat="44.40556" lon="3.56746">
        <ele>882</ele>
        <time>2019-11-15T18:41:51Z</time>
      </trkpt>
      <trkpt lat="44.40555" lon="3.56739">
        <ele>880</ele>
        <time>2019-11-15T18:41:52Z</time>
      </trkpt>
      <trkpt lat="44.40528" lon="3.56738">
        <ele>875</ele>
        <time>2019-11-15T18:41:58Z</time>
      </trkpt>
      <trkpt lat="44.40501" lon="3.5673">
        <ele>868</ele>
        <time>2019-11-15T18:42:05Z</time>
      </trkpt>
      <trkpt lat="44.40502" lon="3.56724">
        <ele>866</ele>
        <time>2019-11-15T18:42:06Z</time>
      </trkpt>
      <trkpt lat="44.40526" lon="3.56722">
        <ele>871</ele>
        <time>2019-11-15T18:42:11Z</time>
      </trkpt>
      <trkpt lat="44.40447" lon="3.56672">
        <ele>847</ele>
        <time>2019-11-15T18:42:31Z</time>
      </trkpt>
      <trkpt lat="44.40502" lon="3.56646">
        <ele>843</ele>
        <time>2019-11-15T18:42:45Z</time>
      </trkpt>
      <trkpt lat="44.40451" lon="3.56602">
        <ele>825</ele>
        <time>2019-11-15T18:42:59Z</time>
      </trkpt>
      <trkpt lat="44.40431" lon="3.56597">
        <ele>821</ele>
        <time>2019-11-15T18:43:04Z</time>
      </trkpt>
      <trkpt lat="44.40438" lon="3.56572">
        <ele>816</ele>
        <time>2019-11-15T18:43:08Z</time>
      </trkpt>
      <trkpt lat="44.40386" lon="3.56532">
        <ele>801</ele>
        <time>2019-11-15T18:43:22Z</time>
      </trkpt>
      <trkpt lat="44.4041" lon="3.56524">
        <ele>803</ele>
        <time>2019-11-15T18:43:28Z</time>
      </trkpt>
      <trkpt lat="44.40393" lon="3.56497">
        <ele>795</ele>
        <time>2019-11-15T18:43:34Z</time>
      </trkpt>
      <trkpt lat="44.40401" lon="3.56495">
        <ele>797</ele>
        <time>2019-11-15T18:43:36Z</time>
      </trkpt>
      <trkpt lat="44.40375" lon="3.56413">
        <ele>785</ele>
        <time>2019-11-15T18:43:51Z</time>
      </trkpt>
      <trkpt lat="44.40305" lon="3.56387">
        <ele>767</ele>
        <time>2019-11-15T18:44:08Z</time>
      </trkpt>
      <trkpt lat="44.40287" lon="3.56417">
        <ele>766</ele>
        <time>2019-11-15T18:44:14Z</time>
      </trkpt>
      <trkpt lat="44.40258" lon="3.56385">
        <ele>761</ele>
        <time>2019-11-15T18:44:23Z</time>
      </trkpt>
      <trkpt lat="44.40262" lon="3.56338">
        <ele>762</ele>
        <time>2019-11-15T18:44:31Z</time>
      </trkpt>
      <trkpt lat="44.40241" lon="3.56303">
        <ele>768</ele>
        <time>2019-11-15T18:44:38Z</time>
      </trkpt>
      <trkpt lat="44.40202" lon="3.5631">
        <ele>769</ele>
        <time>2019-11-15T18:44:47Z</time>
      </trkpt>
      <trkpt lat="44.40158" lon="3.56344">
        <ele>763</ele>
        <time>2019-11-15T18:44:59Z</time>
      </trkpt>
      <trkpt lat="44.40115" lon="3.56368">
        <ele>758</ele>
        <time>2019-11-15T18:45:10Z</time>
      </trkpt>
      <trkpt lat="44.4009" lon="3.56406">
        <ele>745</ele>
        <time>2019-11-15T18:45:19Z</time>
      </trkpt>
      <trkpt lat="44.40052" lon="3.56439">
        <ele>738</ele>
        <time>2019-11-15T18:45:29Z</time>
      </trkpt>
      <trkpt lat="44.40014" lon="3.56404">
        <ele>737</ele>
        <time>2019-11-15T18:45:40Z</time>
      </trkpt>
      <trkpt lat="44.39946" lon="3.56374">
        <ele>731</ele>
        <time>2019-11-15T18:45:56Z</time>
      </trkpt>
      <trkpt lat="44.39903" lon="3.56273">
        <ele>731</ele>
        <time>2019-11-15T18:46:16Z</time>
      </trkpt>
      <trkpt lat="44.39897" lon="3.56217">
        <ele>733</ele>
        <time>2019-11-15T18:46:25Z</time>
      </trkpt>
      <trkpt lat="44.39868" lon="3.56192">
        <ele>722</ele>
        <time>2019-11-15T18:46:33Z</time>
      </trkpt>
      <trkpt lat="44.3988" lon="3.56147">
        <ele>731</ele>
        <time>2019-11-15T18:46:41Z</time>
      </trkpt>
      <trkpt lat="44.39851" lon="3.5608">
        <ele>721</ele>
        <time>2019-11-15T18:46:54Z</time>
      </trkpt>
      <trkpt lat="44.39788" lon="3.55979">
        <ele>720</ele>
        <time>2019-11-15T18:47:17Z</time>
      </trkpt>
      <trkpt lat="44.39747" lon="3.55954">
        <ele>709</ele>
        <time>2019-11-15T18:47:27Z</time>
      </trkpt>
      <trkpt lat="44.39719" lon="3.559">
        <ele>713</ele>
        <time>2019-11-15T18:47:38Z</time>
      </trkpt>
      <trkpt lat="44.39696" lon="3.55881">
        <ele>707</ele>
        <time>2019-11-15T18:47:45Z</time>
      </trkpt>
      <trkpt lat="44.39632" lon="3.55806">
        <ele>690</ele>
        <time>2019-11-15T18:48:04Z</time>
      </trkpt>
      <trkpt lat="44.39666" lon="3.5573">
        <ele>693</ele>
        <time>2019-11-15T18:48:19Z</time>
      </trkpt>
      <trkpt lat="44.39683" lon="3.55672">
        <ele>687</ele>
        <time>2019-11-15T18:48:30Z</time>
      </trkpt>
      <trkpt lat="44.39724" lon="3.55634">
        <ele>695</ele>
        <time>2019-11-15T18:48:41Z</time>
      </trkpt>
      <trkpt lat="44.39756" lon="3.55544">
        <ele>688</ele>
        <time>2019-11-15T18:48:58Z</time>
      </trkpt>
      <trkpt lat="44.39821" lon="3.55458">
        <ele>691</ele>
        <time>2019-11-15T18:49:19Z</time>
      </trkpt>
      <trkpt lat="44.39816" lon="3.55426">
        <ele>690</ele>
        <time>2019-11-15T18:49:24Z</time>
      </trkpt>
      <trkpt lat="44.39834" lon="3.554">
        <ele>689</ele>
        <time>2019-11-15T18:49:30Z</time>
      </trkpt>
      <trkpt lat="44.3983" lon="3.55376">
        <ele>692</ele>
        <time>2019-11-15T18:49:34Z</time>
      </trkpt>
      <trkpt lat="44.39744" lon="3.55447">
        <ele>695</ele>
        <time>2019-11-15T18:49:58Z</time>
      </trkpt>
      <trkpt lat="44.39672" lon="3.55546">
        <ele>687</ele>
        <time>2019-11-15T18:50:21Z</time>
      </trkpt>
      <trkpt lat="44.39546" lon="3.55662">
        <ele>665</ele>
        <time>2019-11-15T18:50:56Z</time>
      </trkpt>
      <trkpt lat="44.39512" lon="3.55619">
        <ele>673</ele>
        <time>2019-11-15T18:51:07Z</time>
      </trkpt>
      <trkpt lat="44.39512" lon="3.55561">
        <ele>683</ele>
        <time>2019-11-15T18:51:17Z</time>
      </trkpt>
      <trkpt lat="44.39503" lon="3.55548">
        <ele>684</ele>
        <time>2019-11-15T18:51:20Z</time>
      </trkpt>
      <trkpt lat="44.39494" lon="3.55552">
        <ele>685</ele>
        <time>2019-11-15T18:51:22Z</time>
      </trkpt>
      <trkpt lat="44.39491" lon="3.55619">
        <ele>675</ele>
        <time>2019-11-15T18:51:33Z</time>
      </trkpt>
      <trkpt lat="44.39499" lon="3.55657">
        <ele>666</ele>
        <time>2019-11-15T18:51:40Z</time>
      </trkpt>
      <trkpt lat="44.39489" lon="3.55705">
        <ele>660</ele>
        <time>2019-11-15T18:51:48Z</time>
      </trkpt>
      <trkpt lat="44.39443" lon="3.55771">
        <ele>655</ele>
        <time>2019-11-15T18:52:04Z</time>
      </trkpt>
      <trkpt lat="44.39419" lon="3.55786">
        <ele>654</ele>
        <time>2019-11-15T18:52:10Z</time>
      </trkpt>
      <trkpt lat="44.39347" lon="3.55788">
        <ele>649</ele>
        <time>2019-11-15T18:52:27Z</time>
      </trkpt>
      <trkpt lat="44.39313" lon="3.5576">
        <ele>656</ele>
        <time>2019-11-15T18:52:36Z</time>
      </trkpt>
      <trkpt lat="44.39273" lon="3.55741">
        <ele>655</ele>
        <time>2019-11-15T18:52:46Z</time>
      </trkpt>
      <trkpt lat="44.39218" lon="3.5575">
        <ele>640</ele>
        <time>2019-11-15T18:52:59Z</time>
      </trkpt>
      <trkpt lat="44.3918" lon="3.55683">
        <ele>647</ele>
        <time>2019-11-15T18:53:13Z</time>
      </trkpt>
      <trkpt lat="44.39126" lon="3.55657">
        <ele>641</ele>
        <time>2019-11-15T18:53:26Z</time>
      </trkpt>
      <trkpt lat="44.39102" lon="3.55666">
        <ele>632</ele>
        <time>2019-11-15T18:53:32Z</time>
      </trkpt>
      <trkpt lat="44.39062" lon="3.55657">
        <ele>627</ele>
        <time>2019-11-15T18:53:41Z</time>
      </trkpt>
      <trkpt lat="44.39014" lon="3.55632">
        <ele>629</ele>
        <time>2019-11-15T18:53:53Z</time>
      </trkpt>
      <trkpt lat="44.38921" lon="3.5563">
        <ele>615</ele>
        <time>2019-11-15T18:54:15Z</time>
      </trkpt>
      <trkpt lat="44.39017" lon="3.55679">
        <ele>611</ele>
        <time>2019-11-15T18:54:39Z</time>
      </trkpt>
      <trkpt lat="44.38964" lon="3.5567">
        <ele>606</ele>
        <time>2019-11-15T18:54:51Z</time>
      </trkpt>
      <trkpt lat="44.38927" lon="3.55679">
        <ele>601</ele>
        <time>2019-11-15T18:55:00Z</time>
      </trkpt>
      <trkpt lat="44.38893" lon="3.55655">
        <ele>603</ele>
        <time>2019-11-15T18:55:09Z</time>
      </trkpt>
      <trkpt lat="44.38853" lon="3.55668">
        <ele>597</ele>
        <time>2019-11-15T18:55:19Z</time>
      </trkpt>
      <trkpt lat="44.38812" lon="3.55709">
        <ele>588</ele>
        <time>2019-11-15T18:55:30Z</time>
      </trkpt>
      <trkpt lat="44.3881" lon="3.55716">
        <ele>588</ele>
        <time>2019-11-15T18:55:32Z</time>
      </trkpt>
      <trkpt lat="44.38809" lon="3.5571">
        <ele>588</ele>
        <time>2019-11-15T18:55:33Z</time>
      </trkpt>
      <trkpt lat="44.38781" lon="3.55691">
        <ele>585</ele>
        <time>2019-11-15T18:55:40Z</time>
      </trkpt>
      <trkpt lat="44.38773" lon="3.55688">
        <ele>584</ele>
        <time>2019-11-15T18:55:42Z</time>
      </trkpt>
      <trkpt lat="44.38768" lon="3.55683">
        <ele>584</ele>
        <time>2019-11-15T18:55:43Z</time>
      </trkpt>
      <trkpt lat="44.38766" lon="3.55677">
        <ele>584</ele>
        <time>2019-11-15T18:55:44Z</time>
      </trkpt>
      <trkpt lat="44.38767" lon="3.55672">
        <ele>585</ele>
        <time>2019-11-15T18:55:45Z</time>
      </trkpt>
      <trkpt lat="44.38809" lon="3.5561">
        <ele>601</ele>
        <time>2019-11-15T18:56:00Z</time>
      </trkpt>
      <trkpt lat="44.38825" lon="3.55581">
        <ele>608</ele>
        <time>2019-11-15T18:56:06Z</time>
      </trkpt>
      <trkpt lat="44.38833" lon="3.55558">
        <ele>611</ele>
        <time>2019-11-15T18:56:10Z</time>
      </trkpt>
      <trkpt lat="44.38838" lon="3.55534">
        <ele>616</ele>
        <time>2019-11-15T18:56:14Z</time>
      </trkpt>
      <trkpt lat="44.38835" lon="3.55485">
        <ele>622</ele>
        <time>2019-11-15T18:56:22Z</time>
      </trkpt>
      <trkpt lat="44.38832" lon="3.55478">
        <ele>623</ele>
        <time>2019-11-15T18:56:24Z</time>
      </trkpt>
      <trkpt lat="44.38828" lon="3.55479">
        <ele>623</ele>
        <time>2019-11-15T18:56:25Z</time>
      </trkpt>
      <trkpt lat="44.38811" lon="3.55509">
        <ele>619</ele>
        <time>2019-11-15T18:56:31Z</time>
      </trkpt>
      <trkpt lat="44.38803" lon="3.55518">
        <ele>618</ele>
        <time>2019-11-15T18:56:33Z</time>
      </trkpt>
      <trkpt lat="44.38784" lon="3.55528">
        <ele>616</ele>
        <time>2019-11-15T18:56:38Z</time>
      </trkpt>
      <trkpt lat="44.38756" lon="3.55552">
        <ele>610</ele>
        <time>2019-11-15T18:56:46Z</time>
      </trkpt>
      <trkpt lat="44.38751" lon="3.5555">
        <ele>610</ele>
        <time>2019-11-15T18:56:47Z</time>
      </trkpt>
      <trkpt lat="44.38747" lon="3.55544">
        <ele>611</ele>
        <time>2019-11-15T18:56:48Z</time>
      </trkpt>
      <trkpt lat="44.38746" lon="3.55536">
        <ele>613</ele>
        <time>2019-11-15T18:56:50Z</time>
      </trkpt>
      <trkpt lat="44.38749" lon="3.55531">
        <ele>615</ele>
        <time>2019-11-15T18:56:51Z</time>
      </trkpt>
      <trkpt lat="44.38747" lon="3.55514">
        <ele>619</ele>
        <time>2019-11-15T18:56:54Z</time>
      </trkpt>
      <trkpt lat="44.38758" lon="3.55505">
        <ele>622</ele>
        <time>2019-11-15T18:56:57Z</time>
      </trkpt>
      <trkpt lat="44.38762" lon="3.55468">
        <ele>632</ele>
        <time>2019-11-15T18:57:03Z</time>
      </trkpt>
      <trkpt lat="44.38772" lon="3.55451">
        <ele>636</ele>
        <time>2019-11-15T18:57:07Z</time>
      </trkpt>
      <trkpt lat="44.38769" lon="3.55449">
        <ele>636</ele>
        <time>2019-11-15T18:57:07Z</time>
      </trkpt>
      <trkpt lat="44.38765" lon="3.55439">
        <ele>640</ele>
        <time>2019-11-15T18:57:09Z</time>
      </trkpt>
      <trkpt lat="44.38761" lon="3.55411">
        <ele>648</ele>
        <time>2019-11-15T18:57:14Z</time>
      </trkpt>
      <trkpt lat="44.3875" lon="3.55401">
        <ele>654</ele>
        <time>2019-11-15T18:57:17Z</time>
      </trkpt>
      <trkpt lat="44.3871" lon="3.55341">
        <ele>662</ele>
        <time>2019-11-15T18:57:31Z</time>
      </trkpt>
      <trkpt lat="44.38686" lon="3.55283">
        <ele>664</ele>
        <time>2019-11-15T18:57:42Z</time>
      </trkpt>
      <trkpt lat="44.38666" lon="3.55225">
        <ele>665</ele>
        <time>2019-11-15T18:57:53Z</time>
      </trkpt>
      <trkpt lat="44.38664" lon="3.55199">
        <ele>666</ele>
        <time>2019-11-15T18:57:57Z</time>
      </trkpt>
      <trkpt lat="44.38668" lon="3.55137">
        <ele>675</ele>
        <time>2019-11-15T18:58:08Z</time>
      </trkpt>
      <trkpt lat="44.38654" lon="3.55074">
        <ele>682</ele>
        <time>2019-11-15T18:58:19Z</time>
      </trkpt>
      <trkpt lat="44.3864" lon="3.55046">
        <ele>687</ele>
        <time>2019-11-15T18:58:24Z</time>
      </trkpt>
      <trkpt lat="44.38603" lon="3.55013">
        <ele>688</ele>
        <time>2019-11-15T18:58:35Z</time>
      </trkpt>
      <trkpt lat="44.38585" lon="3.55004">
        <ele>687</ele>
        <time>2019-11-15T18:58:39Z</time>
      </trkpt>
      <trkpt lat="44.38469" lon="3.54969">
        <ele>694</ele>
        <time>2019-11-15T18:59:07Z</time>
      </trkpt>
      <trkpt lat="44.38424" lon="3.54961">
        <ele>698</ele>
        <time>2019-11-15T18:59:17Z</time>
      </trkpt>
      <trkpt lat="44.38384" lon="3.54945">
        <ele>703</ele>
        <time>2019-11-15T18:59:27Z</time>
      </trkpt>
      <trkpt lat="44.38344" lon="3.54921">
        <ele>711</ele>
        <time>2019-11-15T18:59:37Z</time>
      </trkpt>
      <trkpt lat="44.38322" lon="3.54911">
        <ele>713</ele>
        <time>2019-11-15T18:59:43Z</time>
      </trkpt>
      <trkpt lat="44.383" lon="3.54906">
        <ele>713</ele>
        <time>2019-11-15T18:59:48Z</time>
      </trkpt>
      <trkpt lat="44.38278" lon="3.54905">
        <ele>711</ele>
        <time>2019-11-15T18:59:53Z</time>
      </trkpt>
      <trkpt lat="44.38238" lon="3.54911">
        <ele>704</ele>
        <time>2019-11-15T19:00:02Z</time>
      </trkpt>
      <trkpt lat="44.38228" lon="3.54908">
        <ele>701</ele>
        <time>2019-11-15T19:00:05Z</time>
      </trkpt>
      <trkpt lat="44.38224" lon="3.54903">
        <ele>700</ele>
        <time>2019-11-15T19:00:06Z</time>
      </trkpt>
      <trkpt lat="44.38207" lon="3.54852">
        <ele>703</ele>
        <time>2019-11-15T19:00:15Z</time>
      </trkpt>
      <trkpt lat="44.38197" lon="3.548">
        <ele>707</ele>
        <time>2019-11-15T19:00:24Z</time>
      </trkpt>
      <trkpt lat="44.38192" lon="3.54785">
        <ele>707</ele>
        <time>2019-11-15T19:00:27Z</time>
      </trkpt>
      <trkpt lat="44.38171" lon="3.54743">
        <ele>705</ele>
        <time>2019-11-15T19:00:36Z</time>
      </trkpt>
      <trkpt lat="44.38169" lon="3.54725">
        <ele>703</ele>
        <time>2019-11-15T19:00:39Z</time>
      </trkpt>
      <trkpt lat="44.38177" lon="3.54702">
        <ele>702</ele>
        <time>2019-11-15T19:00:43Z</time>
      </trkpt>
      <trkpt lat="44.38191" lon="3.54684">
        <ele>703</ele>
        <time>2019-11-15T19:00:47Z</time>
      </trkpt>
      <trkpt lat="44.38241" lon="3.54638">
        <ele>703</ele>
        <time>2019-11-15T19:01:01Z</time>
      </trkpt>
      <trkpt lat="44.38288" lon="3.5462">
        <ele>705</ele>
        <time>2019-11-15T19:01:13Z</time>
      </trkpt>
      <trkpt lat="44.38317" lon="3.54604">
        <ele>704</ele>
        <time>2019-11-15T19:01:20Z</time>
      </trkpt>
      <trkpt lat="44.38326" lon="3.54597">
        <ele>703</ele>
        <time>2019-11-15T19:01:22Z</time>
      </trkpt>
      <trkpt lat="44.38344" lon="3.54576">
        <ele>699</ele>
        <time>2019-11-15T19:01:28Z</time>
      </trkpt>
      <trkpt lat="44.38363" lon="3.54561">
        <ele>697</ele>
        <time>2019-11-15T19:01:33Z</time>
      </trkpt>
      <trkpt lat="44.38425" lon="3.54533">
        <ele>697</ele>
        <time>2019-11-15T19:01:48Z</time>
      </trkpt>
      <trkpt lat="44.38487" lon="3.54509">
        <ele>694</ele>
        <time>2019-11-15T19:02:03Z</time>
      </trkpt>
      <trkpt lat="44.3851" lon="3.54502">
        <ele>695</ele>
        <time>2019-11-15T19:02:09Z</time>
      </trkpt>
      <trkpt lat="44.38546" lon="3.545">
        <ele>701</ele>
        <time>2019-11-15T19:02:17Z</time>
      </trkpt>
      <trkpt lat="44.38556" lon="3.54497">
        <ele>704</ele>
        <time>2019-11-15T19:02:20Z</time>
      </trkpt>
      <trkpt lat="44.38562" lon="3.54494">
        <ele>705</ele>
        <time>2019-11-15T19:02:21Z</time>
      </trkpt>
      <trkpt lat="44.38565" lon="3.54485">
        <ele>706</ele>
        <time>2019-11-15T19:02:23Z</time>
      </trkpt>
      <trkpt lat="44.3856" lon="3.54469">
        <ele>706</ele>
        <time>2019-11-15T19:02:26Z</time>
      </trkpt>
      <trkpt lat="44.38555" lon="3.54464">
        <ele>705</ele>
        <time>2019-11-15T19:02:27Z</time>
      </trkpt>
      <trkpt lat="44.38539" lon="3.54436">
        <ele>700</ele>
        <time>2019-11-15T19:02:33Z</time>
      </trkpt>
      <trkpt lat="44.38495" lon="3.54383">
        <ele>686</ele>
        <time>2019-11-15T19:02:47Z</time>
      </trkpt>
      <trkpt lat="44.38463" lon="3.54319">
        <ele>680</ele>
        <time>2019-11-15T19:03:00Z</time>
      </trkpt>
      <trkpt lat="44.38423" lon="3.54274">
        <ele>668</ele>
        <time>2019-11-15T19:03:12Z</time>
      </trkpt>
      <trkpt lat="44.38422" lon="3.54266">
        <ele>668</ele>
        <time>2019-11-15T19:03:13Z</time>
      </trkpt>
      <trkpt lat="44.38426" lon="3.54256">
        <ele>670</ele>
        <time>2019-11-15T19:03:15Z</time>
      </trkpt>
      <trkpt lat="44.38469" lon="3.54228">
        <ele>678</ele>
        <time>2019-11-15T19:03:26Z</time>
      </trkpt>
      <trkpt lat="44.38494" lon="3.54222">
        <ele>683</ele>
        <time>2019-11-15T19:03:32Z</time>
      </trkpt>
      <trkpt lat="44.38501" lon="3.54215">
        <ele>684</ele>
        <time>2019-11-15T19:03:34Z</time>
      </trkpt>
      <trkpt lat="44.38502" lon="3.54209">
        <ele>684</ele>
        <time>2019-11-15T19:03:35Z</time>
      </trkpt>
      <trkpt lat="44.38498" lon="3.54187">
        <ele>683</ele>
        <time>2019-11-15T19:03:39Z</time>
      </trkpt>
      <trkpt lat="44.38484" lon="3.5416">
        <ele>681</ele>
        <time>2019-11-15T19:03:44Z</time>
      </trkpt>
      <trkpt lat="44.38473" lon="3.54155">
        <ele>680</ele>
        <time>2019-11-15T19:03:47Z</time>
      </trkpt>
      <trkpt lat="44.38456" lon="3.54152">
        <ele>676</ele>
        <time>2019-11-15T19:03:51Z</time>
      </trkpt>
      <trkpt lat="44.38444" lon="3.54144">
        <ele>675</ele>
        <time>2019-11-15T19:03:54Z</time>
      </trkpt>
      <trkpt lat="44.38406" lon="3.54108">
        <ele>675</ele>
        <time>2019-11-15T19:04:05Z</time>
      </trkpt>
      <trkpt lat="44.38392" lon="3.54077">
        <ele>680</ele>
        <time>2019-11-15T19:04:11Z</time>
      </trkpt>
      <trkpt lat="44.38366" lon="3.54069">
        <ele>674</ele>
        <time>2019-11-15T19:04:17Z</time>
      </trkpt>
      <trkpt lat="44.38358" lon="3.54064">
        <ele>673</ele>
        <time>2019-11-15T19:04:19Z</time>
      </trkpt>
      <trkpt lat="44.38335" lon="3.54009">
        <ele>681</ele>
        <time>2019-11-15T19:04:30Z</time>
      </trkpt>
      <trkpt lat="44.38307" lon="3.53988">
        <ele>686</ele>
        <time>2019-11-15T19:04:37Z</time>
      </trkpt>
      <trkpt lat="44.3829" lon="3.53987">
        <ele>685</ele>
        <time>2019-11-15T19:04:41Z</time>
      </trkpt>
      <trkpt lat="44.38259" lon="3.53994">
        <ele>679</ele>
        <time>2019-11-15T19:04:49Z</time>
      </trkpt>
      <trkpt lat="44.38239" lon="3.53995">
        <ele>678</ele>
        <time>2019-11-15T19:04:53Z</time>
      </trkpt>
      <trkpt lat="44.3823" lon="3.53992">
        <ele>678</ele>
        <time>2019-11-15T19:04:55Z</time>
      </trkpt>
      <trkpt lat="44.382" lon="3.53972">
        <ele>687</ele>
        <time>2019-11-15T19:05:03Z</time>
      </trkpt>
      <trkpt lat="44.38133" lon="3.53972">
        <ele>686</ele>
        <time>2019-11-15T19:05:19Z</time>
      </trkpt>
      <trkpt lat="44.38114" lon="3.53974">
        <ele>685</ele>
        <time>2019-11-15T19:05:23Z</time>
      </trkpt>
      <trkpt lat="44.38125" lon="3.53963">
        <ele>690</ele>
        <time>2019-11-15T19:05:26Z</time>
      </trkpt>
      <trkpt lat="44.38156" lon="3.53949">
        <ele>698</ele>
        <time>2019-11-15T19:05:34Z</time>
      </trkpt>
      <trkpt lat="44.38191" lon="3.5394">
        <ele>703</ele>
        <time>2019-11-15T19:05:42Z</time>
      </trkpt>
      <trkpt lat="44.38217" lon="3.53939">
        <ele>703</ele>
        <time>2019-11-15T19:05:48Z</time>
      </trkpt>
      <trkpt lat="44.38263" lon="3.53928">
        <ele>708</ele>
        <time>2019-11-15T19:05:59Z</time>
      </trkpt>
      <trkpt lat="44.38263" lon="3.53922">
        <ele>711</ele>
        <time>2019-11-15T19:06:00Z</time>
      </trkpt>
      <trkpt lat="44.38252" lon="3.53915">
        <ele>713</ele>
        <time>2019-11-15T19:06:03Z</time>
      </trkpt>
      <trkpt lat="44.38202" lon="3.53897">
        <ele>725</ele>
        <time>2019-11-15T19:06:15Z</time>
      </trkpt>
      <trkpt lat="44.38146" lon="3.53884">
        <ele>727</ele>
        <time>2019-11-15T19:06:28Z</time>
      </trkpt>
      <trkpt lat="44.38129" lon="3.53878">
        <ele>726</ele>
        <time>2019-11-15T19:06:33Z</time>
      </trkpt>
      <trkpt lat="44.38114" lon="3.53869">
        <ele>725</ele>
        <time>2019-11-15T19:06:36Z</time>
      </trkpt>
      <trkpt lat="44.38106" lon="3.53861">
        <ele>725</ele>
        <time>2019-11-15T19:06:39Z</time>
      </trkpt>
      <trkpt lat="44.38101" lon="3.53851">
        <ele>727</ele>
        <time>2019-11-15T19:06:41Z</time>
      </trkpt>
      <trkpt lat="44.38096" lon="3.53838">
        <ele>729</ele>
        <time>2019-11-15T19:06:43Z</time>
      </trkpt>
      <trkpt lat="44.38093" lon="3.5382">
        <ele>731</ele>
        <time>2019-11-15T19:06:46Z</time>
      </trkpt>
      <trkpt lat="44.38094" lon="3.53757">
        <ele>739</ele>
        <time>2019-11-15T19:06:57Z</time>
      </trkpt>
      <trkpt lat="44.38098" lon="3.53722">
        <ele>742</ele>
        <time>2019-11-15T19:07:03Z</time>
      </trkpt>
      <trkpt lat="44.3811" lon="3.53657">
        <ele>749</ele>
        <time>2019-11-15T19:07:14Z</time>
      </trkpt>
      <trkpt lat="44.38141" lon="3.53583">
        <ele>767</ele>
        <time>2019-11-15T19:07:28Z</time>
      </trkpt>
      <trkpt lat="44.38134" lon="3.53545">
        <ele>761</ele>
        <time>2019-11-15T19:07:35Z</time>
      </trkpt>
      <trkpt lat="44.38135" lon="3.53524">
        <ele>761</ele>
        <time>2019-11-15T19:07:38Z</time>
      </trkpt>
      <trkpt lat="44.38143" lon="3.53473">
        <ele>763</ele>
        <time>2019-11-15T19:07:47Z</time>
      </trkpt>
      <trkpt lat="44.38158" lon="3.53408">
        <ele>765</ele>
        <time>2019-11-15T19:07:58Z</time>
      </trkpt>
      <trkpt lat="44.38178" lon="3.53375">
        <ele>772</ele>
        <time>2019-11-15T19:08:06Z</time>
      </trkpt>
      <trkpt lat="44.38197" lon="3.5336">
        <ele>782</ele>
        <time>2019-11-15T19:08:11Z</time>
      </trkpt>
      <trkpt lat="44.38204" lon="3.53345">
        <ele>783</ele>
        <time>2019-11-15T19:08:14Z</time>
      </trkpt>
      <trkpt lat="44.38202" lon="3.53322">
        <ele>777</ele>
        <time>2019-11-15T19:08:18Z</time>
      </trkpt>
      <trkpt lat="44.38203" lon="3.53286">
        <ele>772</ele>
        <time>2019-11-15T19:08:24Z</time>
      </trkpt>
      <trkpt lat="44.38215" lon="3.53247">
        <ele>774</ele>
        <time>2019-11-15T19:08:31Z</time>
      </trkpt>
      <trkpt lat="44.38235" lon="3.53215">
        <ele>777</ele>
        <time>2019-11-15T19:08:38Z</time>
      </trkpt>
      <trkpt lat="44.38249" lon="3.532">
        <ele>781</ele>
        <time>2019-11-15T19:08:42Z</time>
      </trkpt>
      <trkpt lat="44.38272" lon="3.53183">
        <ele>786</ele>
        <time>2019-11-15T19:08:48Z</time>
      </trkpt>
      <trkpt lat="44.38315" lon="3.53162">
        <ele>799</ele>
        <time>2019-11-15T19:08:59Z</time>
      </trkpt>
      <trkpt lat="44.38375" lon="3.53142">
        <ele>816</ele>
        <time>2019-11-15T19:09:13Z</time>
      </trkpt>
      <trkpt lat="44.38393" lon="3.53128">
        <ele>818</ele>
        <time>2019-11-15T19:09:18Z</time>
      </trkpt>
      <trkpt lat="44.38401" lon="3.53117">
        <ele>819</ele>
        <time>2019-11-15T19:09:20Z</time>
      </trkpt>
      <trkpt lat="44.38406" lon="3.53106">
        <ele>818</ele>
        <time>2019-11-15T19:09:23Z</time>
      </trkpt>
      <trkpt lat="44.38412" lon="3.53078">
        <ele>814</ele>
        <time>2019-11-15T19:09:27Z</time>
      </trkpt>
      <trkpt lat="44.38406" lon="3.52978">
        <ele>806</ele>
        <time>2019-11-15T19:09:44Z</time>
      </trkpt>
      <trkpt lat="44.38399" lon="3.52934">
        <ele>799</ele>
        <time>2019-11-15T19:09:52Z</time>
      </trkpt>
      <trkpt lat="44.384" lon="3.52921">
        <ele>799</ele>
        <time>2019-11-15T19:09:54Z</time>
      </trkpt>
      <trkpt lat="44.38514" lon="3.52849">
        <ele>801</ele>
        <time>2019-11-15T19:10:23Z</time>
      </trkpt>
      <trkpt lat="44.38567" lon="3.52819">
        <ele>796</ele>
        <time>2019-11-15T19:10:36Z</time>
      </trkpt>
      <trkpt lat="44.38599" lon="3.52809">
        <ele>796</ele>
        <time>2019-11-15T19:10:44Z</time>
      </trkpt>
      <trkpt lat="44.38633" lon="3.52808">
        <ele>798</ele>
        <time>2019-11-15T19:10:52Z</time>
      </trkpt>
      <trkpt lat="44.38644" lon="3.52802">
        <ele>796</ele>
        <time>2019-11-15T19:10:55Z</time>
      </trkpt>
      <trkpt lat="44.38722" lon="3.52699">
        <ele>768</ele>
        <time>2019-11-15T19:11:20Z</time>
      </trkpt>
      <trkpt lat="44.3873" lon="3.52697">
        <ele>769</ele>
        <time>2019-11-15T19:11:22Z</time>
      </trkpt>
      <trkpt lat="44.38743" lon="3.52699">
        <ele>771</ele>
        <time>2019-11-15T19:11:25Z</time>
      </trkpt>
      <trkpt lat="44.38759" lon="3.52707">
        <ele>773</ele>
        <time>2019-11-15T19:11:29Z</time>
      </trkpt>
      <trkpt lat="44.38767" lon="3.52715">
        <ele>775</ele>
        <time>2019-11-15T19:11:31Z</time>
      </trkpt>
      <trkpt lat="44.38787" lon="3.52744">
        <ele>782</ele>
        <time>2019-11-15T19:11:38Z</time>
      </trkpt>
      <trkpt lat="44.38805" lon="3.52782">
        <ele>795</ele>
        <time>2019-11-15T19:11:45Z</time>
      </trkpt>
      <trkpt lat="44.3881" lon="3.52787">
        <ele>796</ele>
        <time>2019-11-15T19:11:47Z</time>
      </trkpt>
      <trkpt lat="44.38817" lon="3.52788">
        <ele>796</ele>
        <time>2019-11-15T19:11:48Z</time>
      </trkpt>
      <trkpt lat="44.38823" lon="3.52786">
        <ele>794</ele>
        <time>2019-11-15T19:11:50Z</time>
      </trkpt>
      <trkpt lat="44.38828" lon="3.52781">
        <ele>791</ele>
        <time>2019-11-15T19:11:51Z</time>
      </trkpt>
      <trkpt lat="44.38847" lon="3.52753">
        <ele>779</ele>
        <time>2019-11-15T19:11:58Z</time>
      </trkpt>
      <trkpt lat="44.38862" lon="3.52739">
        <ele>777</ele>
        <time>2019-11-15T19:12:02Z</time>
      </trkpt>
      <trkpt lat="44.38878" lon="3.52736">
        <ele>779</ele>
        <time>2019-11-15T19:12:06Z</time>
      </trkpt>
      <trkpt lat="44.38889" lon="3.52727">
        <ele>777</ele>
        <time>2019-11-15T19:12:09Z</time>
      </trkpt>
      <trkpt lat="44.38894" lon="3.52709">
        <ele>768</ele>
        <time>2019-11-15T19:12:12Z</time>
      </trkpt>
      <trkpt lat="44.38897" lon="3.52678">
        <ele>751</ele>
        <time>2019-11-15T19:12:17Z</time>
      </trkpt>
      <trkpt lat="44.38901" lon="3.52671">
        <ele>748</ele>
        <time>2019-11-15T19:12:19Z</time>
      </trkpt>
      <trkpt lat="44.38915" lon="3.52663">
        <ele>745</ele>
        <time>2019-11-15T19:12:22Z</time>
      </trkpt>
      <trkpt lat="44.38941" lon="3.52658">
        <ele>751</ele>
        <time>2019-11-15T19:12:28Z</time>
      </trkpt>
      <trkpt lat="44.38955" lon="3.52651">
        <ele>752</ele>
        <time>2019-11-15T19:12:32Z</time>
      </trkpt>
      <trkpt lat="44.3899" lon="3.52626">
        <ele>751</ele>
        <time>2019-11-15T19:12:41Z</time>
      </trkpt>
      <trkpt lat="44.39007" lon="3.52618">
        <ele>752</ele>
        <time>2019-11-15T19:12:45Z</time>
      </trkpt>
      <trkpt lat="44.39034" lon="3.52583">
        <ele>742</ele>
        <time>2019-11-15T19:12:54Z</time>
      </trkpt>
      <trkpt lat="44.3905" lon="3.52574">
        <ele>742</ele>
        <time>2019-11-15T19:12:58Z</time>
      </trkpt>
      <trkpt lat="44.39061" lon="3.52572">
        <ele>743</ele>
        <time>2019-11-15T19:13:00Z</time>
      </trkpt>
      <trkpt lat="44.39091" lon="3.52538">
        <ele>733</ele>
        <time>2019-11-15T19:13:09Z</time>
      </trkpt>
      <trkpt lat="44.39099" lon="3.52533">
        <ele>732</ele>
        <time>2019-11-15T19:13:11Z</time>
      </trkpt>
      <trkpt lat="44.39122" lon="3.52532">
        <ele>735</ele>
        <time>2019-11-15T19:13:17Z</time>
      </trkpt>
      <trkpt lat="44.39165" lon="3.52557">
        <ele>753</ele>
        <time>2019-11-15T19:13:28Z</time>
      </trkpt>
      <trkpt lat="44.39169" lon="3.52555">
        <ele>753</ele>
        <time>2019-11-15T19:13:29Z</time>
      </trkpt>
      <trkpt lat="44.39173" lon="3.52547">
        <ele>751</ele>
        <time>2019-11-15T19:13:30Z</time>
      </trkpt>
      <trkpt lat="44.39175" lon="3.52491">
        <ele>730</ele>
        <time>2019-11-15T19:13:40Z</time>
      </trkpt>
      <trkpt lat="44.3918" lon="3.5247">
        <ele>726</ele>
        <time>2019-11-15T19:13:43Z</time>
      </trkpt>
      <trkpt lat="44.39221" lon="3.5242">
        <ele>727</ele>
        <time>2019-11-15T19:13:56Z</time>
      </trkpt>
      <trkpt lat="44.39242" lon="3.52389">
        <ele>728</ele>
        <time>2019-11-15T19:14:03Z</time>
      </trkpt>
      <trkpt lat="44.39251" lon="3.52364">
        <ele>726</ele>
        <time>2019-11-15T19:14:08Z</time>
      </trkpt>
      <trkpt lat="44.39253" lon="3.52344">
        <ele>722</ele>
        <time>2019-11-15T19:14:11Z</time>
      </trkpt>
      <trkpt lat="44.39252" lon="3.5233">
        <ele>720</ele>
        <time>2019-11-15T19:14:14Z</time>
      </trkpt>
      <trkpt lat="44.39242" lon="3.523">
        <ele>726</ele>
        <time>2019-11-15T19:14:19Z</time>
      </trkpt>
      <trkpt lat="44.39227" lon="3.52295">
        <ele>727</ele>
        <time>2019-11-15T19:14:23Z</time>
      </trkpt>
      <trkpt lat="44.39205" lon="3.52321">
        <ele>718</ele>
        <time>2019-11-15T19:14:29Z</time>
      </trkpt>
      <trkpt lat="44.39185" lon="3.5237">
        <ele>712</ele>
        <time>2019-11-15T19:14:39Z</time>
      </trkpt>
      <trkpt lat="44.39172" lon="3.52386">
        <ele>709</ele>
        <time>2019-11-15T19:14:43Z</time>
      </trkpt>
      <trkpt lat="44.39153" lon="3.52402">
        <ele>705</ele>
        <time>2019-11-15T19:14:48Z</time>
      </trkpt>
      <trkpt lat="44.39123" lon="3.5241">
        <ele>699</ele>
        <time>2019-11-15T19:14:55Z</time>
      </trkpt>
      <trkpt lat="44.39093" lon="3.52414">
        <ele>692</ele>
        <time>2019-11-15T19:15:02Z</time>
      </trkpt>
      <trkpt lat="44.39085" lon="3.5242">
        <ele>691</ele>
        <time>2019-11-15T19:15:04Z</time>
      </trkpt>
      <trkpt lat="44.39062" lon="3.52428">
        <ele>691</ele>
        <time>2019-11-15T19:15:10Z</time>
      </trkpt>
      <trkpt lat="44.39022" lon="3.52423">
        <ele>685</ele>
        <time>2019-11-15T19:15:19Z</time>
      </trkpt>
      <trkpt lat="44.38997" lon="3.52423">
        <ele>683</ele>
        <time>2019-11-15T19:15:25Z</time>
      </trkpt>
      <trkpt lat="44.38967" lon="3.52412">
        <ele>676</ele>
        <time>2019-11-15T19:15:32Z</time>
      </trkpt>
      <trkpt lat="44.38949" lon="3.5241">
        <ele>673</ele>
        <time>2019-11-15T19:15:37Z</time>
      </trkpt>
      <trkpt lat="44.38924" lon="3.52411">
        <ele>668</ele>
        <time>2019-11-15T19:15:42Z</time>
      </trkpt>
      <trkpt lat="44.38909" lon="3.52407">
        <ele>665</ele>
        <time>2019-11-15T19:15:46Z</time>
      </trkpt>
      <trkpt lat="44.38863" lon="3.52361">
        <ele>659</ele>
        <time>2019-11-15T19:15:59Z</time>
      </trkpt>
      <trkpt lat="44.38863" lon="3.52349">
        <ele>660</ele>
        <time>2019-11-15T19:16:01Z</time>
      </trkpt>
      <trkpt lat="44.38825" lon="3.52254">
        <ele>661</ele>
        <time>2019-11-15T19:16:19Z</time>
      </trkpt>
      <trkpt lat="44.388" lon="3.522">
        <ele>667</ele>
        <time>2019-11-15T19:16:30Z</time>
      </trkpt>
      <trkpt lat="44.38775" lon="3.52162">
        <ele>667</ele>
        <time>2019-11-15T19:16:39Z</time>
      </trkpt>
      <trkpt lat="44.3876" lon="3.52146">
        <ele>668</ele>
        <time>2019-11-15T19:16:43Z</time>
      </trkpt>
      <trkpt lat="44.38732" lon="3.52123">
        <ele>669</ele>
        <time>2019-11-15T19:16:51Z</time>
      </trkpt>
      <trkpt lat="44.3873" lon="3.52118">
        <ele>671</ele>
        <time>2019-11-15T19:16:52Z</time>
      </trkpt>
      <trkpt lat="44.38734" lon="3.52108">
        <ele>676</ele>
        <time>2019-11-15T19:16:54Z</time>
      </trkpt>
      <trkpt lat="44.38738" lon="3.52106">
        <ele>678</ele>
        <time>2019-11-15T19:16:55Z</time>
      </trkpt>
      <trkpt lat="44.38752" lon="3.52113">
        <ele>679</ele>
        <time>2019-11-15T19:16:58Z</time>
      </trkpt>
      <trkpt lat="44.38805" lon="3.52164">
        <ele>679</ele>
        <time>2019-11-15T19:17:13Z</time>
      </trkpt>
      <trkpt lat="44.38861" lon="3.52235">
        <ele>683</ele>
        <time>2019-11-15T19:17:31Z</time>
      </trkpt>
      <trkpt lat="44.38887" lon="3.52271">
        <ele>686</ele>
        <time>2019-11-15T19:17:39Z</time>
      </trkpt>
      <trkpt lat="44.3892" lon="3.52326">
        <ele>686</ele>
        <time>2019-11-15T19:17:51Z</time>
      </trkpt>
      <trkpt lat="44.38931" lon="3.52338">
        <ele>685</ele>
        <time>2019-11-15T19:17:55Z</time>
      </trkpt>
      <trkpt lat="44.38958" lon="3.52352">
        <ele>688</ele>
        <time>2019-11-15T19:18:01Z</time>
      </trkpt>
      <trkpt lat="44.38986" lon="3.52354">
        <ele>694</ele>
        <time>2019-11-15T19:18:08Z</time>
      </trkpt>
      <trkpt lat="44.38995" lon="3.52349">
        <ele>697</ele>
        <time>2019-11-15T19:18:10Z</time>
      </trkpt>
      <trkpt lat="44.38999" lon="3.52343">
        <ele>699</ele>
        <time>2019-11-15T19:18:11Z</time>
      </trkpt>
      <trkpt lat="44.38999" lon="3.52333">
        <ele>702</ele>
        <time>2019-11-15T19:18:13Z</time>
      </trkpt>
      <trkpt lat="44.3899" lon="3.52325">
        <ele>703</ele>
        <time>2019-11-15T19:18:16Z</time>
      </trkpt>
      <trkpt lat="44.38973" lon="3.52324">
        <ele>699</ele>
        <time>2019-11-15T19:18:20Z</time>
      </trkpt>
      <trkpt lat="44.38952" lon="3.52312">
        <ele>698</ele>
        <time>2019-11-15T19:18:25Z</time>
      </trkpt>
      <trkpt lat="44.38935" lon="3.52292">
        <ele>699</ele>
        <time>2019-11-15T19:18:30Z</time>
      </trkpt>
      <trkpt lat="44.38838" lon="3.52085">
        <ele>719</ele>
        <time>2019-11-15T19:19:11Z</time>
      </trkpt>
      <trkpt lat="44.38825" lon="3.52061">
        <ele>726</ele>
        <time>2019-11-15T19:19:16Z</time>
      </trkpt>
      <trkpt lat="44.38813" lon="3.52046">
        <ele>729</ele>
        <time>2019-11-15T19:19:20Z</time>
      </trkpt>
      <trkpt lat="44.38803" lon="3.52034">
        <ele>733</ele>
        <time>2019-11-15T19:19:23Z</time>
      </trkpt>
      <trkpt lat="44.38769" lon="3.5201">
        <ele>737</ele>
        <time>2019-11-15T19:19:32Z</time>
      </trkpt>
      <trkpt lat="44.38666" lon="3.51962">
        <ele>739</ele>
        <time>2019-11-15T19:19:57Z</time>
      </trkpt>
      <trkpt lat="44.38641" lon="3.51948">
        <ele>744</ele>
        <time>2019-11-15T19:20:04Z</time>
      </trkpt>
      <trkpt lat="44.38619" lon="3.51934">
        <ele>748</ele>
        <time>2019-11-15T19:20:09Z</time>
      </trkpt>
      <trkpt lat="44.38539" lon="3.51874">
        <ele>760</ele>
        <time>2019-11-15T19:20:31Z</time>
      </trkpt>
      <trkpt lat="44.38435" lon="3.51819">
        <ele>767</ele>
        <time>2019-11-15T19:20:57Z</time>
      </trkpt>
      <trkpt lat="44.38411" lon="3.51801">
        <ele>765</ele>
        <time>2019-11-15T19:21:03Z</time>
      </trkpt>
      <trkpt lat="44.38394" lon="3.51784">
        <ele>763</ele>
        <time>2019-11-15T19:21:08Z</time>
      </trkpt>
      <trkpt lat="44.38384" lon="3.51764">
        <ele>763</ele>
        <time>2019-11-15T19:21:12Z</time>
      </trkpt>
      <trkpt lat="44.38385" lon="3.51756">
        <ele>764</ele>
        <time>2019-11-15T19:21:13Z</time>
      </trkpt>
      <trkpt lat="44.38393" lon="3.51743">
        <ele>765</ele>
        <time>2019-11-15T19:21:16Z</time>
      </trkpt>
      <trkpt lat="44.38399" lon="3.5174">
        <ele>766</ele>
        <time>2019-11-15T19:21:18Z</time>
      </trkpt>
      <trkpt lat="44.38406" lon="3.5174">
        <ele>768</ele>
        <time>2019-11-15T19:21:19Z</time>
      </trkpt>
      <trkpt lat="44.38467" lon="3.51766">
        <ele>780</ele>
        <time>2019-11-15T19:21:34Z</time>
      </trkpt>
      <trkpt lat="44.38464" lon="3.51756">
        <ele>781</ele>
        <time>2019-11-15T19:21:36Z</time>
      </trkpt>
      <trkpt lat="44.38449" lon="3.51741">
        <ele>777</ele>
        <time>2019-11-15T19:21:40Z</time>
      </trkpt>
      <trkpt lat="44.38447" lon="3.51733">
        <ele>775</ele>
        <time>2019-11-15T19:21:42Z</time>
      </trkpt>
      <trkpt lat="44.38451" lon="3.5172">
        <ele>773</ele>
        <time>2019-11-15T19:21:44Z</time>
      </trkpt>
      <trkpt lat="44.38457" lon="3.51715">
        <ele>773</ele>
        <time>2019-11-15T19:21:46Z</time>
      </trkpt>
      <trkpt lat="44.38486" lon="3.51706">
        <ele>777</ele>
        <time>2019-11-15T19:21:53Z</time>
      </trkpt>
      <trkpt lat="44.38509" lon="3.51691">
        <ele>781</ele>
        <time>2019-11-15T19:21:58Z</time>
      </trkpt>
      <trkpt lat="44.38576" lon="3.5163">
        <ele>792</ele>
        <time>2019-11-15T19:22:17Z</time>
      </trkpt>
      <trkpt lat="44.3864" lon="3.51585">
        <ele>802</ele>
        <time>2019-11-15T19:22:34Z</time>
      </trkpt>
      <trkpt lat="44.38717" lon="3.5152">
        <ele>812</ele>
        <time>2019-11-15T19:22:55Z</time>
      </trkpt>
      <trkpt lat="44.38738" lon="3.515">
        <ele>815</ele>
        <time>2019-11-15T19:23:01Z</time>
      </trkpt>
      <trkpt lat="44.38841" lon="3.51371">
        <ele>824</ele>
        <time>2019-11-15T19:23:33Z</time>
      </trkpt>
      <trkpt lat="44.38862" lon="3.51351">
        <ele>826</ele>
        <time>2019-11-15T19:23:39Z</time>
      </trkpt>
      <trkpt lat="44.38916" lon="3.5131">
        <ele>835</ele>
        <time>2019-11-15T19:23:53Z</time>
      </trkpt>
      <trkpt lat="44.38929" lon="3.51297">
        <ele>835</ele>
        <time>2019-11-15T19:23:57Z</time>
      </trkpt>
      <trkpt lat="44.38951" lon="3.51268">
        <ele>833</ele>
        <time>2019-11-15T19:24:04Z</time>
      </trkpt>
      <trkpt lat="44.39021" lon="3.51219">
        <ele>844</ele>
        <time>2019-11-15T19:24:22Z</time>
      </trkpt>
      <trkpt lat="44.39038" lon="3.51204">
        <ele>846</ele>
        <time>2019-11-15T19:24:27Z</time>
      </trkpt>
      <trkpt lat="44.3915" lon="3.51094">
        <ele>852</ele>
        <time>2019-11-15T19:24:59Z</time>
      </trkpt>
      <trkpt lat="44.39174" lon="3.51076">
        <ele>853</ele>
        <time>2019-11-15T19:25:05Z</time>
      </trkpt>
      <trkpt lat="44.392" lon="3.51061">
        <ele>856</ele>
        <time>2019-11-15T19:25:12Z</time>
      </trkpt>
      <trkpt lat="44.39213" lon="3.51057">
        <ele>858</ele>
        <time>2019-11-15T19:25:15Z</time>
      </trkpt>
      <trkpt lat="44.39249" lon="3.5106">
        <ele>866</ele>
        <time>2019-11-15T19:25:24Z</time>
      </trkpt>
      <trkpt lat="44.39267" lon="3.51053">
        <ele>869</ele>
        <time>2019-11-15T19:25:28Z</time>
      </trkpt>
      <trkpt lat="44.39283" lon="3.51026">
        <ele>865</ele>
        <time>2019-11-15T19:25:34Z</time>
      </trkpt>
      <trkpt lat="44.39364" lon="3.50959">
        <ele>875</ele>
        <time>2019-11-15T19:25:56Z</time>
      </trkpt>
      <trkpt lat="44.39422" lon="3.50892">
        <ele>877</ele>
        <time>2019-11-15T19:26:13Z</time>
      </trkpt>
      <trkpt lat="44.39443" lon="3.50875">
        <ele>881</ele>
        <time>2019-11-15T19:26:19Z</time>
      </trkpt>
      <trkpt lat="44.39456" lon="3.50847">
        <ele>879</ele>
        <time>2019-11-15T19:26:25Z</time>
      </trkpt>
      <trkpt lat="44.39458" lon="3.50837">
        <ele>878</ele>
        <time>2019-11-15T19:26:26Z</time>
      </trkpt>
      <trkpt lat="44.39455" lon="3.50828">
        <ele>879</ele>
        <time>2019-11-15T19:26:28Z</time>
      </trkpt>
      <trkpt lat="44.39429" lon="3.50822">
        <ele>879</ele>
        <time>2019-11-15T19:26:34Z</time>
      </trkpt>
      <trkpt lat="44.39406" lon="3.5083">
        <ele>877</ele>
        <time>2019-11-15T19:26:40Z</time>
      </trkpt>
      <trkpt lat="44.39336" lon="3.50862">
        <ele>882</ele>
        <time>2019-11-15T19:26:57Z</time>
      </trkpt>
      <trkpt lat="44.39308" lon="3.50866">
        <ele>881</ele>
        <time>2019-11-15T19:27:03Z</time>
      </trkpt>
      <trkpt lat="44.39284" lon="3.50866">
        <ele>882</ele>
        <time>2019-11-15T19:27:09Z</time>
      </trkpt>
      <trkpt lat="44.39275" lon="3.50864">
        <ele>883</ele>
        <time>2019-11-15T19:27:11Z</time>
      </trkpt>
      <trkpt lat="44.39264" lon="3.50855">
        <ele>886</ele>
        <time>2019-11-15T19:27:14Z</time>
      </trkpt>
      <trkpt lat="44.39257" lon="3.50847">
        <ele>888</ele>
        <time>2019-11-15T19:27:16Z</time>
      </trkpt>
      <trkpt lat="44.39255" lon="3.50836">
        <ele>891</ele>
        <time>2019-11-15T19:27:18Z</time>
      </trkpt>
      <trkpt lat="44.39257" lon="3.50827">
        <ele>893</ele>
        <time>2019-11-15T19:27:20Z</time>
      </trkpt>
      <trkpt lat="44.39227" lon="3.50754">
        <ele>904</ele>
        <time>2019-11-15T19:27:34Z</time>
      </trkpt>
      <trkpt lat="44.39227" lon="3.50747">
        <ele>906</ele>
        <time>2019-11-15T19:27:35Z</time>
      </trkpt>
      <trkpt lat="44.39232" lon="3.50743">
        <ele>907</ele>
        <time>2019-11-15T19:27:36Z</time>
      </trkpt>
      <trkpt lat="44.39248" lon="3.50752">
        <ele>908</ele>
        <time>2019-11-15T19:27:40Z</time>
      </trkpt>
      <trkpt lat="44.39243" lon="3.50741">
        <ele>910</ele>
        <time>2019-11-15T19:27:42Z</time>
      </trkpt>
      <trkpt lat="44.39211" lon="3.50702">
        <ele>913</ele>
        <time>2019-11-15T19:27:52Z</time>
      </trkpt>
      <trkpt lat="44.39183" lon="3.50674">
        <ele>915</ele>
        <time>2019-11-15T19:28:00Z</time>
      </trkpt>
      <trkpt lat="44.39173" lon="3.50658">
        <ele>917</ele>
        <time>2019-11-15T19:28:04Z</time>
      </trkpt>
      <trkpt lat="44.39158" lon="3.50623">
        <ele>924</ele>
        <time>2019-11-15T19:28:11Z</time>
      </trkpt>
      <trkpt lat="44.39109" lon="3.50556">
        <ele>925</ele>
        <time>2019-11-15T19:28:27Z</time>
      </trkpt>
      <trkpt lat="44.391" lon="3.50538">
        <ele>925</ele>
        <time>2019-11-15T19:28:30Z</time>
      </trkpt>
      <trkpt lat="44.39096" lon="3.50519">
        <ele>927</ele>
        <time>2019-11-15T19:28:34Z</time>
      </trkpt>
      <trkpt lat="44.39094" lon="3.50449">
        <ele>936</ele>
        <time>2019-11-15T19:28:45Z</time>
      </trkpt>
      <trkpt lat="44.39075" lon="3.50384">
        <ele>942</ele>
        <time>2019-11-15T19:28:57Z</time>
      </trkpt>
      <trkpt lat="44.39066" lon="3.50314">
        <ele>951</ele>
        <time>2019-11-15T19:29:09Z</time>
      </trkpt>
      <trkpt lat="44.39056" lon="3.50295">
        <ele>953</ele>
        <time>2019-11-15T19:29:13Z</time>
      </trkpt>
      <trkpt lat="44.39043" lon="3.50255">
        <ele>957</ele>
        <time>2019-11-15T19:29:20Z</time>
      </trkpt>
      <trkpt lat="44.39041" lon="3.50215">
        <ele>959</ele>
        <time>2019-11-15T19:29:27Z</time>
      </trkpt>
      <trkpt lat="44.39045" lon="3.50189">
        <ele>961</ele>
        <time>2019-11-15T19:29:31Z</time>
      </trkpt>
      <trkpt lat="44.39044" lon="3.50178">
        <ele>962</ele>
        <time>2019-11-15T19:29:33Z</time>
      </trkpt>
      <trkpt lat="44.39038" lon="3.50165">
        <ele>963</ele>
        <time>2019-11-15T19:29:36Z</time>
      </trkpt>
      <trkpt lat="44.39034" lon="3.5013">
        <ele>963</ele>
        <time>2019-11-15T19:29:42Z</time>
      </trkpt>
      <trkpt lat="44.39029" lon="3.5011">
        <ele>964</ele>
        <time>2019-11-15T19:29:45Z</time>
      </trkpt>
      <trkpt lat="44.3896" lon="3.49952">
        <ele>979</ele>
        <time>2019-11-15T19:30:16Z</time>
      </trkpt>
      <trkpt lat="44.38931" lon="3.49893">
        <ele>985</ele>
        <time>2019-11-15T19:30:28Z</time>
      </trkpt>
      <trkpt lat="44.38907" lon="3.49825">
        <ele>990</ele>
        <time>2019-11-15T19:30:41Z</time>
      </trkpt>
      <trkpt lat="44.38899" lon="3.4977">
        <ele>995</ele>
        <time>2019-11-15T19:30:50Z</time>
      </trkpt>
      <trkpt lat="44.38898" lon="3.49746">
        <ele>997</ele>
        <time>2019-11-15T19:30:54Z</time>
      </trkpt>
      <trkpt lat="44.38902" lon="3.49681">
        <ele>1003</ele>
        <time>2019-11-15T19:31:05Z</time>
      </trkpt>
      <trkpt lat="44.38901" lon="3.49646">
        <ele>1006</ele>
        <time>2019-11-15T19:31:11Z</time>
      </trkpt>
      <trkpt lat="44.38887" lon="3.49489">
        <ele>1016</ele>
        <time>2019-11-15T19:31:37Z</time>
      </trkpt>
      <trkpt lat="44.38891" lon="3.49444">
        <ele>1018</ele>
        <time>2019-11-15T19:31:45Z</time>
      </trkpt>
      <trkpt lat="44.38889" lon="3.49417">
        <ele>1020</ele>
        <time>2019-11-15T19:31:49Z</time>
      </trkpt>
      <trkpt lat="44.38885" lon="3.49398">
        <ele>1020</ele>
        <time>2019-11-15T19:31:53Z</time>
      </trkpt>
      <trkpt lat="44.38874" lon="3.49373">
        <ele>1021</ele>
        <time>2019-11-15T19:31:58Z</time>
      </trkpt>
      <trkpt lat="44.38856" lon="3.49396">
        <ele>1020</ele>
        <time>2019-11-15T19:32:03Z</time>
      </trkpt>
      <trkpt lat="44.38827" lon="3.49443">
        <ele>1020</ele>
        <time>2019-11-15T19:32:14Z</time>
      </trkpt>
      <trkpt lat="44.38803" lon="3.49467">
        <ele>1019</ele>
        <time>2019-11-15T19:32:21Z</time>
      </trkpt>
      <trkpt lat="44.38791" lon="3.49488">
        <ele>1019</ele>
        <time>2019-11-15T19:32:25Z</time>
      </trkpt>
      <trkpt lat="44.38767" lon="3.49595">
        <ele>1016</ele>
        <time>2019-11-15T19:32:44Z</time>
      </trkpt>
      <trkpt lat="44.38765" lon="3.4961">
        <ele>1015</ele>
        <time>2019-11-15T19:32:46Z</time>
      </trkpt>
      <trkpt lat="44.38765" lon="3.49674">
        <ele>1013</ele>
        <time>2019-11-15T19:32:57Z</time>
      </trkpt>
      <trkpt lat="44.38757" lon="3.4966">
        <ele>1013</ele>
        <time>2019-11-15T19:33:00Z</time>
      </trkpt>
      <trkpt lat="44.38734" lon="3.49596">
        <ele>1015</ele>
        <time>2019-11-15T19:33:12Z</time>
      </trkpt>
      <trkpt lat="44.3872" lon="3.49547">
        <ele>1016</ele>
        <time>2019-11-15T19:33:21Z</time>
      </trkpt>
      <trkpt lat="44.38709" lon="3.49521">
        <ele>1016</ele>
        <time>2019-11-15T19:33:26Z</time>
      </trkpt>
      <trkpt lat="44.38689" lon="3.49489">
        <ele>1015</ele>
        <time>2019-11-15T19:33:33Z</time>
      </trkpt>
      <trkpt lat="44.3868" lon="3.49481">
        <ele>1014</ele>
        <time>2019-11-15T19:33:35Z</time>
      </trkpt>
      <trkpt lat="44.38666" lon="3.49476">
        <ele>1013</ele>
        <time>2019-11-15T19:33:39Z</time>
      </trkpt>
      <trkpt lat="44.38615" lon="3.49469">
        <ele>1013</ele>
        <time>2019-11-15T19:33:51Z</time>
      </trkpt>
      <trkpt lat="44.38587" lon="3.4947">
        <ele>1013</ele>
        <time>2019-11-15T19:33:57Z</time>
      </trkpt>
      <trkpt lat="44.38532" lon="3.49479">
        <ele>1016</ele>
        <time>2019-11-15T19:34:10Z</time>
      </trkpt>
      <trkpt lat="44.38473" lon="3.49519">
        <ele>1015</ele>
        <time>2019-11-15T19:34:25Z</time>
      </trkpt>
      <trkpt lat="44.38448" lon="3.49531">
        <ele>1014</ele>
        <time>2019-11-15T19:34:32Z</time>
      </trkpt>
      <trkpt lat="44.38402" lon="3.49546">
        <ele>1011</ele>
        <time>2019-11-15T19:34:43Z</time>
      </trkpt>
      <trkpt lat="44.38376" lon="3.49549">
        <ele>1009</ele>
        <time>2019-11-15T19:34:49Z</time>
      </trkpt>
      <trkpt lat="44.38361" lon="3.49555">
        <ele>1008</ele>
        <time>2019-11-15T19:34:52Z</time>
      </trkpt>
      <trkpt lat="44.38336" lon="3.4957">
        <ele>1006</ele>
        <time>2019-11-15T19:34:59Z</time>
      </trkpt>
      <trkpt lat="44.38324" lon="3.49572">
        <ele>1006</ele>
        <time>2019-11-15T19:35:02Z</time>
      </trkpt>
      <trkpt lat="44.38309" lon="3.4957">
        <ele>1005</ele>
        <time>2019-11-15T19:35:05Z</time>
      </trkpt>
      <trkpt lat="44.38261" lon="3.49557">
        <ele>1003</ele>
        <time>2019-11-15T19:35:17Z</time>
      </trkpt>
      <trkpt lat="44.38236" lon="3.49556">
        <ele>1001</ele>
        <time>2019-11-15T19:35:22Z</time>
      </trkpt>
      <trkpt lat="44.38202" lon="3.49542">
        <ele>998</ele>
        <time>2019-11-15T19:35:31Z</time>
      </trkpt>
      <trkpt lat="44.38138" lon="3.49524">
        <ele>992</ele>
        <time>2019-11-15T19:35:46Z</time>
      </trkpt>
      <trkpt lat="44.38128" lon="3.49518">
        <ele>991</ele>
        <time>2019-11-15T19:35:48Z</time>
      </trkpt>
      <trkpt lat="44.38118" lon="3.49507">
        <ele>990</ele>
        <time>2019-11-15T19:35:51Z</time>
      </trkpt>
      <trkpt lat="44.38067" lon="3.49428">
        <ele>981</ele>
        <time>2019-11-15T19:36:09Z</time>
      </trkpt>
      <trkpt lat="44.38052" lon="3.49417">
        <ele>979</ele>
        <time>2019-11-15T19:36:13Z</time>
      </trkpt>
      <trkpt lat="44.38037" lon="3.4941">
        <ele>978</ele>
        <time>2019-11-15T19:36:17Z</time>
      </trkpt>
      <trkpt lat="44.38023" lon="3.49407">
        <ele>977</ele>
        <time>2019-11-15T19:36:20Z</time>
      </trkpt>
      <trkpt lat="44.37985" lon="3.49409">
        <ele>975</ele>
        <time>2019-11-15T19:36:29Z</time>
      </trkpt>
      <trkpt lat="44.3794" lon="3.49404">
        <ele>972</ele>
        <time>2019-11-15T19:36:40Z</time>
      </trkpt>
      <trkpt lat="44.37887" lon="3.49416">
        <ele>969</ele>
        <time>2019-11-15T19:36:52Z</time>
      </trkpt>
      <trkpt lat="44.37838" lon="3.49417">
        <ele>964</ele>
        <time>2019-11-15T19:37:04Z</time>
      </trkpt>
      <trkpt lat="44.37799" lon="3.49423">
        <ele>962</ele>
        <time>2019-11-15T19:37:13Z</time>
      </trkpt>
      <trkpt lat="44.37778" lon="3.49422">
        <ele>961</ele>
        <time>2019-11-15T19:37:18Z</time>
      </trkpt>
      <trkpt lat="44.37764" lon="3.49424">
        <ele>960</ele>
        <time>2019-11-15T19:37:21Z</time>
      </trkpt>
      <trkpt lat="44.3773" lon="3.49437">
        <ele>958</ele>
        <time>2019-11-15T19:37:29Z</time>
      </trkpt>
      <trkpt lat="44.37712" lon="3.49447">
        <ele>958</ele>
        <time>2019-11-15T19:37:34Z</time>
      </trkpt>
      <trkpt lat="44.37702" lon="3.49458">
        <ele>957</ele>
        <time>2019-11-15T19:37:37Z</time>
      </trkpt>
      <trkpt lat="44.3769" lon="3.4949">
        <ele>957</ele>
        <time>2019-11-15T19:37:43Z</time>
      </trkpt>
      <trkpt lat="44.37684" lon="3.49499">
        <ele>957</ele>
        <time>2019-11-15T19:37:45Z</time>
      </trkpt>
      <trkpt lat="44.37671" lon="3.49509">
        <ele>957</ele>
        <time>2019-11-15T19:37:48Z</time>
      </trkpt>
      <trkpt lat="44.37645" lon="3.49537">
        <ele>957</ele>
        <time>2019-11-15T19:37:56Z</time>
      </trkpt>
      <trkpt lat="44.3763" lon="3.49567">
        <ele>958</ele>
        <time>2019-11-15T19:38:02Z</time>
      </trkpt>
      <trkpt lat="44.37624" lon="3.49573">
        <ele>958</ele>
        <time>2019-11-15T19:38:04Z</time>
      </trkpt>
      <trkpt lat="44.3758" lon="3.49601">
        <ele>958</ele>
        <time>2019-11-15T19:38:15Z</time>
      </trkpt>
      <trkpt lat="44.37538" lon="3.49633">
        <ele>957</ele>
        <time>2019-11-15T19:38:26Z</time>
      </trkpt>
      <trkpt lat="44.37525" lon="3.49639">
        <ele>956</ele>
        <time>2019-11-15T19:38:29Z</time>
      </trkpt>
      <trkpt lat="44.37505" lon="3.49656">
        <ele>955</ele>
        <time>2019-11-15T19:38:35Z</time>
      </trkpt>
      <trkpt lat="44.37479" lon="3.49661">
        <ele>954</ele>
        <time>2019-11-15T19:38:41Z</time>
      </trkpt>
      <trkpt lat="44.37462" lon="3.49659">
        <ele>953</ele>
        <time>2019-11-15T19:38:45Z</time>
      </trkpt>
      <trkpt lat="44.37441" lon="3.49662">
        <ele>952</ele>
        <time>2019-11-15T19:38:50Z</time>
      </trkpt>
      <trkpt lat="44.37422" lon="3.49671">
        <ele>951</ele>
        <time>2019-11-15T19:38:54Z</time>
      </trkpt>
      <trkpt lat="44.37399" lon="3.49686">
        <ele>950</ele>
        <time>2019-11-15T19:39:00Z</time>
      </trkpt>
      <trkpt lat="44.37295" lon="3.49732">
        <ele>950</ele>
        <time>2019-11-15T19:39:26Z</time>
      </trkpt>
      <trkpt lat="44.37257" lon="3.49745">
        <ele>951</ele>
        <time>2019-11-15T19:39:35Z</time>
      </trkpt>
      <trkpt lat="44.37225" lon="3.49753">
        <ele>951</ele>
        <time>2019-11-15T19:39:43Z</time>
      </trkpt>
      <trkpt lat="44.37176" lon="3.49771">
        <ele>951</ele>
        <time>2019-11-15T19:39:54Z</time>
      </trkpt>
      <trkpt lat="44.37131" lon="3.49811">
        <ele>953</ele>
        <time>2019-11-15T19:40:07Z</time>
      </trkpt>
      <trkpt lat="44.37084" lon="3.49847">
        <ele>955</ele>
        <time>2019-11-15T19:40:19Z</time>
      </trkpt>
      <trkpt lat="44.37066" lon="3.49853">
        <ele>957</ele>
        <time>2019-11-15T19:40:24Z</time>
      </trkpt>
      <trkpt lat="44.36995" lon="3.49855">
        <ele>962</ele>
        <time>2019-11-15T19:40:40Z</time>
      </trkpt>
      <trkpt lat="44.36951" lon="3.49859">
        <ele>964</ele>
        <time>2019-11-15T19:40:51Z</time>
      </trkpt>
      <trkpt lat="44.36925" lon="3.49855">
        <ele>965</ele>
        <time>2019-11-15T19:40:57Z</time>
      </trkpt>
      <trkpt lat="44.36893" lon="3.49854">
        <ele>966</ele>
        <time>2019-11-15T19:41:04Z</time>
      </trkpt>
      <trkpt lat="44.36823" lon="3.49862">
        <ele>968</ele>
        <time>2019-11-15T19:41:21Z</time>
      </trkpt>
      <trkpt lat="44.36704" lon="3.49843">
        <ele>976</ele>
        <time>2019-11-15T19:41:49Z</time>
      </trkpt>
      <trkpt lat="44.36692" lon="3.49839">
        <ele>977</ele>
        <time>2019-11-15T19:41:51Z</time>
      </trkpt>
      <trkpt lat="44.36639" lon="3.49804">
        <ele>980</ele>
        <time>2019-11-15T19:42:05Z</time>
      </trkpt>
      <trkpt lat="44.36623" lon="3.49797">
        <ele>981</ele>
        <time>2019-11-15T19:42:09Z</time>
      </trkpt>
      <trkpt lat="44.36612" lon="3.49795">
        <ele>981</ele>
        <time>2019-11-15T19:42:12Z</time>
      </trkpt>
      <trkpt lat="44.36593" lon="3.49801">
        <ele>981</ele>
        <time>2019-11-15T19:42:16Z</time>
      </trkpt>
      <trkpt lat="44.36549" lon="3.49842">
        <ele>978</ele>
        <time>2019-11-15T19:42:29Z</time>
      </trkpt>
      <trkpt lat="44.36508" lon="3.49869">
        <ele>974</ele>
        <time>2019-11-15T19:42:39Z</time>
      </trkpt>
      <trkpt lat="44.36497" lon="3.49871">
        <ele>974</ele>
        <time>2019-11-15T19:42:42Z</time>
      </trkpt>
      <trkpt lat="44.36484" lon="3.4987">
        <ele>974</ele>
        <time>2019-11-15T19:42:45Z</time>
      </trkpt>
      <trkpt lat="44.36413" lon="3.49848">
        <ele>973</ele>
        <time>2019-11-15T19:43:02Z</time>
      </trkpt>
      <trkpt lat="44.36403" lon="3.49849">
        <ele>974</ele>
        <time>2019-11-15T19:43:04Z</time>
      </trkpt>
      <trkpt lat="44.36399" lon="3.49852">
        <ele>974</ele>
        <time>2019-11-15T19:43:05Z</time>
      </trkpt>
      <trkpt lat="44.3639" lon="3.49874">
        <ele>973</ele>
        <time>2019-11-15T19:43:09Z</time>
      </trkpt>
      <trkpt lat="44.36381" lon="3.49887">
        <ele>972</ele>
        <time>2019-11-15T19:43:12Z</time>
      </trkpt>
      <trkpt lat="44.36337" lon="3.49939">
        <ele>967</ele>
        <time>2019-11-15T19:43:26Z</time>
      </trkpt>
      <trkpt lat="44.36305" lon="3.49988">
        <ele>959</ele>
        <time>2019-11-15T19:43:37Z</time>
      </trkpt>
      <trkpt lat="44.36248" lon="3.50052">
        <ele>952</ele>
        <time>2019-11-15T19:43:54Z</time>
      </trkpt>
      <trkpt lat="44.36239" lon="3.50065">
        <ele>952</ele>
        <time>2019-11-15T19:43:57Z</time>
      </trkpt>
      <trkpt lat="44.36233" lon="3.50089">
        <ele>951</ele>
        <time>2019-11-15T19:44:01Z</time>
      </trkpt>
      <trkpt lat="44.36232" lon="3.5016">
        <ele>947</ele>
        <time>2019-11-15T19:44:13Z</time>
      </trkpt>
      <trkpt lat="44.36222" lon="3.50221">
        <ele>945</ele>
        <time>2019-11-15T19:44:24Z</time>
      </trkpt>
      <trkpt lat="44.36177" lon="3.50427">
        <ele>935</ele>
        <time>2019-11-15T19:45:00Z</time>
      </trkpt>
      <trkpt lat="44.36159" lon="3.5049">
        <ele>927</ele>
        <time>2019-11-15T19:45:11Z</time>
      </trkpt>
      <trkpt lat="44.36132" lon="3.50511">
        <ele>926</ele>
        <time>2019-11-15T19:45:18Z</time>
      </trkpt>
      <trkpt lat="44.36111" lon="3.50496">
        <ele>927</ele>
        <time>2019-11-15T19:45:24Z</time>
      </trkpt>
      <trkpt lat="44.36068" lon="3.50475">
        <ele>929</ele>
        <time>2019-11-15T19:45:34Z</time>
      </trkpt>
      <trkpt lat="44.36042" lon="3.50494">
        <ele>927</ele>
        <time>2019-11-15T19:45:41Z</time>
      </trkpt>
      <trkpt lat="44.36009" lon="3.50496">
        <ele>926</ele>
        <time>2019-11-15T19:45:49Z</time>
      </trkpt>
      <trkpt lat="44.35949" lon="3.50535">
        <ele>923</ele>
        <time>2019-11-15T19:46:04Z</time>
      </trkpt>
      <trkpt lat="44.35932" lon="3.50543">
        <ele>922</ele>
        <time>2019-11-15T19:46:08Z</time>
      </trkpt>
      <trkpt lat="44.35923" lon="3.50543">
        <ele>922</ele>
        <time>2019-11-15T19:46:11Z</time>
      </trkpt>
      <trkpt lat="44.35908" lon="3.50548">
        <ele>922</ele>
        <time>2019-11-15T19:46:14Z</time>
      </trkpt>
      <trkpt lat="44.35872" lon="3.50584">
        <ele>920</ele>
        <time>2019-11-15T19:46:24Z</time>
      </trkpt>
      <trkpt lat="44.35842" lon="3.50608">
        <ele>920</ele>
        <time>2019-11-15T19:46:33Z</time>
      </trkpt>
      <trkpt lat="44.3582" lon="3.50648">
        <ele>917</ele>
        <time>2019-11-15T19:46:41Z</time>
      </trkpt>
      <trkpt lat="44.35769" lon="3.50726">
        <ele>912</ele>
        <time>2019-11-15T19:46:59Z</time>
      </trkpt>
      <trkpt lat="44.35736" lon="3.50754">
        <ele>905</ele>
        <time>2019-11-15T19:47:08Z</time>
      </trkpt>
      <trkpt lat="44.35724" lon="3.50754">
        <ele>902</ele>
        <time>2019-11-15T19:47:10Z</time>
      </trkpt>
      <trkpt lat="44.35721" lon="3.50758">
        <ele>900</ele>
        <time>2019-11-15T19:47:11Z</time>
      </trkpt>
      <trkpt lat="44.35732" lon="3.50781">
        <ele>899</ele>
        <time>2019-11-15T19:47:16Z</time>
      </trkpt>
      <trkpt lat="44.35739" lon="3.50809">
        <ele>897</ele>
        <time>2019-11-15T19:47:21Z</time>
      </trkpt>
      <trkpt lat="44.35724" lon="3.50792">
        <ele>894</ele>
        <time>2019-11-15T19:47:25Z</time>
      </trkpt>
      <trkpt lat="44.35732" lon="3.50844">
        <ele>888</ele>
        <time>2019-11-15T19:47:34Z</time>
      </trkpt>
      <trkpt lat="44.35734" lon="3.50876">
        <ele>882</ele>
        <time>2019-11-15T19:47:40Z</time>
      </trkpt>
      <trkpt lat="44.35743" lon="3.50912">
        <ele>879</ele>
        <time>2019-11-15T19:47:46Z</time>
      </trkpt>
      <trkpt lat="44.35745" lon="3.50953">
        <ele>876</ele>
        <time>2019-11-15T19:47:53Z</time>
      </trkpt>
      <trkpt lat="44.35743" lon="3.50985">
        <ele>872</ele>
        <time>2019-11-15T19:47:58Z</time>
      </trkpt>
      <trkpt lat="44.35734" lon="3.5102">
        <ele>864</ele>
        <time>2019-11-15T19:48:05Z</time>
      </trkpt>
      <trkpt lat="44.35726" lon="3.5103">
        <ele>858</ele>
        <time>2019-11-15T19:48:07Z</time>
      </trkpt>
      <trkpt lat="44.35721" lon="3.51028">
        <ele>855</ele>
        <time>2019-11-15T19:48:08Z</time>
      </trkpt>
      <trkpt lat="44.35706" lon="3.51052">
        <ele>845</ele>
        <time>2019-11-15T19:48:14Z</time>
      </trkpt>
      <trkpt lat="44.35689" lon="3.51095">
        <ele>834</ele>
        <time>2019-11-15T19:48:22Z</time>
      </trkpt>
      <trkpt lat="44.35678" lon="3.51135">
        <ele>825</ele>
        <time>2019-11-15T19:48:29Z</time>
      </trkpt>
      <trkpt lat="44.35674" lon="3.51163">
        <ele>822</ele>
        <time>2019-11-15T19:48:34Z</time>
      </trkpt>
      <trkpt lat="44.35668" lon="3.51155">
        <ele>819</ele>
        <time>2019-11-15T19:48:36Z</time>
      </trkpt>
      <trkpt lat="44.35666" lon="3.51142">
        <ele>818</ele>
        <time>2019-11-15T19:48:38Z</time>
      </trkpt>
      <trkpt lat="44.35657" lon="3.51181">
        <ele>809</ele>
        <time>2019-11-15T19:48:45Z</time>
      </trkpt>
      <trkpt lat="44.35657" lon="3.51189">
        <ele>807</ele>
        <time>2019-11-15T19:48:46Z</time>
      </trkpt>
      <trkpt lat="44.35666" lon="3.51208">
        <ele>806</ele>
        <time>2019-11-15T19:48:50Z</time>
      </trkpt>
      <trkpt lat="44.35666" lon="3.51217">
        <ele>803</ele>
        <time>2019-11-15T19:48:51Z</time>
      </trkpt>
      <trkpt lat="44.35661" lon="3.51221">
        <ele>800</ele>
        <time>2019-11-15T19:48:53Z</time>
      </trkpt>
      <trkpt lat="44.35644" lon="3.51213">
        <ele>795</ele>
        <time>2019-11-15T19:48:57Z</time>
      </trkpt>
      <trkpt lat="44.35636" lon="3.51204">
        <ele>793</ele>
        <time>2019-11-15T19:48:59Z</time>
      </trkpt>
      <trkpt lat="44.35623" lon="3.51174">
        <ele>791</ele>
        <time>2019-11-15T19:49:05Z</time>
      </trkpt>
      <trkpt lat="44.35618" lon="3.51176">
        <ele>788</ele>
        <time>2019-11-15T19:49:06Z</time>
      </trkpt>
      <trkpt lat="44.35614" lon="3.51204">
        <ele>783</ele>
        <time>2019-11-15T19:49:11Z</time>
      </trkpt>
      <trkpt lat="44.35616" lon="3.51266">
        <ele>773</ele>
        <time>2019-11-15T19:49:21Z</time>
      </trkpt>
      <trkpt lat="44.3561" lon="3.51266">
        <ele>772</ele>
        <time>2019-11-15T19:49:23Z</time>
      </trkpt>
      <trkpt lat="44.35599" lon="3.51258">
        <ele>771</ele>
        <time>2019-11-15T19:49:26Z</time>
      </trkpt>
      <trkpt lat="44.35588" lon="3.51234">
        <ele>770</ele>
        <time>2019-11-15T19:49:31Z</time>
      </trkpt>
      <trkpt lat="44.35575" lon="3.51288">
        <ele>754</ele>
        <time>2019-11-15T19:49:40Z</time>
      </trkpt>
      <trkpt lat="44.35578" lon="3.5132">
        <ele>748</ele>
        <time>2019-11-15T19:49:45Z</time>
      </trkpt>
      <trkpt lat="44.35582" lon="3.51329">
        <ele>748</ele>
        <time>2019-11-15T19:49:47Z</time>
      </trkpt>
      <trkpt lat="44.35575" lon="3.51333">
        <ele>744</ele>
        <time>2019-11-15T19:49:49Z</time>
      </trkpt>
      <trkpt lat="44.35563" lon="3.51326">
        <ele>741</ele>
        <time>2019-11-15T19:49:52Z</time>
      </trkpt>
      <trkpt lat="44.35552" lon="3.51311">
        <ele>739</ele>
        <time>2019-11-15T19:49:56Z</time>
      </trkpt>
      <trkpt lat="44.35545" lon="3.51284">
        <ele>740</ele>
        <time>2019-11-15T19:50:00Z</time>
      </trkpt>
      <trkpt lat="44.35541" lon="3.51288">
        <ele>738</ele>
        <time>2019-11-15T19:50:02Z</time>
      </trkpt>
      <trkpt lat="44.35533" lon="3.51329">
        <ele>729</ele>
        <time>2019-11-15T19:50:09Z</time>
      </trkpt>
      <trkpt lat="44.35537" lon="3.51352">
        <ele>726</ele>
        <time>2019-11-15T19:50:13Z</time>
      </trkpt>
      <trkpt lat="44.35545" lon="3.51372">
        <ele>722</ele>
        <time>2019-11-15T19:50:16Z</time>
      </trkpt>
      <trkpt lat="44.3556" lon="3.51387">
        <ele>721</ele>
        <time>2019-11-15T19:50:21Z</time>
      </trkpt>
      <trkpt lat="44.35582" lon="3.51395">
        <ele>722</ele>
        <time>2019-11-15T19:50:26Z</time>
      </trkpt>
      <trkpt lat="44.35595" lon="3.51404">
        <ele>719</ele>
        <time>2019-11-15T19:50:29Z</time>
      </trkpt>
      <trkpt lat="44.35631" lon="3.51417">
        <ele>716</ele>
        <time>2019-11-15T19:50:38Z</time>
      </trkpt>
      <trkpt lat="44.35644" lon="3.51425">
        <ele>714</ele>
        <time>2019-11-15T19:50:41Z</time>
      </trkpt>
      <trkpt lat="44.35659" lon="3.51429">
        <ele>713</ele>
        <time>2019-11-15T19:50:45Z</time>
      </trkpt>
      <trkpt lat="44.35681" lon="3.51442">
        <ele>711</ele>
        <time>2019-11-15T19:50:51Z</time>
      </trkpt>
      <trkpt lat="44.35677" lon="3.5144">
        <ele>711</ele>
        <time>2019-11-15T19:50:52Z</time>
      </trkpt>
      <trkpt lat="44.35681" lon="3.51442">
        <ele>711</ele>
        <time>2019-11-15T19:50:53Z</time>
      </trkpt>
      <trkpt lat="44.35689" lon="3.51462">
        <ele>704</ele>
        <time>2019-11-15T19:50:56Z</time>
      </trkpt>
      <trkpt lat="44.35751" lon="3.51539">
        <ele>687</ele>
        <time>2019-11-15T19:51:16Z</time>
      </trkpt>
      <trkpt lat="44.35781" lon="3.51586">
        <ele>678</ele>
        <time>2019-11-15T19:51:26Z</time>
      </trkpt>
      <trkpt lat="44.35801" lon="3.51603">
        <ele>678</ele>
        <time>2019-11-15T19:51:32Z</time>
      </trkpt>
      <trkpt lat="44.35844" lon="3.51661">
        <ele>672</ele>
        <time>2019-11-15T19:51:46Z</time>
      </trkpt>
      <trkpt lat="44.35857" lon="3.51685">
        <ele>671</ele>
        <time>2019-11-15T19:51:51Z</time>
      </trkpt>
      <trkpt lat="44.35833" lon="3.51676">
        <ele>662</ele>
        <time>2019-11-15T19:51:56Z</time>
      </trkpt>
      <trkpt lat="44.35831" lon="3.51683">
        <ele>659</ele>
        <time>2019-11-15T19:51:58Z</time>
      </trkpt>
      <trkpt lat="44.35846" lon="3.51715">
        <ele>656</ele>
        <time>2019-11-15T19:52:04Z</time>
      </trkpt>
      <trkpt lat="44.35846" lon="3.51728">
        <ele>652</ele>
        <time>2019-11-15T19:52:06Z</time>
      </trkpt>
      <trkpt lat="44.3585" lon="3.51736">
        <ele>652</ele>
        <time>2019-11-15T19:52:08Z</time>
      </trkpt>
      <trkpt lat="44.35852" lon="3.51758">
        <ele>646</ele>
        <time>2019-11-15T19:52:12Z</time>
      </trkpt>
      <trkpt lat="44.35857" lon="3.51768">
        <ele>645</ele>
        <time>2019-11-15T19:52:14Z</time>
      </trkpt>
      <trkpt lat="44.35852" lon="3.51771">
        <ele>642</ele>
        <time>2019-11-15T19:52:15Z</time>
      </trkpt>
      <trkpt lat="44.35837" lon="3.51749">
        <ele>642</ele>
        <time>2019-11-15T19:52:20Z</time>
      </trkpt>
      <trkpt lat="44.35846" lon="3.51814">
        <ele>627</ele>
        <time>2019-11-15T19:52:31Z</time>
      </trkpt>
      <trkpt lat="44.35842" lon="3.51814">
        <ele>625</ele>
        <time>2019-11-15T19:52:32Z</time>
      </trkpt>
      <trkpt lat="44.35835" lon="3.51796">
        <ele>627</ele>
        <time>2019-11-15T19:52:35Z</time>
      </trkpt>
      <trkpt lat="44.35829" lon="3.5179">
        <ele>627</ele>
        <time>2019-11-15T19:52:37Z</time>
      </trkpt>
      <trkpt lat="44.35805" lon="3.51779">
        <ele>622</ele>
        <time>2019-11-15T19:52:43Z</time>
      </trkpt>
      <trkpt lat="44.3579" lon="3.51779">
        <ele>617</ele>
        <time>2019-11-15T19:52:47Z</time>
      </trkpt>
      <trkpt lat="44.35766" lon="3.51794">
        <ele>605</ele>
        <time>2019-11-15T19:52:53Z</time>
      </trkpt>
      <trkpt lat="44.35756" lon="3.51796">
        <ele>601</ele>
        <time>2019-11-15T19:52:55Z</time>
      </trkpt>
      <trkpt lat="44.35749" lon="3.51805">
        <ele>597</ele>
        <time>2019-11-15T19:52:57Z</time>
      </trkpt>
      <trkpt lat="44.35739" lon="3.51809">
        <ele>592</ele>
        <time>2019-11-15T19:53:00Z</time>
      </trkpt>
      <trkpt lat="44.35715" lon="3.51811">
        <ele>584</ele>
        <time>2019-11-15T19:53:05Z</time>
      </trkpt>
      <trkpt lat="44.357" lon="3.51805">
        <ele>581</ele>
        <time>2019-11-15T19:53:09Z</time>
      </trkpt>
      <trkpt lat="44.35696" lon="3.51807">
        <ele>579</ele>
        <time>2019-11-15T19:53:10Z</time>
      </trkpt>
      <trkpt lat="44.35694" lon="3.51814">
        <ele>576</ele>
        <time>2019-11-15T19:53:11Z</time>
      </trkpt>
      <trkpt lat="44.35698" lon="3.5182">
        <ele>576</ele>
        <time>2019-11-15T19:53:13Z</time>
      </trkpt>
      <trkpt lat="44.35696" lon="3.51824">
        <ele>574</ele>
        <time>2019-11-15T19:53:13Z</time>
      </trkpt>
      <trkpt lat="44.35672" lon="3.5182">
        <ele>568</ele>
        <time>2019-11-15T19:53:19Z</time>
      </trkpt>
      <trkpt lat="44.35663" lon="3.51811">
        <ele>567</ele>
        <time>2019-11-15T19:53:22Z</time>
      </trkpt>
      <trkpt lat="44.35651" lon="3.51807">
        <ele>564</ele>
        <time>2019-11-15T19:53:24Z</time>
      </trkpt>
      <trkpt lat="44.35621" lon="3.51809">
        <ele>553</ele>
        <time>2019-11-15T19:53:32Z</time>
      </trkpt>
      <trkpt lat="44.35616" lon="3.51805">
        <ele>552</ele>
        <time>2019-11-15T19:53:33Z</time>
      </trkpt>
      <trkpt lat="44.35614" lon="3.51816">
        <ele>548</ele>
        <time>2019-11-15T19:53:35Z</time>
      </trkpt>
      <trkpt lat="44.35625" lon="3.51829">
        <ele>547</ele>
        <time>2019-11-15T19:53:38Z</time>
      </trkpt>
      <trkpt lat="44.35625" lon="3.51833">
        <ele>546</ele>
        <time>2019-11-15T19:53:39Z</time>
      </trkpt>
      <trkpt lat="44.35593" lon="3.51835">
        <ele>533</ele>
        <time>2019-11-15T19:53:46Z</time>
      </trkpt>
      <trkpt lat="44.35619" lon="3.51835">
        <ele>543</ele>
        <time>2019-11-15T19:53:52Z</time>
      </trkpt>
      <trkpt lat="44.35593" lon="3.51835">
        <ele>533</ele>
        <time>2019-11-15T19:53:58Z</time>
      </trkpt>
      <trkpt lat="44.35563" lon="3.51826">
        <ele>528</ele>
        <time>2019-11-15T19:54:06Z</time>
      </trkpt>
      <trkpt lat="44.35558" lon="3.51829">
        <ele>525</ele>
        <time>2019-11-15T19:54:07Z</time>
      </trkpt>
      <trkpt lat="44.35549" lon="3.51846">
        <ele>519</ele>
        <time>2019-11-15T19:54:10Z</time>
      </trkpt>
      <trkpt lat="44.35522" lon="3.51846">
        <ele>513</ele>
        <time>2019-11-15T19:54:17Z</time>
      </trkpt>
      <trkpt lat="44.3576" lon="3.52067">
        <ele>519</ele>
        <time>2019-11-15T19:55:23Z</time>
      </trkpt>
      <trkpt lat="44.35889" lon="3.52147">
        <ele>514</ele>
        <time>2019-11-15T19:55:56Z</time>
      </trkpt>
      <trkpt lat="44.36056" lon="3.52173">
        <ele>511</ele>
        <time>2019-11-15T19:56:36Z</time>
      </trkpt>
      <trkpt lat="44.36126" lon="3.52215">
        <ele>509</ele>
        <time>2019-11-15T19:56:53Z</time>
      </trkpt>
      <trkpt lat="44.36198" lon="3.5221">
        <ele>514</ele>
        <time>2019-11-15T19:57:10Z</time>
      </trkpt>
      <trkpt lat="44.36275" lon="3.52241">
        <ele>507</ele>
        <time>2019-11-15T19:57:29Z</time>
      </trkpt>
      <trkpt lat="44.36452" lon="3.52192">
        <ele>513</ele>
        <time>2019-11-15T19:58:11Z</time>
      </trkpt>
      <trkpt lat="44.36565" lon="3.52197">
        <ele>508</ele>
        <time>2019-11-15T19:58:37Z</time>
      </trkpt>
      <trkpt lat="44.36763" lon="3.52085">
        <ele>514</ele>
        <time>2019-11-15T19:59:27Z</time>
      </trkpt>
      <trkpt lat="44.36824" lon="3.52072">
        <ele>514</ele>
        <time>2019-11-15T19:59:42Z</time>
      </trkpt>
      <trkpt lat="44.36959" lon="3.51978">
        <ele>522</ele>
        <time>2019-11-15T20:00:17Z</time>
      </trkpt>
      <trkpt lat="44.37113" lon="3.51911">
        <ele>526</ele>
        <time>2019-11-15T20:00:55Z</time>
      </trkpt>
      <trkpt lat="44.37244" lon="3.51908">
        <ele>519</ele>
        <time>2019-11-15T20:01:25Z</time>
      </trkpt>
      <trkpt lat="44.37399" lon="3.51989">
        <ele>520</ele>
        <time>2019-11-15T20:02:04Z</time>
      </trkpt>
      <trkpt lat="44.3742" lon="3.52002">
        <ele>517</ele>
        <time>2019-11-15T20:02:09Z</time>
      </trkpt>
      <trkpt lat="44.37494" lon="3.52023">
        <ele>526</ele>
        <time>2019-11-15T20:02:27Z</time>
      </trkpt>
      <trkpt lat="44.37605" lon="3.52119">
        <ele>514</ele>
        <time>2019-11-15T20:02:57Z</time>
      </trkpt>
      <trkpt lat="44.37657" lon="3.52116">
        <ele>518</ele>
        <time>2019-11-15T20:03:09Z</time>
      </trkpt>
      <trkpt lat="44.37682" lon="3.52166">
        <ele>513</ele>
        <time>2019-11-15T20:03:20Z</time>
      </trkpt>
      <trkpt lat="44.37671" lon="3.5248">
        <ele>516</ele>
        <time>2019-11-15T20:04:12Z</time>
      </trkpt>
      <trkpt lat="44.37605" lon="3.52623">
        <ele>514</ele>
        <time>2019-11-15T20:04:41Z</time>
      </trkpt>
      <trkpt lat="44.37565" lon="3.52766">
        <ele>515</ele>
        <time>2019-11-15T20:05:06Z</time>
      </trkpt>
      <trkpt lat="44.3747" lon="3.52737">
        <ele>509</ele>
        <time>2019-11-15T20:05:29Z</time>
      </trkpt>
      <trkpt lat="44.37411" lon="3.52587">
        <ele>503</ele>
        <time>2019-11-15T20:05:57Z</time>
      </trkpt>
      <trkpt lat="44.37326" lon="3.52688">
        <ele>505</ele>
        <time>2019-11-15T20:06:24Z</time>
      </trkpt>
      <trkpt lat="44.3726" lon="3.52735">
        <ele>506</ele>
        <time>2019-11-15T20:06:41Z</time>
      </trkpt>
      <trkpt lat="44.37256" lon="3.52763">
        <ele>506</ele>
        <time>2019-11-15T20:06:46Z</time>
      </trkpt>
      <trkpt lat="44.37231" lon="3.52802">
        <ele>506</ele>
        <time>2019-11-15T20:06:54Z</time>
      </trkpt>
      <trkpt lat="44.37258" lon="3.5288">
        <ele>508</ele>
        <time>2019-11-15T20:07:09Z</time>
      </trkpt>
      <trkpt lat="44.37222" lon="3.53033">
        <ele>509</ele>
        <time>2019-11-15T20:07:36Z</time>
      </trkpt>
      <trkpt lat="44.372" lon="3.53145">
        <ele>511</ele>
        <time>2019-11-15T20:07:55Z</time>
      </trkpt>
    </trkseg>
  </trk>
</gpx>